<?xml version="1.0" encoding="UTF-8" standalone="no" ?>
<gpx xmlns="http://www.topografix.com/GPX/1/1" xmlns:xsi="http://www.w3.org/2001/XMLSchema-instance" xsi:schemaLocation="http://www.topografix.com/GPX/1/1 http://www.topografix.com/GPX/1/1/gpx.xsd" version="1.1" creator="VisuGPX - https://www.visugpx.com">
  <metadata>
    <name>croix de Belledonne depuis Freydière</name>
    <desc><![CDATA[magnifique randonnée jusqu'au sommet de la croix de belledonne, deuxième sommets le plus haut atteignable en randonnée classique.]]></desc>
  </metadata>
  <trk>
    <name><![CDATA[Move]]></name>
    <trkseg>
      <trkpt lat="45.18431" lon="5.90669">
        <ele>1247.6999511719</ele>
        <time>2020-07-26T05:22:22.009Z</time>
      </trkpt>
      <trkpt lat="45.18431" lon="5.90673">
        <ele>1234.1</ele>
        <time>2020-07-26T05:22:29.009Z</time>
      </trkpt>
      <trkpt lat="45.18428" lon="5.90687">
        <ele>1251.88390016</ele>
        <time>2020-07-26T05:22:39.009Z</time>
      </trkpt>
      <trkpt lat="45.18427" lon="5.90701">
        <ele>1255.53560064</ele>
        <time>2020-07-26T05:22:49.009Z</time>
      </trkpt>
      <trkpt lat="45.18431" lon="5.90715">
        <ele>1256.98390016</ele>
        <time>2020-07-26T05:23:20.009Z</time>
      </trkpt>
      <trkpt lat="45.18436" lon="5.90728">
        <ele>1257.58390016</ele>
        <time>2020-07-26T05:23:36.009Z</time>
      </trkpt>
      <trkpt lat="45.18445" lon="5.90738">
        <ele>1258.96780032</ele>
        <time>2020-07-26T05:23:45.009Z</time>
      </trkpt>
      <trkpt lat="45.18452" lon="5.90748">
        <ele>1261.58390016</ele>
        <time>2020-07-26T05:24:06.009Z</time>
      </trkpt>
      <trkpt lat="45.1846" lon="5.9076">
        <ele>1263.56780032</ele>
        <time>2020-07-26T05:24:18.009Z</time>
      </trkpt>
      <trkpt lat="45.18469" lon="5.90767">
        <ele>1265.1679169248</ele>
        <time>2020-07-26T05:24:26.009Z</time>
      </trkpt>
      <trkpt lat="45.18477" lon="5.90775">
        <ele>1266.9679033645</ele>
        <time>2020-07-26T05:24:35.009Z</time>
      </trkpt>
      <trkpt lat="45.18486" lon="5.90783">
        <ele>1269.36780032</ele>
        <time>2020-07-26T05:24:47.009Z</time>
      </trkpt>
      <trkpt lat="45.18495" lon="5.90792">
        <ele>1270</ele>
        <time>2020-07-26T05:24:57.009Z</time>
      </trkpt>
      <trkpt lat="45.18501" lon="5.90804">
        <ele>1271.76780032</ele>
        <time>2020-07-26T05:25:09.009Z</time>
      </trkpt>
      <trkpt lat="45.1851" lon="5.90809">
        <ele>1273.75170048</ele>
        <time>2020-07-26T05:25:16.009Z</time>
      </trkpt>
      <trkpt lat="45.18519" lon="5.90818">
        <ele>1276.45170048</ele>
        <time>2020-07-26T05:25:25.009Z</time>
      </trkpt>
      <trkpt lat="45.18526" lon="5.90828">
        <ele>1278.76780032</ele>
        <time>2020-07-26T05:25:34.009Z</time>
      </trkpt>
      <trkpt lat="45.18533" lon="5.9084">
        <ele>1280.48390016</ele>
        <time>2020-07-26T05:25:45.009Z</time>
      </trkpt>
      <trkpt lat="45.18539" lon="5.90852">
        <ele>1282.93560064</ele>
        <time>2020-07-26T05:25:55.009Z</time>
      </trkpt>
      <trkpt lat="45.18548" lon="5.9086">
        <ele>1285.38390016</ele>
        <time>2020-07-26T05:26:04.009Z</time>
      </trkpt>
      <trkpt lat="45.18556" lon="5.90869">
        <ele>1286.96780032</ele>
        <time>2020-07-26T05:26:15.009Z</time>
      </trkpt>
      <trkpt lat="45.18563" lon="5.9088">
        <ele>1288.78390016</ele>
        <time>2020-07-26T05:26:28.009Z</time>
      </trkpt>
      <trkpt lat="45.18571" lon="5.9089">
        <ele>1289</ele>
        <time>2020-07-26T05:26:39.009Z</time>
      </trkpt>
      <trkpt lat="45.18577" lon="5.90901">
        <ele>1290.96780032</ele>
        <time>2020-07-26T05:26:50.009Z</time>
      </trkpt>
      <trkpt lat="45.18584" lon="5.90911">
        <ele>1292.96780032</ele>
        <time>2020-07-26T05:27:00.009Z</time>
      </trkpt>
      <trkpt lat="45.18592" lon="5.90919">
        <ele>1296.5320697006</ele>
        <time>2020-07-26T05:27:09.009Z</time>
      </trkpt>
      <trkpt lat="45.18599" lon="5.90931">
        <ele>1299.3510517394</ele>
        <time>2020-07-26T05:27:18.009Z</time>
      </trkpt>
      <trkpt lat="45.18608" lon="5.90941">
        <ele>1301.33560064</ele>
        <time>2020-07-26T05:28:31.009Z</time>
      </trkpt>
      <trkpt lat="45.18616" lon="5.90952">
        <ele>1306.13560064</ele>
        <time>2020-07-26T05:28:43.009Z</time>
      </trkpt>
      <trkpt lat="45.18624" lon="5.90961">
        <ele>1308.91609984</ele>
        <time>2020-07-26T05:28:51.009Z</time>
      </trkpt>
      <trkpt lat="45.18629" lon="5.90974">
        <ele>1308.11609984</ele>
        <time>2020-07-26T05:28:59.009Z</time>
      </trkpt>
      <trkpt lat="45.18637" lon="5.90985">
        <ele>1311.4195008</ele>
        <time>2020-07-26T05:29:07.009Z</time>
      </trkpt>
      <trkpt lat="45.18646" lon="5.90995">
        <ele>1315.4195008</ele>
        <time>2020-07-26T05:29:15.009Z</time>
      </trkpt>
      <trkpt lat="45.18654" lon="5.91005">
        <ele>1319.45170048</ele>
        <time>2020-07-26T05:29:25.009Z</time>
      </trkpt>
      <trkpt lat="45.18659" lon="5.91017">
        <ele>1323.35170048</ele>
        <time>2020-07-26T05:29:38.009Z</time>
      </trkpt>
      <trkpt lat="45.18664" lon="5.9103">
        <ele>1325.56780032</ele>
        <time>2020-07-26T05:29:48.009Z</time>
      </trkpt>
      <trkpt lat="45.1867" lon="5.91042">
        <ele>1326.88390016</ele>
        <time>2020-07-26T05:29:59.009Z</time>
      </trkpt>
      <trkpt lat="45.18677" lon="5.91053">
        <ele>1330.93560064</ele>
        <time>2020-07-26T05:30:10.009Z</time>
      </trkpt>
      <trkpt lat="45.18685" lon="5.91063">
        <ele>1332.56780032</ele>
        <time>2020-07-26T05:30:18.009Z</time>
      </trkpt>
      <trkpt lat="45.18693" lon="5.91072">
        <ele>1340.9195008</ele>
        <time>2020-07-26T05:30:42.009Z</time>
      </trkpt>
      <trkpt lat="45.187" lon="5.91082">
        <ele>1345.7356740897</ele>
        <time>2020-07-26T05:30:52.009Z</time>
      </trkpt>
      <trkpt lat="45.1871" lon="5.91089">
        <ele>1349.5679432965</ele>
        <time>2020-07-26T05:31:03.009Z</time>
      </trkpt>
      <trkpt lat="45.18719" lon="5.91094">
        <ele>1351</ele>
        <time>2020-07-26T05:31:16.009Z</time>
      </trkpt>
      <trkpt lat="45.1873" lon="5.91098">
        <ele>1352.16780032</ele>
        <time>2020-07-26T05:31:26.009Z</time>
      </trkpt>
      <trkpt lat="45.1874" lon="5.91098">
        <ele>1353.58390016</ele>
        <time>2020-07-26T05:31:36.009Z</time>
      </trkpt>
      <trkpt lat="45.1875" lon="5.91103">
        <ele>1354</ele>
        <time>2020-07-26T05:31:45.009Z</time>
      </trkpt>
      <trkpt lat="45.18761" lon="5.91103">
        <ele>1354.58390016</ele>
        <time>2020-07-26T05:31:56.009Z</time>
      </trkpt>
      <trkpt lat="45.1877" lon="5.91108">
        <ele>1356.4502506934</ele>
        <time>2020-07-26T05:32:05.009Z</time>
      </trkpt>
      <trkpt lat="45.18779" lon="5.91114">
        <ele>1358.766567282</ele>
        <time>2020-07-26T05:32:14.009Z</time>
      </trkpt>
      <trkpt lat="45.18788" lon="5.91122">
        <ele>1360.36780032</ele>
        <time>2020-07-26T05:32:22.009Z</time>
      </trkpt>
      <trkpt lat="45.18792" lon="5.91132">
        <ele>1361.56780032</ele>
        <time>2020-07-26T05:32:28.009Z</time>
      </trkpt>
      <trkpt lat="45.18796" lon="5.91143">
        <ele>1362.48390016</ele>
        <time>2020-07-26T05:32:35.009Z</time>
      </trkpt>
      <trkpt lat="45.18798" lon="5.91156">
        <ele>1362.43219968</ele>
        <time>2020-07-26T05:32:43.009Z</time>
      </trkpt>
      <trkpt lat="45.18793" lon="5.91167">
        <ele>1361.25170048</ele>
        <time>2020-07-26T05:32:51.009Z</time>
      </trkpt>
      <trkpt lat="45.18783" lon="5.91171">
        <ele>1363.95170048</ele>
        <time>2020-07-26T05:33:00.009Z</time>
      </trkpt>
      <trkpt lat="45.18777" lon="5.91181">
        <ele>1367.4195008</ele>
        <time>2020-07-26T05:33:13.009Z</time>
      </trkpt>
      <trkpt lat="45.18768" lon="5.91188">
        <ele>1371</ele>
        <time>2020-07-26T05:33:21.009Z</time>
      </trkpt>
      <trkpt lat="45.18759" lon="5.91195">
        <ele>1371</ele>
        <time>2020-07-26T05:33:31.009Z</time>
      </trkpt>
      <trkpt lat="45.18752" lon="5.91206">
        <ele>1371</ele>
        <time>2020-07-26T05:33:40.009Z</time>
      </trkpt>
      <trkpt lat="45.18746" lon="5.91217">
        <ele>1372.56780032</ele>
        <time>2020-07-26T05:33:48.009Z</time>
      </trkpt>
      <trkpt lat="45.18738" lon="5.91227">
        <ele>1374.75170048</ele>
        <time>2020-07-26T05:33:56.009Z</time>
      </trkpt>
      <trkpt lat="45.18731" lon="5.91237">
        <ele>1376.38390016</ele>
        <time>2020-07-26T05:34:04.009Z</time>
      </trkpt>
      <trkpt lat="45.18725" lon="5.91246">
        <ele>1377</ele>
        <time>2020-07-26T05:34:13.009Z</time>
      </trkpt>
      <trkpt lat="45.1872" lon="5.91254">
        <ele>1377</ele>
        <time>2020-07-26T05:34:18.009Z</time>
      </trkpt>
      <trkpt lat="45.18714" lon="5.91262">
        <ele>1378.13560064</ele>
        <time>2020-07-26T05:34:23.009Z</time>
      </trkpt>
      <trkpt lat="45.18712" lon="5.91274">
        <ele>1380.93560064</ele>
        <time>2020-07-26T05:34:30.009Z</time>
      </trkpt>
      <trkpt lat="45.18704" lon="5.91285">
        <ele>1382.36780032</ele>
        <time>2020-07-26T05:34:37.009Z</time>
      </trkpt>
      <trkpt lat="45.18698" lon="5.91294">
        <ele>1382.44829952</ele>
        <time>2020-07-26T05:34:42.009Z</time>
      </trkpt>
      <trkpt lat="45.18688" lon="5.91298">
        <ele>1380.04829952</ele>
        <time>2020-07-26T05:34:50.009Z</time>
      </trkpt>
      <trkpt lat="45.18678" lon="5.91301">
        <ele>1379.21609984</ele>
        <time>2020-07-26T05:34:58.009Z</time>
      </trkpt>
      <trkpt lat="45.18668" lon="5.91302">
        <ele>1380.48390016</ele>
        <time>2020-07-26T05:35:15.009Z</time>
      </trkpt>
      <trkpt lat="45.18659" lon="5.91304">
        <ele>1382.78390016</ele>
        <time>2020-07-26T05:35:58.009Z</time>
      </trkpt>
      <trkpt lat="45.18649" lon="5.91303">
        <ele>1383.58390016</ele>
        <time>2020-07-26T05:36:16.009Z</time>
      </trkpt>
      <trkpt lat="45.18639" lon="5.91305">
        <ele>1386.25170048</ele>
        <time>2020-07-26T05:36:31.009Z</time>
      </trkpt>
      <trkpt lat="45.18628" lon="5.91306">
        <ele>1388.35170048</ele>
        <time>2020-07-26T05:36:38.009Z</time>
      </trkpt>
      <trkpt lat="45.18618" lon="5.91307">
        <ele>1390.45170048</ele>
        <time>2020-07-26T05:36:45.009Z</time>
      </trkpt>
      <trkpt lat="45.18608" lon="5.91308">
        <ele>1392.56780032</ele>
        <time>2020-07-26T05:36:53.009Z</time>
      </trkpt>
      <trkpt lat="45.18597" lon="5.91312">
        <ele>1394</ele>
        <time>2020-07-26T05:37:01.009Z</time>
      </trkpt>
      <trkpt lat="45.18588" lon="5.91317">
        <ele>1394</ele>
        <time>2020-07-26T05:37:10.009Z</time>
      </trkpt>
      <trkpt lat="45.18579" lon="5.91326">
        <ele>1393.01609984</ele>
        <time>2020-07-26T05:37:20.009Z</time>
      </trkpt>
      <trkpt lat="45.18571" lon="5.91335">
        <ele>1395.08390016</ele>
        <time>2020-07-26T05:37:31.009Z</time>
      </trkpt>
      <trkpt lat="45.18562" lon="5.91344">
        <ele>1396.58390016</ele>
        <time>2020-07-26T05:37:46.009Z</time>
      </trkpt>
      <trkpt lat="45.18554" lon="5.91352">
        <ele>1400.13560064</ele>
        <time>2020-07-26T05:37:58.009Z</time>
      </trkpt>
      <trkpt lat="45.18544" lon="5.91358">
        <ele>1402.96780032</ele>
        <time>2020-07-26T05:38:25.009Z</time>
      </trkpt>
      <trkpt lat="45.18534" lon="5.91363">
        <ele>1404.96780032</ele>
        <time>2020-07-26T05:38:35.009Z</time>
      </trkpt>
      <trkpt lat="45.18528" lon="5.91374">
        <ele>1406.18390016</ele>
        <time>2020-07-26T05:38:42.009Z</time>
      </trkpt>
      <trkpt lat="45.1852" lon="5.91382">
        <ele>1407.55170048</ele>
        <time>2020-07-26T05:38:52.009Z</time>
      </trkpt>
      <trkpt lat="45.18509" lon="5.91385">
        <ele>1410.73560064</ele>
        <time>2020-07-26T05:39:02.009Z</time>
      </trkpt>
      <trkpt lat="45.18498" lon="5.91385">
        <ele>1413.53560064</ele>
        <time>2020-07-26T05:39:09.009Z</time>
      </trkpt>
      <trkpt lat="45.18488" lon="5.91386">
        <ele>1418.10340096</ele>
        <time>2020-07-26T05:39:17.009Z</time>
      </trkpt>
      <trkpt lat="45.18478" lon="5.91382">
        <ele>1422.33560064</ele>
        <time>2020-07-26T05:39:26.009Z</time>
      </trkpt>
      <trkpt lat="45.18469" lon="5.91376">
        <ele>1425.16780032</ele>
        <time>2020-07-26T05:39:36.009Z</time>
      </trkpt>
      <trkpt lat="45.18459" lon="5.91375">
        <ele>1427.76780032</ele>
        <time>2020-07-26T05:39:49.009Z</time>
      </trkpt>
      <trkpt lat="45.18448" lon="5.91375">
        <ele>1429.96780032</ele>
        <time>2020-07-26T05:40:00.009Z</time>
      </trkpt>
      <trkpt lat="45.18438" lon="5.91375">
        <ele>1430.78390016</ele>
        <time>2020-07-26T05:40:08.009Z</time>
      </trkpt>
      <trkpt lat="45.18427" lon="5.91378">
        <ele>1433.65170048</ele>
        <time>2020-07-26T05:40:19.009Z</time>
      </trkpt>
      <trkpt lat="45.18417" lon="5.91379">
        <ele>1437.25170048</ele>
        <time>2020-07-26T05:40:31.009Z</time>
      </trkpt>
      <trkpt lat="45.18407" lon="5.91379">
        <ele>1439.95170048</ele>
        <time>2020-07-26T05:40:40.009Z</time>
      </trkpt>
      <trkpt lat="45.18397" lon="5.91382">
        <ele>1444.25170048</ele>
        <time>2020-07-26T05:40:51.009Z</time>
      </trkpt>
      <trkpt lat="45.18386" lon="5.91385">
        <ele>1447.16780032</ele>
        <time>2020-07-26T05:41:01.009Z</time>
      </trkpt>
      <trkpt lat="45.18376" lon="5.9139">
        <ele>1450.15170048</ele>
        <time>2020-07-26T05:41:14.009Z</time>
      </trkpt>
      <trkpt lat="45.18365" lon="5.91393">
        <ele>1452.38390016</ele>
        <time>2020-07-26T05:41:24.009Z</time>
      </trkpt>
      <trkpt lat="45.18356" lon="5.91397">
        <ele>1453.36780032</ele>
        <time>2020-07-26T05:41:32.009Z</time>
      </trkpt>
      <trkpt lat="45.18346" lon="5.91404">
        <ele>1455.36780032</ele>
        <time>2020-07-26T05:41:42.009Z</time>
      </trkpt>
      <trkpt lat="45.18335" lon="5.91407">
        <ele>1459.05170048</ele>
        <time>2020-07-26T05:41:57.009Z</time>
      </trkpt>
      <trkpt lat="45.18325" lon="5.9141">
        <ele>1461.76780032</ele>
        <time>2020-07-26T05:42:09.009Z</time>
      </trkpt>
      <trkpt lat="45.18315" lon="5.91413">
        <ele>1462.78390016</ele>
        <time>2020-07-26T05:42:18.009Z</time>
      </trkpt>
      <trkpt lat="45.18305" lon="5.91417">
        <ele>1466.55170048</ele>
        <time>2020-07-26T05:42:32.009Z</time>
      </trkpt>
      <trkpt lat="45.18295" lon="5.91419">
        <ele>1469.25170048</ele>
        <time>2020-07-26T05:42:41.009Z</time>
      </trkpt>
      <trkpt lat="45.18284" lon="5.91419">
        <ele>1472.36780032</ele>
        <time>2020-07-26T05:42:52.009Z</time>
      </trkpt>
      <trkpt lat="45.18274" lon="5.9142">
        <ele>1474.36780032</ele>
        <time>2020-07-26T05:43:02.009Z</time>
      </trkpt>
      <trkpt lat="45.18263" lon="5.91425">
        <ele>1476</ele>
        <time>2020-07-26T05:43:15.009Z</time>
      </trkpt>
      <trkpt lat="45.18253" lon="5.91424">
        <ele>1476</ele>
        <time>2020-07-26T05:43:25.009Z</time>
      </trkpt>
      <trkpt lat="45.18243" lon="5.9142">
        <ele>1478</ele>
        <time>2020-07-26T05:44:06.009Z</time>
      </trkpt>
      <trkpt lat="45.18233" lon="5.91425">
        <ele>1479.78390016</ele>
        <time>2020-07-26T05:44:28.009Z</time>
      </trkpt>
      <trkpt lat="45.18224" lon="5.91433">
        <ele>1482.25170048</ele>
        <time>2020-07-26T05:44:41.009Z</time>
      </trkpt>
      <trkpt lat="45.18215" lon="5.9144">
        <ele>1486.15170048</ele>
        <time>2020-07-26T05:44:54.009Z</time>
      </trkpt>
      <trkpt lat="45.18204" lon="5.91445">
        <ele>1488.48390016</ele>
        <time>2020-07-26T05:45:05.009Z</time>
      </trkpt>
      <trkpt lat="45.18195" lon="5.91451">
        <ele>1489.38390016</ele>
        <time>2020-07-26T05:45:14.009Z</time>
      </trkpt>
      <trkpt lat="45.18186" lon="5.91458">
        <ele>1491.93560064</ele>
        <time>2020-07-26T05:45:25.009Z</time>
      </trkpt>
      <trkpt lat="45.18176" lon="5.91462">
        <ele>1494.48390016</ele>
        <time>2020-07-26T05:45:35.009Z</time>
      </trkpt>
      <trkpt lat="45.18166" lon="5.91463">
        <ele>1495.38390016</ele>
        <time>2020-07-26T05:45:44.009Z</time>
      </trkpt>
      <trkpt lat="45.18155" lon="5.91464">
        <ele>1498.65170048</ele>
        <time>2020-07-26T05:45:59.009Z</time>
      </trkpt>
      <trkpt lat="45.18145" lon="5.91467">
        <ele>1502.36780032</ele>
        <time>2020-07-26T05:46:32.009Z</time>
      </trkpt>
      <trkpt lat="45.18136" lon="5.91474">
        <ele>1504.48390016</ele>
        <time>2020-07-26T05:46:45.009Z</time>
      </trkpt>
      <trkpt lat="45.18129" lon="5.91483">
        <ele>1505</ele>
        <time>2020-07-26T05:46:53.009Z</time>
      </trkpt>
      <trkpt lat="45.18126" lon="5.91497">
        <ele>1505.18390016</ele>
        <time>2020-07-26T05:47:02.009Z</time>
      </trkpt>
      <trkpt lat="45.18129" lon="5.91512">
        <ele>1505.98390016</ele>
        <time>2020-07-26T05:47:10.009Z</time>
      </trkpt>
      <trkpt lat="45.18134" lon="5.91526">
        <ele>1506.88390016</ele>
        <time>2020-07-26T05:47:19.009Z</time>
      </trkpt>
      <trkpt lat="45.18133" lon="5.91541">
        <ele>1507.68390016</ele>
        <time>2020-07-26T05:47:27.009Z</time>
      </trkpt>
      <trkpt lat="45.18127" lon="5.91554">
        <ele>1509.16780032</ele>
        <time>2020-07-26T05:47:36.009Z</time>
      </trkpt>
      <trkpt lat="45.18119" lon="5.91564">
        <ele>1510.48390016</ele>
        <time>2020-07-26T05:47:45.009Z</time>
      </trkpt>
      <trkpt lat="45.1811" lon="5.9157">
        <ele>1511.85170048</ele>
        <time>2020-07-26T05:47:53.009Z</time>
      </trkpt>
      <trkpt lat="45.18099" lon="5.91576">
        <ele>1514.28390016</ele>
        <time>2020-07-26T05:48:03.009Z</time>
      </trkpt>
      <trkpt lat="45.18089" lon="5.9158">
        <ele>1514.88390016</ele>
        <time>2020-07-26T05:48:09.009Z</time>
      </trkpt>
      <trkpt lat="45.18079" lon="5.91582">
        <ele>1515.68390016</ele>
        <time>2020-07-26T05:48:17.009Z</time>
      </trkpt>
      <trkpt lat="45.1807" lon="5.91587">
        <ele>1516</ele>
        <time>2020-07-26T05:48:26.009Z</time>
      </trkpt>
      <trkpt lat="45.18058" lon="5.91589">
        <ele>1516.38390016</ele>
        <time>2020-07-26T05:48:34.009Z</time>
      </trkpt>
      <trkpt lat="45.18048" lon="5.9159">
        <ele>1517.08390016</ele>
        <time>2020-07-26T05:48:41.009Z</time>
      </trkpt>
      <trkpt lat="45.18037" lon="5.9159">
        <ele>1517.88390016</ele>
        <time>2020-07-26T05:48:49.009Z</time>
      </trkpt>
      <trkpt lat="45.18027" lon="5.91591">
        <ele>1519.36780032</ele>
        <time>2020-07-26T05:48:57.009Z</time>
      </trkpt>
      <trkpt lat="45.18016" lon="5.91589">
        <ele>1520</ele>
        <time>2020-07-26T05:49:08.009Z</time>
      </trkpt>
      <trkpt lat="45.18006" lon="5.91588">
        <ele>1520.88390016</ele>
        <time>2020-07-26T05:49:19.009Z</time>
      </trkpt>
      <trkpt lat="45.17995" lon="5.91589">
        <ele>1521</ele>
        <time>2020-07-26T05:49:29.009Z</time>
      </trkpt>
      <trkpt lat="45.17985" lon="5.91591">
        <ele>1521.78390016</ele>
        <time>2020-07-26T05:49:38.009Z</time>
      </trkpt>
      <trkpt lat="45.17976" lon="5.91591">
        <ele>1523.36780032</ele>
        <time>2020-07-26T05:49:47.009Z</time>
      </trkpt>
      <trkpt lat="45.17966" lon="5.91593">
        <ele>1524.98390016</ele>
        <time>2020-07-26T05:50:00.009Z</time>
      </trkpt>
      <trkpt lat="45.17956" lon="5.91596">
        <ele>1527.65170048</ele>
        <time>2020-07-26T05:50:09.009Z</time>
      </trkpt>
      <trkpt lat="45.17946" lon="5.91597">
        <ele>1531.55170048</ele>
        <time>2020-07-26T05:50:22.009Z</time>
      </trkpt>
      <trkpt lat="45.17936" lon="5.91601">
        <ele>1535.45170048</ele>
        <time>2020-07-26T05:50:35.009Z</time>
      </trkpt>
      <trkpt lat="45.17925" lon="5.91602">
        <ele>1538.45170048</ele>
        <time>2020-07-26T05:50:45.009Z</time>
      </trkpt>
      <trkpt lat="45.17915" lon="5.91603">
        <ele>1541.36780032</ele>
        <time>2020-07-26T05:50:57.009Z</time>
      </trkpt>
      <trkpt lat="45.17905" lon="5.91606">
        <ele>1544.35170048</ele>
        <time>2020-07-26T05:51:08.009Z</time>
      </trkpt>
      <trkpt lat="45.17895" lon="5.9161">
        <ele>1547.65170048</ele>
        <time>2020-07-26T05:51:19.009Z</time>
      </trkpt>
      <trkpt lat="45.17886" lon="5.91616">
        <ele>1551.25170048</ele>
        <time>2020-07-26T05:51:31.009Z</time>
      </trkpt>
      <trkpt lat="45.17877" lon="5.91622">
        <ele>1554</ele>
        <time>2020-07-26T05:51:44.009Z</time>
      </trkpt>
      <trkpt lat="45.17868" lon="5.91629">
        <ele>1555.56780032</ele>
        <time>2020-07-26T05:51:58.009Z</time>
      </trkpt>
      <trkpt lat="45.17859" lon="5.91636">
        <ele>1556.78390016</ele>
        <time>2020-07-26T05:52:08.009Z</time>
      </trkpt>
      <trkpt lat="45.1785" lon="5.91645">
        <ele>1559.95170048</ele>
        <time>2020-07-26T05:52:20.009Z</time>
      </trkpt>
      <trkpt lat="45.1784" lon="5.9165">
        <ele>1563.78390016</ele>
        <time>2020-07-26T05:52:48.009Z</time>
      </trkpt>
      <trkpt lat="45.1783" lon="5.91657">
        <ele>1565.56780032</ele>
        <time>2020-07-26T05:52:58.009Z</time>
      </trkpt>
      <trkpt lat="45.1782" lon="5.91659">
        <ele>1566.68390016</ele>
        <time>2020-07-26T05:53:07.009Z</time>
      </trkpt>
      <trkpt lat="45.1781" lon="5.91664">
        <ele>1568.96780032</ele>
        <time>2020-07-26T05:53:20.009Z</time>
      </trkpt>
      <trkpt lat="45.17817" lon="5.91675">
        <ele>1575.95170048</ele>
        <time>2020-07-26T05:53:50.009Z</time>
      </trkpt>
      <trkpt lat="45.17827" lon="5.91683">
        <ele>1579.18390016</ele>
        <time>2020-07-26T05:54:02.009Z</time>
      </trkpt>
      <trkpt lat="45.17836" lon="5.91687">
        <ele>1581.98730112</ele>
        <time>2020-07-26T05:54:13.009Z</time>
      </trkpt>
      <trkpt lat="45.17834" lon="5.91701">
        <ele>1587.98390016</ele>
        <time>2020-07-26T05:54:40.009Z</time>
      </trkpt>
      <trkpt lat="45.17825" lon="5.91709">
        <ele>1591.55170048</ele>
        <time>2020-07-26T05:54:52.009Z</time>
      </trkpt>
      <trkpt lat="45.17816" lon="5.91716">
        <ele>1594.38390016</ele>
        <time>2020-07-26T05:55:04.009Z</time>
      </trkpt>
      <trkpt lat="45.17806" lon="5.91719">
        <ele>1595.38390016</ele>
        <time>2020-07-26T05:55:14.009Z</time>
      </trkpt>
      <trkpt lat="45.17797" lon="5.91726">
        <ele>1596.76780032</ele>
        <time>2020-07-26T05:55:24.009Z</time>
      </trkpt>
      <trkpt lat="45.17787" lon="5.9173">
        <ele>1599.13560064</ele>
        <time>2020-07-26T05:55:33.009Z</time>
      </trkpt>
      <trkpt lat="45.17778" lon="5.91736">
        <ele>1602</ele>
        <time>2020-07-26T05:55:47.009Z</time>
      </trkpt>
      <trkpt lat="45.17768" lon="5.91741">
        <ele>1602.48390016</ele>
        <time>2020-07-26T05:55:55.009Z</time>
      </trkpt>
      <trkpt lat="45.17759" lon="5.91745">
        <ele>1608.15170048</ele>
        <time>2020-07-26T05:56:14.009Z</time>
      </trkpt>
      <trkpt lat="45.17768" lon="5.91749">
        <ele>1613.85170048</ele>
        <time>2020-07-26T05:56:33.009Z</time>
      </trkpt>
      <trkpt lat="45.17777" lon="5.91756">
        <ele>1616</ele>
        <time>2020-07-26T05:56:48.009Z</time>
      </trkpt>
      <trkpt lat="45.17787" lon="5.9176">
        <ele>1617.56780032</ele>
        <time>2020-07-26T05:56:58.009Z</time>
      </trkpt>
      <trkpt lat="45.17795" lon="5.91769">
        <ele>1619.76780032</ele>
        <time>2020-07-26T05:57:09.009Z</time>
      </trkpt>
      <trkpt lat="45.17805" lon="5.91775">
        <ele>1621.56780032</ele>
        <time>2020-07-26T05:57:18.009Z</time>
      </trkpt>
      <trkpt lat="45.17812" lon="5.91786">
        <ele>1622</ele>
        <time>2020-07-26T05:57:27.009Z</time>
      </trkpt>
      <trkpt lat="45.17802" lon="5.91792">
        <ele>1625.36780032</ele>
        <time>2020-07-26T05:57:42.009Z</time>
      </trkpt>
      <trkpt lat="45.17792" lon="5.91796">
        <ele>1627.55170048</ele>
        <time>2020-07-26T05:57:52.009Z</time>
      </trkpt>
      <trkpt lat="45.17782" lon="5.91798">
        <ele>1630.48390016</ele>
        <time>2020-07-26T05:58:05.009Z</time>
      </trkpt>
      <trkpt lat="45.17788" lon="5.9181">
        <ele>1637.6835838451</ele>
        <time>2020-07-26T05:58:37.009Z</time>
      </trkpt>
      <trkpt lat="45.17796" lon="5.91819">
        <ele>1639.36780032</ele>
        <time>2020-07-26T05:58:47.009Z</time>
      </trkpt>
      <trkpt lat="45.17787" lon="5.91826">
        <ele>1640</ele>
        <time>2020-07-26T05:58:59.009Z</time>
      </trkpt>
      <trkpt lat="45.17777" lon="5.91825">
        <ele>1642.36780032</ele>
        <time>2020-07-26T05:59:12.009Z</time>
      </trkpt>
      <trkpt lat="45.17767" lon="5.91826">
        <ele>1645.53560064</ele>
        <time>2020-07-26T05:59:24.009Z</time>
      </trkpt>
      <trkpt lat="45.17772" lon="5.91839">
        <ele>1654</ele>
        <time>2020-07-26T05:59:57.009Z</time>
      </trkpt>
      <trkpt lat="45.17763" lon="5.91845">
        <ele>1655.96780032</ele>
        <time>2020-07-26T06:00:10.009Z</time>
      </trkpt>
      <trkpt lat="45.17753" lon="5.91848">
        <ele>1658</ele>
        <time>2020-07-26T06:00:21.009Z</time>
      </trkpt>
      <trkpt lat="45.17743" lon="5.91853">
        <ele>1658</ele>
        <time>2020-07-26T06:00:31.009Z</time>
      </trkpt>
      <trkpt lat="45.17733" lon="5.91856">
        <ele>1658</ele>
        <time>2020-07-26T06:00:39.009Z</time>
      </trkpt>
      <trkpt lat="45.17723" lon="5.9186">
        <ele>1658.78390016</ele>
        <time>2020-07-26T06:00:48.009Z</time>
      </trkpt>
      <trkpt lat="45.17732" lon="5.91866">
        <ele>1663.28390016</ele>
        <time>2020-07-26T06:01:13.009Z</time>
      </trkpt>
      <trkpt lat="45.17737" lon="5.9188">
        <ele>1663.71609984</ele>
        <time>2020-07-26T06:01:23.009Z</time>
      </trkpt>
      <trkpt lat="45.17728" lon="5.91885">
        <ele>1663.08390016</ele>
        <time>2020-07-26T06:01:31.009Z</time>
      </trkpt>
      <trkpt lat="45.17718" lon="5.9189">
        <ele>1664.38390016</ele>
        <time>2020-07-26T06:01:44.009Z</time>
      </trkpt>
      <trkpt lat="45.17708" lon="5.91893">
        <ele>1668.53560064</ele>
        <time>2020-07-26T06:01:59.009Z</time>
      </trkpt>
      <trkpt lat="45.17706" lon="5.91907">
        <ele>1678</ele>
        <time>2020-07-26T06:02:25.009Z</time>
      </trkpt>
      <trkpt lat="45.17706" lon="5.91922">
        <ele>1678</ele>
        <time>2020-07-26T06:02:35.009Z</time>
      </trkpt>
      <trkpt lat="45.17707" lon="5.91936">
        <ele>1678.96780032</ele>
        <time>2020-07-26T06:02:45.009Z</time>
      </trkpt>
      <trkpt lat="45.17708" lon="5.91951">
        <ele>1680.68390016</ele>
        <time>2020-07-26T06:02:57.009Z</time>
      </trkpt>
      <trkpt lat="45.17709" lon="5.91965">
        <ele>1681</ele>
        <time>2020-07-26T06:03:10.009Z</time>
      </trkpt>
      <trkpt lat="45.17702" lon="5.91974">
        <ele>1679.63219968</ele>
        <time>2020-07-26T06:03:17.009Z</time>
      </trkpt>
      <trkpt lat="45.17693" lon="5.91985">
        <ele>1681.35170048</ele>
        <time>2020-07-26T06:03:28.009Z</time>
      </trkpt>
      <trkpt lat="45.17685" lon="5.91994">
        <ele>1682.96780032</ele>
        <time>2020-07-26T06:03:35.009Z</time>
      </trkpt>
      <trkpt lat="45.17677" lon="5.92004">
        <ele>1683.91609984</ele>
        <time>2020-07-26T06:03:41.009Z</time>
      </trkpt>
      <trkpt lat="45.17672" lon="5.92017">
        <ele>1683.2836166341</ele>
        <time>2020-07-26T06:03:53.009Z</time>
      </trkpt>
      <trkpt lat="45.1767" lon="5.92031">
        <ele>1684.3319337475</ele>
        <time>2020-07-26T06:04:01.009Z</time>
      </trkpt>
      <trkpt lat="45.17671" lon="5.92046">
        <ele>1687.1347356525</ele>
        <time>2020-07-26T06:04:08.009Z</time>
      </trkpt>
      <trkpt lat="45.17665" lon="5.92058">
        <ele>1687.11609984</ele>
        <time>2020-07-26T06:04:19.009Z</time>
      </trkpt>
      <trkpt lat="45.17655" lon="5.92062">
        <ele>1687</ele>
        <time>2020-07-26T06:04:29.009Z</time>
      </trkpt>
      <trkpt lat="45.17645" lon="5.92067">
        <ele>1687.96780032</ele>
        <time>2020-07-26T06:04:35.009Z</time>
      </trkpt>
      <trkpt lat="45.17636" lon="5.92074">
        <ele>1689.38390016</ele>
        <time>2020-07-26T06:04:44.009Z</time>
      </trkpt>
      <trkpt lat="45.17627" lon="5.92083">
        <ele>1691.45170048</ele>
        <time>2020-07-26T06:04:55.009Z</time>
      </trkpt>
      <trkpt lat="45.17623" lon="5.92097">
        <ele>1693</ele>
        <time>2020-07-26T06:05:02.009Z</time>
      </trkpt>
      <trkpt lat="45.17617" lon="5.92109">
        <ele>1692.91609984</ele>
        <time>2020-07-26T06:05:11.009Z</time>
      </trkpt>
      <trkpt lat="45.1761" lon="5.92119">
        <ele>1692.41609984</ele>
        <time>2020-07-26T06:05:16.009Z</time>
      </trkpt>
      <trkpt lat="45.17603" lon="5.92133">
        <ele>1693.45170048</ele>
        <time>2020-07-26T06:05:25.009Z</time>
      </trkpt>
      <trkpt lat="45.17597" lon="5.92144">
        <ele>1695</ele>
        <time>2020-07-26T06:05:33.009Z</time>
      </trkpt>
      <trkpt lat="45.17589" lon="5.92154">
        <ele>1695</ele>
        <time>2020-07-26T06:05:40.009Z</time>
      </trkpt>
      <trkpt lat="45.17581" lon="5.92163">
        <ele>1694.03219968</ele>
        <time>2020-07-26T06:05:45.009Z</time>
      </trkpt>
      <trkpt lat="45.17575" lon="5.92175">
        <ele>1693.28390016</ele>
        <time>2020-07-26T06:05:53.009Z</time>
      </trkpt>
      <trkpt lat="45.17569" lon="5.92187">
        <ele>1694.0838163704</ele>
        <time>2020-07-26T06:06:01.009Z</time>
      </trkpt>
      <trkpt lat="45.17563" lon="5.92199">
        <ele>1695.1830835049</ele>
        <time>2020-07-26T06:06:12.009Z</time>
      </trkpt>
      <trkpt lat="45.17556" lon="5.92209">
        <ele>1696.08390016</ele>
        <time>2020-07-26T06:06:21.009Z</time>
      </trkpt>
      <trkpt lat="45.17549" lon="5.9222">
        <ele>1696.88390016</ele>
        <time>2020-07-26T06:06:29.009Z</time>
      </trkpt>
      <trkpt lat="45.17545" lon="5.92232">
        <ele>1697</ele>
        <time>2020-07-26T06:06:38.009Z</time>
      </trkpt>
      <trkpt lat="45.17541" lon="5.92244">
        <ele>1697</ele>
        <time>2020-07-26T06:06:47.009Z</time>
      </trkpt>
      <trkpt lat="45.17535" lon="5.92256">
        <ele>1698.16780032</ele>
        <time>2020-07-26T06:06:56.009Z</time>
      </trkpt>
      <trkpt lat="45.17532" lon="5.9227">
        <ele>1699</ele>
        <time>2020-07-26T06:07:07.009Z</time>
      </trkpt>
      <trkpt lat="45.17527" lon="5.92283">
        <ele>1699</ele>
        <time>2020-07-26T06:07:17.009Z</time>
      </trkpt>
      <trkpt lat="45.17523" lon="5.92296">
        <ele>1700.36780032</ele>
        <time>2020-07-26T06:07:27.009Z</time>
      </trkpt>
      <trkpt lat="45.17526" lon="5.92311">
        <ele>1701.78390016</ele>
        <time>2020-07-26T06:07:38.009Z</time>
      </trkpt>
      <trkpt lat="45.17535" lon="5.92318">
        <ele>1702</ele>
        <time>2020-07-26T06:07:44.009Z</time>
      </trkpt>
      <trkpt lat="45.17544" lon="5.92328">
        <ele>1702</ele>
        <time>2020-07-26T06:07:53.009Z</time>
      </trkpt>
      <trkpt lat="45.17545" lon="5.92343">
        <ele>1701.63219968</ele>
        <time>2020-07-26T06:08:02.009Z</time>
      </trkpt>
      <trkpt lat="45.17542" lon="5.92358">
        <ele>1700.03219968</ele>
        <time>2020-07-26T06:08:10.009Z</time>
      </trkpt>
      <trkpt lat="45.17534" lon="5.9237">
        <ele>1698.23219968</ele>
        <time>2020-07-26T06:08:19.009Z</time>
      </trkpt>
      <trkpt lat="45.17525" lon="5.92376">
        <ele>1698.48390016</ele>
        <time>2020-07-26T06:08:25.009Z</time>
      </trkpt>
      <trkpt lat="45.17517" lon="5.92384">
        <ele>1699.68390016</ele>
        <time>2020-07-26T06:08:37.009Z</time>
      </trkpt>
      <trkpt lat="45.17509" lon="5.92387">
        <ele>1700.28390016</ele>
        <time>2020-07-26T06:08:43.009Z</time>
      </trkpt>
      <trkpt lat="45.17499" lon="5.92393">
        <ele>1701.0838163704</ele>
        <time>2020-07-26T06:08:51.009Z</time>
      </trkpt>
      <trkpt lat="45.17491" lon="5.924">
        <ele>1701.8830174251</ele>
        <time>2020-07-26T06:08:59.009Z</time>
      </trkpt>
      <trkpt lat="45.17485" lon="5.9241">
        <ele>1702</ele>
        <time>2020-07-26T06:09:06.009Z</time>
      </trkpt>
      <trkpt lat="45.17478" lon="5.92421">
        <ele>1703.45170048</ele>
        <time>2020-07-26T06:09:15.009Z</time>
      </trkpt>
      <trkpt lat="45.17474" lon="5.92434">
        <ele>1705.38390016</ele>
        <time>2020-07-26T06:09:24.009Z</time>
      </trkpt>
      <trkpt lat="45.17468" lon="5.92446">
        <ele>1705</ele>
        <time>2020-07-26T06:09:53.009Z</time>
      </trkpt>
      <trkpt lat="45.17463" lon="5.92458">
        <ele>1705.18390016</ele>
        <time>2020-07-26T06:10:02.009Z</time>
      </trkpt>
      <trkpt lat="45.17464" lon="5.92472">
        <ele>1705.88390016</ele>
        <time>2020-07-26T06:10:09.009Z</time>
      </trkpt>
      <trkpt lat="45.17467" lon="5.92486">
        <ele>1706.78390016</ele>
        <time>2020-07-26T06:10:18.009Z</time>
      </trkpt>
      <trkpt lat="45.17475" lon="5.92497">
        <ele>1708.56780032</ele>
        <time>2020-07-26T06:10:28.009Z</time>
      </trkpt>
      <trkpt lat="45.1748" lon="5.92504">
        <ele>1710.16780032</ele>
        <time>2020-07-26T06:10:36.009Z</time>
      </trkpt>
      <trkpt lat="45.17485" lon="5.9251">
        <ele>1712.36780032</ele>
        <time>2020-07-26T06:10:47.009Z</time>
      </trkpt>
      <trkpt lat="45.17493" lon="5.9252">
        <ele>1716.53560064</ele>
        <time>2020-07-26T06:10:59.009Z</time>
      </trkpt>
      <trkpt lat="45.17483" lon="5.92527">
        <ele>1720.68390016</ele>
        <time>2020-07-26T06:11:37.009Z</time>
      </trkpt>
      <trkpt lat="45.17472" lon="5.92527">
        <ele>1721</ele>
        <time>2020-07-26T06:11:45.009Z</time>
      </trkpt>
      <trkpt lat="45.17462" lon="5.92528">
        <ele>1721.08390016</ele>
        <time>2020-07-26T06:11:51.009Z</time>
      </trkpt>
      <trkpt lat="45.17452" lon="5.92533">
        <ele>1722</ele>
        <time>2020-07-26T06:12:01.009Z</time>
      </trkpt>
      <trkpt lat="45.17443" lon="5.92537">
        <ele>1722</ele>
        <time>2020-07-26T06:12:10.009Z</time>
      </trkpt>
      <trkpt lat="45.17434" lon="5.92545">
        <ele>1723.56780032</ele>
        <time>2020-07-26T06:12:23.009Z</time>
      </trkpt>
      <trkpt lat="45.17424" lon="5.92549">
        <ele>1725.18390016</ele>
        <time>2020-07-26T06:12:32.009Z</time>
      </trkpt>
      <trkpt lat="45.17412" lon="5.92552">
        <ele>1725.98390016</ele>
        <time>2020-07-26T06:12:40.009Z</time>
      </trkpt>
      <trkpt lat="45.17401" lon="5.92557">
        <ele>1726.78390016</ele>
        <time>2020-07-26T06:12:48.009Z</time>
      </trkpt>
      <trkpt lat="45.17389" lon="5.9256">
        <ele>1727</ele>
        <time>2020-07-26T06:12:54.009Z</time>
      </trkpt>
      <trkpt lat="45.17379" lon="5.92565">
        <ele>1727</ele>
        <time>2020-07-26T06:13:02.009Z</time>
      </trkpt>
      <trkpt lat="45.17367" lon="5.92566">
        <ele>1727</ele>
        <time>2020-07-26T06:13:06.009Z</time>
      </trkpt>
      <trkpt lat="45.17358" lon="5.92571">
        <ele>1727</ele>
        <time>2020-07-26T06:13:12.009Z</time>
      </trkpt>
      <trkpt lat="45.17347" lon="5.92576">
        <ele>1727</ele>
        <time>2020-07-26T06:13:18.009Z</time>
      </trkpt>
      <trkpt lat="45.17335" lon="5.92581">
        <ele>1727.48390016</ele>
        <time>2020-07-26T06:13:25.009Z</time>
      </trkpt>
      <trkpt lat="45.17324" lon="5.92585">
        <ele>1728.08390016</ele>
        <time>2020-07-26T06:13:31.009Z</time>
      </trkpt>
      <trkpt lat="45.17315" lon="5.92591">
        <ele>1728.68390016</ele>
        <time>2020-07-26T06:13:37.009Z</time>
      </trkpt>
      <trkpt lat="45.17304" lon="5.92594">
        <ele>1729.08390016</ele>
        <time>2020-07-26T06:13:41.009Z</time>
      </trkpt>
      <trkpt lat="45.17294" lon="5.92598">
        <ele>1729.58390016</ele>
        <time>2020-07-26T06:13:46.009Z</time>
      </trkpt>
      <trkpt lat="45.17284" lon="5.92604">
        <ele>1730.48390016</ele>
        <time>2020-07-26T06:13:55.009Z</time>
      </trkpt>
      <trkpt lat="45.17275" lon="5.92609">
        <ele>1731.56780032</ele>
        <time>2020-07-26T06:14:03.009Z</time>
      </trkpt>
      <trkpt lat="45.17265" lon="5.92615">
        <ele>1732.81609984</ele>
        <time>2020-07-26T06:14:12.009Z</time>
      </trkpt>
      <trkpt lat="45.17254" lon="5.92619">
        <ele>1732.21609984</ele>
        <time>2020-07-26T06:14:18.009Z</time>
      </trkpt>
      <trkpt lat="45.17243" lon="5.9262">
        <ele>1731.63219968</ele>
        <time>2020-07-26T06:14:22.009Z</time>
      </trkpt>
      <trkpt lat="45.17232" lon="5.9262">
        <ele>1731.03219968</ele>
        <time>2020-07-26T06:14:25.009Z</time>
      </trkpt>
      <trkpt lat="45.17221" lon="5.92621">
        <ele>1730.23219968</ele>
        <time>2020-07-26T06:14:29.009Z</time>
      </trkpt>
      <trkpt lat="45.1721" lon="5.92623">
        <ele>1729.51609984</ele>
        <time>2020-07-26T06:14:35.009Z</time>
      </trkpt>
      <trkpt lat="45.17198" lon="5.92625">
        <ele>1729.11609984</ele>
        <time>2020-07-26T06:14:39.009Z</time>
      </trkpt>
      <trkpt lat="45.17187" lon="5.92626">
        <ele>1729.28390016</ele>
        <time>2020-07-26T06:14:43.009Z</time>
      </trkpt>
      <trkpt lat="45.17176" lon="5.92628">
        <ele>1729.31609984</ele>
        <time>2020-07-26T06:14:57.009Z</time>
      </trkpt>
      <trkpt lat="45.17166" lon="5.92626">
        <ele>1728.74829952</ele>
        <time>2020-07-26T06:15:01.009Z</time>
      </trkpt>
      <trkpt lat="45.17156" lon="5.9262">
        <ele>1726.94829952</ele>
        <time>2020-07-26T06:15:07.009Z</time>
      </trkpt>
      <trkpt lat="45.17146" lon="5.92614">
        <ele>1725.14829952</ele>
        <time>2020-07-26T06:15:13.009Z</time>
      </trkpt>
      <trkpt lat="45.17139" lon="5.92604">
        <ele>1722.26439936</ele>
        <time>2020-07-26T06:15:22.009Z</time>
      </trkpt>
      <trkpt lat="45.17128" lon="5.92601">
        <ele>1719.86439936</ele>
        <time>2020-07-26T06:15:28.009Z</time>
      </trkpt>
      <trkpt lat="45.1714" lon="5.92598">
        <ele>1722.9195008</ele>
        <time>2020-07-26T06:15:38.009Z</time>
      </trkpt>
      <trkpt lat="45.17153" lon="5.926">
        <ele>1726.05170048</ele>
        <time>2020-07-26T06:15:47.009Z</time>
      </trkpt>
      <trkpt lat="45.17164" lon="5.926">
        <ele>1728.47120128</ele>
        <time>2020-07-26T06:15:52.009Z</time>
      </trkpt>
      <trkpt lat="45.17177" lon="5.926">
        <ele>1730.87120128</ele>
        <time>2020-07-26T06:15:55.009Z</time>
      </trkpt>
      <trkpt lat="45.17187" lon="5.92603">
        <ele>1732.47120128</ele>
        <time>2020-07-26T06:15:57.009Z</time>
      </trkpt>
      <trkpt lat="45.17197" lon="5.92605">
        <ele>1734.87120128</ele>
        <time>2020-07-26T06:16:00.009Z</time>
      </trkpt>
      <trkpt lat="45.17209" lon="5.92607">
        <ele>1736.47120128</ele>
        <time>2020-07-26T06:16:02.009Z</time>
      </trkpt>
      <trkpt lat="45.17225" lon="5.92611">
        <ele>1738.07120128</ele>
        <time>2020-07-26T06:16:04.009Z</time>
      </trkpt>
      <trkpt lat="45.17238" lon="5.92614">
        <ele>1741.27120128</ele>
        <time>2020-07-26T06:16:08.009Z</time>
      </trkpt>
      <trkpt lat="45.17248" lon="5.92616">
        <ele>1742.61609984</ele>
        <time>2020-07-26T06:16:14.009Z</time>
      </trkpt>
      <trkpt lat="45.17258" lon="5.92617">
        <ele>1749.59070208</ele>
        <time>2020-07-26T06:16:26.009Z</time>
      </trkpt>
      <trkpt lat="45.17269" lon="5.92618">
        <ele>1753.49070208</ele>
        <time>2020-07-26T06:16:29.009Z</time>
      </trkpt>
      <trkpt lat="45.1728" lon="5.9262">
        <ele>1755.67120128</ele>
        <time>2020-07-26T06:16:31.009Z</time>
      </trkpt>
      <trkpt lat="45.17292" lon="5.92626">
        <ele>1760.47120128</ele>
        <time>2020-07-26T06:16:37.009Z</time>
      </trkpt>
      <trkpt lat="45.1731" lon="5.92633">
        <ele>1762.07120128</ele>
        <time>2020-07-26T06:16:39.009Z</time>
      </trkpt>
      <trkpt lat="45.1732" lon="5.92639">
        <ele>1764.13560064</ele>
        <time>2020-07-26T06:16:43.009Z</time>
      </trkpt>
      <trkpt lat="45.17334" lon="5.92646">
        <ele>1764.93560064</ele>
        <time>2020-07-26T06:16:45.009Z</time>
      </trkpt>
      <trkpt lat="45.17346" lon="5.92652">
        <ele>1765.73560064</ele>
        <time>2020-07-26T06:16:47.009Z</time>
      </trkpt>
      <trkpt lat="45.17353" lon="5.92662">
        <ele>1768.93560064</ele>
        <time>2020-07-26T06:16:55.009Z</time>
      </trkpt>
      <trkpt lat="45.17348" lon="5.92673">
        <ele>1772.45170048</ele>
        <time>2020-07-26T06:17:05.009Z</time>
      </trkpt>
      <trkpt lat="45.1734" lon="5.92681">
        <ele>1775.36780032</ele>
        <time>2020-07-26T06:17:17.009Z</time>
      </trkpt>
      <trkpt lat="45.17334" lon="5.92692">
        <ele>1779.53560064</ele>
        <time>2020-07-26T06:17:29.009Z</time>
      </trkpt>
      <trkpt lat="45.17326" lon="5.92702">
        <ele>1780.98390016</ele>
        <time>2020-07-26T06:17:40.009Z</time>
      </trkpt>
      <trkpt lat="45.17319" lon="5.92713">
        <ele>1784.25170048</ele>
        <time>2020-07-26T06:17:51.009Z</time>
      </trkpt>
      <trkpt lat="45.17316" lon="5.92726">
        <ele>1787.08390016</ele>
        <time>2020-07-26T06:18:01.009Z</time>
      </trkpt>
      <trkpt lat="45.17319" lon="5.92741">
        <ele>1788.25170048</ele>
        <time>2020-07-26T06:18:11.009Z</time>
      </trkpt>
      <trkpt lat="45.17319" lon="5.92755">
        <ele>1791.18390016</ele>
        <time>2020-07-26T06:18:22.009Z</time>
      </trkpt>
      <trkpt lat="45.17318" lon="5.92769">
        <ele>1792.28390016</ele>
        <time>2020-07-26T06:18:33.009Z</time>
      </trkpt>
      <trkpt lat="45.17317" lon="5.92784">
        <ele>1793.28390016</ele>
        <time>2020-07-26T06:18:43.009Z</time>
      </trkpt>
      <trkpt lat="45.17321" lon="5.92797">
        <ele>1794</ele>
        <time>2020-07-26T06:18:52.009Z</time>
      </trkpt>
      <trkpt lat="45.17321" lon="5.92811">
        <ele>1795.96780032</ele>
        <time>2020-07-26T06:19:10.009Z</time>
      </trkpt>
      <trkpt lat="45.17324" lon="5.92825">
        <ele>1801.53560064</ele>
        <time>2020-07-26T06:19:29.009Z</time>
      </trkpt>
      <trkpt lat="45.17333" lon="5.92832">
        <ele>1803.36780032</ele>
        <time>2020-07-26T06:19:37.009Z</time>
      </trkpt>
      <trkpt lat="45.17341" lon="5.92841">
        <ele>1804.58390016</ele>
        <time>2020-07-26T06:19:46.009Z</time>
      </trkpt>
      <trkpt lat="45.17347" lon="5.92853">
        <ele>1811</ele>
        <time>2020-07-26T06:21:12.009Z</time>
      </trkpt>
      <trkpt lat="45.17351" lon="5.92866">
        <ele>1811.18390016</ele>
        <time>2020-07-26T06:21:22.009Z</time>
      </trkpt>
      <trkpt lat="45.17357" lon="5.92878">
        <ele>1814.76780032</ele>
        <time>2020-07-26T06:21:49.009Z</time>
      </trkpt>
      <trkpt lat="45.17362" lon="5.9289">
        <ele>1819</ele>
        <time>2020-07-26T06:22:33.009Z</time>
      </trkpt>
      <trkpt lat="45.17366" lon="5.92903">
        <ele>1820.36780032</ele>
        <time>2020-07-26T06:22:52.009Z</time>
      </trkpt>
      <trkpt lat="45.17369" lon="5.92918">
        <ele>1823.36780032</ele>
        <time>2020-07-26T06:23:07.009Z</time>
      </trkpt>
      <trkpt lat="45.17377" lon="5.92928">
        <ele>1824.78390016</ele>
        <time>2020-07-26T06:23:18.009Z</time>
      </trkpt>
      <trkpt lat="45.1738" lon="5.92942">
        <ele>1829.3661670098</ele>
        <time>2020-07-26T06:23:42.009Z</time>
      </trkpt>
      <trkpt lat="45.17388" lon="5.92951">
        <ele>1833.95170048</ele>
        <time>2020-07-26T06:24:00.009Z</time>
      </trkpt>
      <trkpt lat="45.17398" lon="5.92956">
        <ele>1836.73560064</ele>
        <time>2020-07-26T06:24:07.009Z</time>
      </trkpt>
      <trkpt lat="45.17406" lon="5.92963">
        <ele>1840.35170048</ele>
        <time>2020-07-26T06:24:18.009Z</time>
      </trkpt>
      <trkpt lat="45.17411" lon="5.92976">
        <ele>1844.68390016</ele>
        <time>2020-07-26T06:24:37.009Z</time>
      </trkpt>
      <trkpt lat="45.17417" lon="5.92988">
        <ele>1845.88390016</ele>
        <time>2020-07-26T06:24:49.009Z</time>
      </trkpt>
      <trkpt lat="45.17425" lon="5.92997">
        <ele>1850.15170048</ele>
        <time>2020-07-26T06:25:04.009Z</time>
      </trkpt>
      <trkpt lat="45.17428" lon="5.93011">
        <ele>1852</ele>
        <time>2020-07-26T06:25:16.009Z</time>
      </trkpt>
      <trkpt lat="45.17432" lon="5.93022">
        <ele>1852.28390016</ele>
        <time>2020-07-26T06:25:23.009Z</time>
      </trkpt>
      <trkpt lat="45.17436" lon="5.93035">
        <ele>1853</ele>
        <time>2020-07-26T06:25:35.009Z</time>
      </trkpt>
      <trkpt lat="45.17442" lon="5.93048">
        <ele>1853.56780032</ele>
        <time>2020-07-26T06:25:43.009Z</time>
      </trkpt>
      <trkpt lat="45.17444" lon="5.93059">
        <ele>1854.96780032</ele>
        <time>2020-07-26T06:25:50.009Z</time>
      </trkpt>
      <trkpt lat="45.17442" lon="5.93069">
        <ele>1856.36780032</ele>
        <time>2020-07-26T06:25:57.009Z</time>
      </trkpt>
      <trkpt lat="45.17443" lon="5.93084">
        <ele>1856.11609984</ele>
        <time>2020-07-26T06:26:09.009Z</time>
      </trkpt>
      <trkpt lat="45.17442" lon="5.93099">
        <ele>1857.56780032</ele>
        <time>2020-07-26T06:26:23.009Z</time>
      </trkpt>
      <trkpt lat="45.17443" lon="5.93113">
        <ele>1861.15170048</ele>
        <time>2020-07-26T06:26:54.009Z</time>
      </trkpt>
      <trkpt lat="45.17447" lon="5.93127">
        <ele>1863.48390016</ele>
        <time>2020-07-26T06:27:05.009Z</time>
      </trkpt>
      <trkpt lat="45.17454" lon="5.93137">
        <ele>1864.58390016</ele>
        <time>2020-07-26T06:27:16.009Z</time>
      </trkpt>
      <trkpt lat="45.17463" lon="5.93148">
        <ele>1868.38390016</ele>
        <time>2020-07-26T06:27:34.009Z</time>
      </trkpt>
      <trkpt lat="45.17469" lon="5.93159">
        <ele>1868.4834168978</ele>
        <time>2020-07-26T06:27:55.009Z</time>
      </trkpt>
      <trkpt lat="45.17472" lon="5.93173">
        <ele>1869.766567282</ele>
        <time>2020-07-26T06:28:04.009Z</time>
      </trkpt>
      <trkpt lat="45.17472" lon="5.93187">
        <ele>1871.76780032</ele>
        <time>2020-07-26T06:28:14.009Z</time>
      </trkpt>
      <trkpt lat="45.17475" lon="5.93201">
        <ele>1873.48390016</ele>
        <time>2020-07-26T06:28:25.009Z</time>
      </trkpt>
      <trkpt lat="45.17476" lon="5.93216">
        <ele>1875.36780032</ele>
        <time>2020-07-26T06:28:37.009Z</time>
      </trkpt>
      <trkpt lat="45.17479" lon="5.9323">
        <ele>1876.78390016</ele>
        <time>2020-07-26T06:28:48.009Z</time>
      </trkpt>
      <trkpt lat="45.17481" lon="5.93244">
        <ele>1878.96780032</ele>
        <time>2020-07-26T06:29:00.009Z</time>
      </trkpt>
      <trkpt lat="45.17485" lon="5.93258">
        <ele>1879.98390016</ele>
        <time>2020-07-26T06:29:10.009Z</time>
      </trkpt>
      <trkpt lat="45.17487" lon="5.93272">
        <ele>1879.11609984</ele>
        <time>2020-07-26T06:29:19.009Z</time>
      </trkpt>
      <trkpt lat="45.17488" lon="5.93285">
        <ele>1880.16780032</ele>
        <time>2020-07-26T06:29:26.009Z</time>
      </trkpt>
      <trkpt lat="45.17488" lon="5.93299">
        <ele>1882.16780032</ele>
        <time>2020-07-26T06:29:36.009Z</time>
      </trkpt>
      <trkpt lat="45.17477" lon="5.93296">
        <ele>1885.68390016</ele>
        <time>2020-07-26T06:29:57.009Z</time>
      </trkpt>
      <trkpt lat="45.1747" lon="5.93288">
        <ele>1888.88390016</ele>
        <time>2020-07-26T06:30:19.009Z</time>
      </trkpt>
      <trkpt lat="45.17462" lon="5.93279">
        <ele>1891.25170048</ele>
        <time>2020-07-26T06:30:31.009Z</time>
      </trkpt>
      <trkpt lat="45.17453" lon="5.93273">
        <ele>1894.5833170296</ele>
        <time>2020-07-26T06:30:46.009Z</time>
      </trkpt>
      <trkpt lat="45.17445" lon="5.93266">
        <ele>1895.5834837771</ele>
        <time>2020-07-26T06:30:56.009Z</time>
      </trkpt>
      <trkpt lat="45.17442" lon="5.93276">
        <ele>1896.96780032</ele>
        <time>2020-07-26T06:31:20.009Z</time>
      </trkpt>
      <trkpt lat="45.17437" lon="5.93284">
        <ele>1898.28390016</ele>
        <time>2020-07-26T06:31:33.009Z</time>
      </trkpt>
      <trkpt lat="45.17431" lon="5.93291">
        <ele>1898.98390016</ele>
        <time>2020-07-26T06:31:40.009Z</time>
      </trkpt>
      <trkpt lat="45.17425" lon="5.93295">
        <ele>1899</ele>
        <time>2020-07-26T06:31:48.009Z</time>
      </trkpt>
      <trkpt lat="45.17415" lon="5.93292">
        <ele>1902.13560064</ele>
        <time>2020-07-26T06:31:58.009Z</time>
      </trkpt>
      <trkpt lat="45.17414" lon="5.93303">
        <ele>1905</ele>
        <time>2020-07-26T06:32:12.009Z</time>
      </trkpt>
      <trkpt lat="45.17416" lon="5.93314">
        <ele>1905.78390016</ele>
        <time>2020-07-26T06:32:28.009Z</time>
      </trkpt>
      <trkpt lat="45.1742" lon="5.93326">
        <ele>1907.56780032</ele>
        <time>2020-07-26T06:32:38.009Z</time>
      </trkpt>
      <trkpt lat="45.17423" lon="5.93336">
        <ele>1908.96780032</ele>
        <time>2020-07-26T06:32:45.009Z</time>
      </trkpt>
      <trkpt lat="45.1742" lon="5.93349">
        <ele>1911.76780032</ele>
        <time>2020-07-26T06:32:59.009Z</time>
      </trkpt>
      <trkpt lat="45.17417" lon="5.93361">
        <ele>1912.58390016</ele>
        <time>2020-07-26T06:33:06.009Z</time>
      </trkpt>
      <trkpt lat="45.17413" lon="5.9337">
        <ele>1913.38390016</ele>
        <time>2020-07-26T06:33:14.009Z</time>
      </trkpt>
      <trkpt lat="45.17409" lon="5.93376">
        <ele>1914</ele>
        <time>2020-07-26T06:33:21.009Z</time>
      </trkpt>
      <trkpt lat="45.17405" lon="5.93381">
        <ele>1914</ele>
        <time>2020-07-26T06:33:25.009Z</time>
      </trkpt>
      <trkpt lat="45.17401" lon="5.9339">
        <ele>1914.16780032</ele>
        <time>2020-07-26T06:33:31.009Z</time>
      </trkpt>
      <trkpt lat="45.174" lon="5.93399">
        <ele>1915.56780032</ele>
        <time>2020-07-26T06:33:38.009Z</time>
      </trkpt>
      <trkpt lat="45.17404" lon="5.93406">
        <ele>1917.96780032</ele>
        <time>2020-07-26T06:33:50.009Z</time>
      </trkpt>
      <trkpt lat="45.17403" lon="5.93415">
        <ele>1918</ele>
        <time>2020-07-26T06:33:56.009Z</time>
      </trkpt>
      <trkpt lat="45.17399" lon="5.93429">
        <ele>1918</ele>
        <time>2020-07-26T06:34:06.009Z</time>
      </trkpt>
      <trkpt lat="45.17395" lon="5.93435">
        <ele>1918.16780032</ele>
        <time>2020-07-26T06:34:11.009Z</time>
      </trkpt>
      <trkpt lat="45.17389" lon="5.93446">
        <ele>1919.96780032</ele>
        <time>2020-07-26T06:34:20.009Z</time>
      </trkpt>
      <trkpt lat="45.17386" lon="5.9346">
        <ele>1923.18390016</ele>
        <time>2020-07-26T06:34:32.009Z</time>
      </trkpt>
      <trkpt lat="45.17382" lon="5.93474">
        <ele>1924.56780032</ele>
        <time>2020-07-26T06:34:43.009Z</time>
      </trkpt>
      <trkpt lat="45.17383" lon="5.93489">
        <ele>1926</ele>
        <time>2020-07-26T06:34:54.009Z</time>
      </trkpt>
      <trkpt lat="45.1738" lon="5.93504">
        <ele>1926.98390016</ele>
        <time>2020-07-26T06:35:10.009Z</time>
      </trkpt>
      <trkpt lat="45.17381" lon="5.93518">
        <ele>1929.36780032</ele>
        <time>2020-07-26T06:35:22.009Z</time>
      </trkpt>
      <trkpt lat="45.17387" lon="5.93529">
        <ele>1932.76780032</ele>
        <time>2020-07-26T06:35:44.009Z</time>
      </trkpt>
      <trkpt lat="45.1739" lon="5.93543">
        <ele>1935.76780032</ele>
        <time>2020-07-26T06:35:59.009Z</time>
      </trkpt>
      <trkpt lat="45.17385" lon="5.93555">
        <ele>1936</ele>
        <time>2020-07-26T06:36:09.009Z</time>
      </trkpt>
      <trkpt lat="45.17376" lon="5.93563">
        <ele>1936.08390016</ele>
        <time>2020-07-26T06:36:21.009Z</time>
      </trkpt>
      <trkpt lat="45.17366" lon="5.93566">
        <ele>1937.36780032</ele>
        <time>2020-07-26T06:36:32.009Z</time>
      </trkpt>
      <trkpt lat="45.17355" lon="5.93563">
        <ele>1939.96780032</ele>
        <time>2020-07-26T06:36:45.009Z</time>
      </trkpt>
      <trkpt lat="45.17348" lon="5.93554">
        <ele>1941.48390016</ele>
        <time>2020-07-26T06:36:55.009Z</time>
      </trkpt>
      <trkpt lat="45.17341" lon="5.93544">
        <ele>1942.78390016</ele>
        <time>2020-07-26T06:37:08.009Z</time>
      </trkpt>
      <trkpt lat="45.17336" lon="5.9353">
        <ele>1943</ele>
        <time>2020-07-26T06:37:21.009Z</time>
      </trkpt>
      <trkpt lat="45.17329" lon="5.93518">
        <ele>1943.08390016</ele>
        <time>2020-07-26T06:37:31.009Z</time>
      </trkpt>
      <trkpt lat="45.17323" lon="5.93508">
        <ele>1943.88390016</ele>
        <time>2020-07-26T06:37:39.009Z</time>
      </trkpt>
      <trkpt lat="45.17318" lon="5.93497">
        <ele>1944.78390016</ele>
        <time>2020-07-26T06:37:48.009Z</time>
      </trkpt>
      <trkpt lat="45.1731" lon="5.93489">
        <ele>1946.36780032</ele>
        <time>2020-07-26T06:37:57.009Z</time>
      </trkpt>
      <trkpt lat="45.17301" lon="5.93483">
        <ele>1947.96780032</ele>
        <time>2020-07-26T06:38:05.009Z</time>
      </trkpt>
      <trkpt lat="45.17295" lon="5.9347">
        <ele>1949.88390016</ele>
        <time>2020-07-26T06:38:19.009Z</time>
      </trkpt>
      <trkpt lat="45.17285" lon="5.93462">
        <ele>1950.88390016</ele>
        <time>2020-07-26T06:38:29.009Z</time>
      </trkpt>
      <trkpt lat="45.17278" lon="5.93452">
        <ele>1953.65170048</ele>
        <time>2020-07-26T06:38:39.009Z</time>
      </trkpt>
      <trkpt lat="45.17272" lon="5.93465">
        <ele>1955</ele>
        <time>2020-07-26T06:39:32.009Z</time>
      </trkpt>
      <trkpt lat="45.17275" lon="5.93478">
        <ele>1955.56780032</ele>
        <time>2020-07-26T06:39:43.009Z</time>
      </trkpt>
      <trkpt lat="45.1727" lon="5.9349">
        <ele>1958</ele>
        <time>2020-07-26T06:40:01.009Z</time>
      </trkpt>
      <trkpt lat="45.17262" lon="5.93481">
        <ele>1959.48390016</ele>
        <time>2020-07-26T06:40:25.009Z</time>
      </trkpt>
      <trkpt lat="45.17254" lon="5.93472">
        <ele>1960.38390016</ele>
        <time>2020-07-26T06:40:34.009Z</time>
      </trkpt>
      <trkpt lat="45.17246" lon="5.93464">
        <ele>1961.68390016</ele>
        <time>2020-07-26T06:40:47.009Z</time>
      </trkpt>
      <trkpt lat="45.17238" lon="5.93456">
        <ele>1963.08390016</ele>
        <time>2020-07-26T06:41:01.009Z</time>
      </trkpt>
      <trkpt lat="45.1723" lon="5.93447">
        <ele>1964.28390016</ele>
        <time>2020-07-26T06:41:13.009Z</time>
      </trkpt>
      <trkpt lat="45.17219" lon="5.93446">
        <ele>1969.08390016</ele>
        <time>2020-07-26T06:41:31.009Z</time>
      </trkpt>
      <trkpt lat="45.17214" lon="5.93459">
        <ele>1969.98390016</ele>
        <time>2020-07-26T06:41:40.009Z</time>
      </trkpt>
      <trkpt lat="45.17211" lon="5.93473">
        <ele>1974.76780032</ele>
        <time>2020-07-26T06:41:59.009Z</time>
      </trkpt>
      <trkpt lat="45.17206" lon="5.93486">
        <ele>1976.96780032</ele>
        <time>2020-07-26T06:42:10.009Z</time>
      </trkpt>
      <trkpt lat="45.172" lon="5.93491">
        <ele>1977.0385124419</ele>
        <time>2020-07-26T06:42:36.009Z</time>
      </trkpt>
      <trkpt lat="45.17197" lon="5.93493">
        <ele>1978</ele>
        <time>2020-07-26T06:43:24.009Z</time>
      </trkpt>
      <trkpt lat="45.17203" lon="5.93504">
        <ele>1977.91609984</ele>
        <time>2020-07-26T06:44:22.009Z</time>
      </trkpt>
      <trkpt lat="45.17212" lon="5.93513">
        <ele>1977.08390016</ele>
        <time>2020-07-26T06:44:32.009Z</time>
      </trkpt>
      <trkpt lat="45.1722" lon="5.93522">
        <ele>1977.78390016</ele>
        <time>2020-07-26T06:44:39.009Z</time>
      </trkpt>
      <trkpt lat="45.17228" lon="5.93531">
        <ele>1979.1666325675</ele>
        <time>2020-07-26T06:44:47.009Z</time>
      </trkpt>
      <trkpt lat="45.17233" lon="5.93543">
        <ele>1980.8837838323</ele>
        <time>2020-07-26T06:45:00.009Z</time>
      </trkpt>
      <trkpt lat="45.17226" lon="5.93554">
        <ele>1981</ele>
        <time>2020-07-26T06:45:29.009Z</time>
      </trkpt>
      <trkpt lat="45.17233" lon="5.93564">
        <ele>1981.78390016</ele>
        <time>2020-07-26T06:45:39.009Z</time>
      </trkpt>
      <trkpt lat="45.17236" lon="5.93568">
        <ele>1982.18390016</ele>
        <time>2020-07-26T06:45:43.009Z</time>
      </trkpt>
      <trkpt lat="45.1724" lon="5.93571">
        <ele>1982.68390016</ele>
        <time>2020-07-26T06:45:48.009Z</time>
      </trkpt>
      <trkpt lat="45.17243" lon="5.93575">
        <ele>1983.85170048</ele>
        <time>2020-07-26T06:45:54.009Z</time>
      </trkpt>
      <trkpt lat="45.17252" lon="5.93586">
        <ele>1978.9358696319</ele>
        <time>2020-07-26T06:46:20.009Z</time>
      </trkpt>
      <trkpt lat="45.17261" lon="5.93594">
        <ele>1978</ele>
        <time>2020-07-26T06:46:27.009Z</time>
      </trkpt>
      <trkpt lat="45.17271" lon="5.936">
        <ele>1979.16780032</ele>
        <time>2020-07-26T06:46:37.009Z</time>
      </trkpt>
      <trkpt lat="45.1728" lon="5.93606">
        <ele>1980.96780032</ele>
        <time>2020-07-26T06:46:46.009Z</time>
      </trkpt>
      <trkpt lat="45.17283" lon="5.93621">
        <ele>1981.01609984</ele>
        <time>2020-07-26T06:47:01.009Z</time>
      </trkpt>
      <trkpt lat="45.17277" lon="5.93633">
        <ele>1981.98390016</ele>
        <time>2020-07-26T06:47:11.009Z</time>
      </trkpt>
      <trkpt lat="45.17267" lon="5.93636">
        <ele>1982.98390016</ele>
        <time>2020-07-26T06:47:21.009Z</time>
      </trkpt>
      <trkpt lat="45.17257" lon="5.93639">
        <ele>1983.98390016</ele>
        <time>2020-07-26T06:47:31.009Z</time>
      </trkpt>
      <trkpt lat="45.17247" lon="5.93641">
        <ele>1985</ele>
        <time>2020-07-26T06:47:42.009Z</time>
      </trkpt>
      <trkpt lat="45.17237" lon="5.93645">
        <ele>1984.61609984</ele>
        <time>2020-07-26T06:48:15.009Z</time>
      </trkpt>
      <trkpt lat="45.17227" lon="5.9365">
        <ele>1984.16780032</ele>
        <time>2020-07-26T06:48:22.009Z</time>
      </trkpt>
      <trkpt lat="45.17218" lon="5.93652">
        <ele>1985.96780032</ele>
        <time>2020-07-26T06:48:31.009Z</time>
      </trkpt>
      <trkpt lat="45.17209" lon="5.93652">
        <ele>1986.68390016</ele>
        <time>2020-07-26T06:48:38.009Z</time>
      </trkpt>
      <trkpt lat="45.172" lon="5.9365">
        <ele>1987.38390016</ele>
        <time>2020-07-26T06:48:45.009Z</time>
      </trkpt>
      <trkpt lat="45.17192" lon="5.93649">
        <ele>1987.98390016</ele>
        <time>2020-07-26T06:48:51.009Z</time>
      </trkpt>
      <trkpt lat="45.17182" lon="5.93644">
        <ele>1986.43219968</ele>
        <time>2020-07-26T06:48:59.009Z</time>
      </trkpt>
      <trkpt lat="45.17176" lon="5.93643">
        <ele>1986.76780032</ele>
        <time>2020-07-26T06:49:05.009Z</time>
      </trkpt>
      <trkpt lat="45.17167" lon="5.93651">
        <ele>1988.9668325593</ele>
        <time>2020-07-26T06:49:16.009Z</time>
      </trkpt>
      <trkpt lat="45.17159" lon="5.93641">
        <ele>1990.6835834397</ele>
        <time>2020-07-26T06:49:28.009Z</time>
      </trkpt>
      <trkpt lat="45.17155" lon="5.93626">
        <ele>1992.56780032</ele>
        <time>2020-07-26T06:49:39.009Z</time>
      </trkpt>
      <trkpt lat="45.17146" lon="5.93619">
        <ele>1992.51609984</ele>
        <time>2020-07-26T06:49:46.009Z</time>
      </trkpt>
      <trkpt lat="45.17137" lon="5.93615">
        <ele>1992.08390016</ele>
        <time>2020-07-26T06:49:52.009Z</time>
      </trkpt>
      <trkpt lat="45.17128" lon="5.93606">
        <ele>1992.98390016</ele>
        <time>2020-07-26T06:50:01.009Z</time>
      </trkpt>
      <trkpt lat="45.17124" lon="5.93596">
        <ele>1993</ele>
        <time>2020-07-26T06:50:10.009Z</time>
      </trkpt>
      <trkpt lat="45.17124" lon="5.93586">
        <ele>1991.41609984</ele>
        <time>2020-07-26T06:51:07.009Z</time>
      </trkpt>
      <trkpt lat="45.17122" lon="5.93601">
        <ele>1991</ele>
        <time>2020-07-26T06:51:26.009Z</time>
      </trkpt>
      <trkpt lat="45.17122" lon="5.93616">
        <ele>1990.51609984</ele>
        <time>2020-07-26T06:51:36.009Z</time>
      </trkpt>
      <trkpt lat="45.17117" lon="5.93629">
        <ele>1989.51609984</ele>
        <time>2020-07-26T06:51:46.009Z</time>
      </trkpt>
      <trkpt lat="45.17111" lon="5.93642">
        <ele>1988.71609984</ele>
        <time>2020-07-26T06:51:54.009Z</time>
      </trkpt>
      <trkpt lat="45.17105" lon="5.93654">
        <ele>1988</ele>
        <time>2020-07-26T06:52:03.009Z</time>
      </trkpt>
      <trkpt lat="45.17099" lon="5.93666">
        <ele>1987.91609984</ele>
        <time>2020-07-26T06:52:12.009Z</time>
      </trkpt>
      <trkpt lat="45.17089" lon="5.93675">
        <ele>1987.11609984</ele>
        <time>2020-07-26T06:52:20.009Z</time>
      </trkpt>
      <trkpt lat="45.17081" lon="5.93683">
        <ele>1989.33560064</ele>
        <time>2020-07-26T06:52:27.009Z</time>
      </trkpt>
      <trkpt lat="45.17077" lon="5.93689">
        <ele>1990.93560064</ele>
        <time>2020-07-26T06:52:31.009Z</time>
      </trkpt>
      <trkpt lat="45.17075" lon="5.93693">
        <ele>1991.28390016</ele>
        <time>2020-07-26T06:52:34.009Z</time>
      </trkpt>
      <trkpt lat="45.17072" lon="5.93697">
        <ele>1991.58390016</ele>
        <time>2020-07-26T06:52:37.009Z</time>
      </trkpt>
      <trkpt lat="45.1707" lon="5.93702">
        <ele>1991.98390016</ele>
        <time>2020-07-26T06:52:41.009Z</time>
      </trkpt>
      <trkpt lat="45.17068" lon="5.93707">
        <ele>1992.28390016</ele>
        <time>2020-07-26T06:52:44.009Z</time>
      </trkpt>
      <trkpt lat="45.17067" lon="5.93711">
        <ele>1992.58390016</ele>
        <time>2020-07-26T06:52:47.009Z</time>
      </trkpt>
      <trkpt lat="45.17064" lon="5.93719">
        <ele>1993.38390016</ele>
        <time>2020-07-26T06:52:55.009Z</time>
      </trkpt>
      <trkpt lat="45.17059" lon="5.93725">
        <ele>1994</ele>
        <time>2020-07-26T06:53:02.009Z</time>
      </trkpt>
      <trkpt lat="45.17049" lon="5.93726">
        <ele>1994</ele>
        <time>2020-07-26T06:53:11.009Z</time>
      </trkpt>
      <trkpt lat="45.17039" lon="5.9372">
        <ele>1990.81609984</ele>
        <time>2020-07-26T06:53:33.009Z</time>
      </trkpt>
      <trkpt lat="45.17034" lon="5.93717">
        <ele>1990.41609984</ele>
        <time>2020-07-26T06:53:37.009Z</time>
      </trkpt>
      <trkpt lat="45.17026" lon="5.93718">
        <ele>1990</ele>
        <time>2020-07-26T06:53:44.009Z</time>
      </trkpt>
      <trkpt lat="45.17019" lon="5.9372">
        <ele>1990</ele>
        <time>2020-07-26T06:53:50.009Z</time>
      </trkpt>
      <trkpt lat="45.17013" lon="5.93721">
        <ele>1990.76780032</ele>
        <time>2020-07-26T06:53:55.009Z</time>
      </trkpt>
      <trkpt lat="45.17004" lon="5.93726">
        <ele>1992.56780032</ele>
        <time>2020-07-26T06:54:04.009Z</time>
      </trkpt>
      <trkpt lat="45.16995" lon="5.93732">
        <ele>1995.15170048</ele>
        <time>2020-07-26T06:54:15.009Z</time>
      </trkpt>
      <trkpt lat="45.16987" lon="5.93735">
        <ele>1997</ele>
        <time>2020-07-26T06:54:27.009Z</time>
      </trkpt>
      <trkpt lat="45.16982" lon="5.93738">
        <ele>1997.25170048</ele>
        <time>2020-07-26T06:54:32.009Z</time>
      </trkpt>
      <trkpt lat="45.16977" lon="5.93741">
        <ele>1998.75170048</ele>
        <time>2020-07-26T06:54:37.009Z</time>
      </trkpt>
      <trkpt lat="45.16975" lon="5.93746">
        <ele>2000</ele>
        <time>2020-07-26T06:54:44.009Z</time>
      </trkpt>
      <trkpt lat="45.16971" lon="5.9375">
        <ele>2000</ele>
        <time>2020-07-26T06:54:49.009Z</time>
      </trkpt>
      <trkpt lat="45.16966" lon="5.93752">
        <ele>2000.18390016</ele>
        <time>2020-07-26T06:54:53.009Z</time>
      </trkpt>
      <trkpt lat="45.16961" lon="5.93754">
        <ele>2000.58390016</ele>
        <time>2020-07-26T06:54:57.009Z</time>
      </trkpt>
      <trkpt lat="45.16955" lon="5.93761">
        <ele>2002.15170048</ele>
        <time>2020-07-26T06:55:05.009Z</time>
      </trkpt>
      <trkpt lat="45.16948" lon="5.93771">
        <ele>2004</ele>
        <time>2020-07-26T06:55:20.009Z</time>
      </trkpt>
      <trkpt lat="45.16942" lon="5.93779">
        <ele>2004</ele>
        <time>2020-07-26T06:55:27.009Z</time>
      </trkpt>
      <trkpt lat="45.16937" lon="5.93784">
        <ele>2004.36780032</ele>
        <time>2020-07-26T06:55:33.009Z</time>
      </trkpt>
      <trkpt lat="45.16932" lon="5.93787">
        <ele>2005.56780032</ele>
        <time>2020-07-26T06:55:39.009Z</time>
      </trkpt>
      <trkpt lat="45.16929" lon="5.93796">
        <ele>2008.08390016</ele>
        <time>2020-07-26T06:55:52.009Z</time>
      </trkpt>
      <trkpt lat="45.16925" lon="5.93801">
        <ele>2008.58390016</ele>
        <time>2020-07-26T06:55:57.009Z</time>
      </trkpt>
      <trkpt lat="45.16922" lon="5.93806">
        <ele>2008.98390016</ele>
        <time>2020-07-26T06:56:01.009Z</time>
      </trkpt>
      <trkpt lat="45.16918" lon="5.93811">
        <ele>2010.45170048</ele>
        <time>2020-07-26T06:56:06.009Z</time>
      </trkpt>
      <trkpt lat="45.16913" lon="5.93819">
        <ele>2012.08390016</ele>
        <time>2020-07-26T06:56:12.009Z</time>
      </trkpt>
      <trkpt lat="45.16907" lon="5.93825">
        <ele>2012.98390016</ele>
        <time>2020-07-26T06:56:21.009Z</time>
      </trkpt>
      <trkpt lat="45.16903" lon="5.93832">
        <ele>2013.76780032</ele>
        <time>2020-07-26T06:56:25.009Z</time>
      </trkpt>
      <trkpt lat="45.169" lon="5.93837">
        <ele>2014.56780032</ele>
        <time>2020-07-26T06:56:29.009Z</time>
      </trkpt>
      <trkpt lat="45.16891" lon="5.93846">
        <ele>2015.58390016</ele>
        <time>2020-07-26T06:56:37.009Z</time>
      </trkpt>
      <trkpt lat="45.16887" lon="5.93851">
        <ele>2015.98390016</ele>
        <time>2020-07-26T06:56:41.009Z</time>
      </trkpt>
      <trkpt lat="45.16883" lon="5.93854">
        <ele>2015.61609984</ele>
        <time>2020-07-26T06:56:45.009Z</time>
      </trkpt>
      <trkpt lat="45.16878" lon="5.93863">
        <ele>2015.16780032</ele>
        <time>2020-07-26T06:56:52.009Z</time>
      </trkpt>
      <trkpt lat="45.16872" lon="5.93873">
        <ele>2016.96780032</ele>
        <time>2020-07-26T06:57:01.009Z</time>
      </trkpt>
      <trkpt lat="45.16868" lon="5.93878">
        <ele>2017</ele>
        <time>2020-07-26T06:57:06.009Z</time>
      </trkpt>
      <trkpt lat="45.16863" lon="5.93881">
        <ele>2017.08390016</ele>
        <time>2020-07-26T06:57:12.009Z</time>
      </trkpt>
      <trkpt lat="45.16857" lon="5.93882">
        <ele>2017.48390016</ele>
        <time>2020-07-26T06:57:16.009Z</time>
      </trkpt>
      <trkpt lat="45.16852" lon="5.93884">
        <ele>2017.88390016</ele>
        <time>2020-07-26T06:57:20.009Z</time>
      </trkpt>
      <trkpt lat="45.16845" lon="5.93888">
        <ele>2018.96780032</ele>
        <time>2020-07-26T06:57:26.009Z</time>
      </trkpt>
      <trkpt lat="45.1684" lon="5.93893">
        <ele>2019.96780032</ele>
        <time>2020-07-26T06:57:31.009Z</time>
      </trkpt>
      <trkpt lat="45.16834" lon="5.93901">
        <ele>2021.96780032</ele>
        <time>2020-07-26T06:57:41.009Z</time>
      </trkpt>
      <trkpt lat="45.1683" lon="5.93906">
        <ele>2023.56780032</ele>
        <time>2020-07-26T06:57:49.009Z</time>
      </trkpt>
      <trkpt lat="45.16824" lon="5.93906">
        <ele>2024.28390016</ele>
        <time>2020-07-26T06:57:54.009Z</time>
      </trkpt>
      <trkpt lat="45.1682" lon="5.939">
        <ele>2024.78390016</ele>
        <time>2020-07-26T06:57:59.009Z</time>
      </trkpt>
      <trkpt lat="45.16817" lon="5.93896">
        <ele>2025.18390016</ele>
        <time>2020-07-26T06:58:03.009Z</time>
      </trkpt>
      <trkpt lat="45.16811" lon="5.93896">
        <ele>2025.68390016</ele>
        <time>2020-07-26T06:58:08.009Z</time>
      </trkpt>
      <trkpt lat="45.16807" lon="5.93892">
        <ele>2026.18390016</ele>
        <time>2020-07-26T06:58:13.009Z</time>
      </trkpt>
      <trkpt lat="45.16801" lon="5.93887">
        <ele>2026.88390016</ele>
        <time>2020-07-26T06:58:20.009Z</time>
      </trkpt>
      <trkpt lat="45.16794" lon="5.93887">
        <ele>2028.56780032</ele>
        <time>2020-07-26T06:58:29.009Z</time>
      </trkpt>
      <trkpt lat="45.16795" lon="5.93876">
        <ele>2033</ele>
        <time>2020-07-26T06:58:44.009Z</time>
      </trkpt>
      <trkpt lat="45.16792" lon="5.93869">
        <ele>2033.64829952</ele>
        <time>2020-07-26T06:59:39.009Z</time>
      </trkpt>
      <trkpt lat="45.16786" lon="5.93876">
        <ele>2031.03219968</ele>
        <time>2020-07-26T06:59:51.009Z</time>
      </trkpt>
      <trkpt lat="45.16781" lon="5.93881">
        <ele>2031</ele>
        <time>2020-07-26T07:00:00.009Z</time>
      </trkpt>
      <trkpt lat="45.1678" lon="5.93891">
        <ele>2032.56780032</ele>
        <time>2020-07-26T07:00:09.009Z</time>
      </trkpt>
      <trkpt lat="45.16777" lon="5.93898">
        <ele>2033</ele>
        <time>2020-07-26T07:00:20.009Z</time>
      </trkpt>
      <trkpt lat="45.16773" lon="5.93908">
        <ele>2033.58390016</ele>
        <time>2020-07-26T07:00:27.009Z</time>
      </trkpt>
      <trkpt lat="45.16768" lon="5.93913">
        <ele>2034.48390016</ele>
        <time>2020-07-26T07:00:36.009Z</time>
      </trkpt>
      <trkpt lat="45.16762" lon="5.93911">
        <ele>2037.33560064</ele>
        <time>2020-07-26T07:00:47.009Z</time>
      </trkpt>
      <trkpt lat="45.16756" lon="5.93909">
        <ele>2042.93560064</ele>
        <time>2020-07-26T07:01:01.009Z</time>
      </trkpt>
      <trkpt lat="45.16759" lon="5.93901">
        <ele>2051.9487489003</ele>
        <time>2020-07-26T07:02:11.009Z</time>
      </trkpt>
      <trkpt lat="45.16754" lon="5.93902">
        <ele>2042.81609984</ele>
        <time>2020-07-26T07:02:53.009Z</time>
      </trkpt>
      <trkpt lat="45.16756" lon="5.93905">
        <ele>2046.0264108425</ele>
        <time>2020-07-26T07:04:17.009Z</time>
      </trkpt>
      <trkpt lat="45.1675" lon="5.93903">
        <ele>2047</ele>
        <time>2020-07-26T07:05:24.009Z</time>
      </trkpt>
      <trkpt lat="45.16751" lon="5.93909">
        <ele>2047</ele>
        <time>2020-07-26T07:05:27.009Z</time>
      </trkpt>
      <trkpt lat="45.16752" lon="5.93919">
        <ele>2046.81609984</ele>
        <time>2020-07-26T07:05:33.009Z</time>
      </trkpt>
      <trkpt lat="45.16754" lon="5.93929">
        <ele>2046.31609984</ele>
        <time>2020-07-26T07:05:38.009Z</time>
      </trkpt>
      <trkpt lat="45.16756" lon="5.9394">
        <ele>2045.81609984</ele>
        <time>2020-07-26T07:05:43.009Z</time>
      </trkpt>
      <trkpt lat="45.16754" lon="5.93949">
        <ele>2045.41609984</ele>
        <time>2020-07-26T07:05:47.009Z</time>
      </trkpt>
      <trkpt lat="45.16753" lon="5.93959">
        <ele>2045</ele>
        <time>2020-07-26T07:05:52.009Z</time>
      </trkpt>
      <trkpt lat="45.16753" lon="5.93969">
        <ele>2045</ele>
        <time>2020-07-26T07:05:59.009Z</time>
      </trkpt>
      <trkpt lat="45.16752" lon="5.93978">
        <ele>2045</ele>
        <time>2020-07-26T07:06:05.009Z</time>
      </trkpt>
      <trkpt lat="45.16751" lon="5.93988">
        <ele>2045</ele>
        <time>2020-07-26T07:06:11.009Z</time>
      </trkpt>
      <trkpt lat="45.16748" lon="5.94002">
        <ele>2045</ele>
        <time>2020-07-26T07:06:18.009Z</time>
      </trkpt>
      <trkpt lat="45.16743" lon="5.94007">
        <ele>2045</ele>
        <time>2020-07-26T07:06:22.009Z</time>
      </trkpt>
      <trkpt lat="45.16738" lon="5.94013">
        <ele>2045</ele>
        <time>2020-07-26T07:06:27.009Z</time>
      </trkpt>
      <trkpt lat="45.16734" lon="5.94017">
        <ele>2045</ele>
        <time>2020-07-26T07:06:30.009Z</time>
      </trkpt>
      <trkpt lat="45.16732" lon="5.94023">
        <ele>2045.18390016</ele>
        <time>2020-07-26T07:06:33.009Z</time>
      </trkpt>
      <trkpt lat="45.16728" lon="5.94031">
        <ele>2045.68390016</ele>
        <time>2020-07-26T07:06:38.009Z</time>
      </trkpt>
      <trkpt lat="45.16722" lon="5.94043">
        <ele>2047.45170048</ele>
        <time>2020-07-26T07:06:46.009Z</time>
      </trkpt>
      <trkpt lat="45.16717" lon="5.94046">
        <ele>2049.08390016</ele>
        <time>2020-07-26T07:06:52.009Z</time>
      </trkpt>
      <trkpt lat="45.16713" lon="5.94045">
        <ele>2049.38390016</ele>
        <time>2020-07-26T07:06:55.009Z</time>
      </trkpt>
      <trkpt lat="45.16709" lon="5.94042">
        <ele>2049.78390016</ele>
        <time>2020-07-26T07:06:59.009Z</time>
      </trkpt>
      <trkpt lat="45.16706" lon="5.94039">
        <ele>2050</ele>
        <time>2020-07-26T07:07:02.009Z</time>
      </trkpt>
      <trkpt lat="45.16702" lon="5.94037">
        <ele>2050</ele>
        <time>2020-07-26T07:07:05.009Z</time>
      </trkpt>
      <trkpt lat="45.16696" lon="5.94045">
        <ele>2050.58390016</ele>
        <time>2020-07-26T07:07:17.009Z</time>
      </trkpt>
      <trkpt lat="45.16693" lon="5.9405">
        <ele>2050.98390016</ele>
        <time>2020-07-26T07:07:21.009Z</time>
      </trkpt>
      <trkpt lat="45.16692" lon="5.94061">
        <ele>2051.58390016</ele>
        <time>2020-07-26T07:07:27.009Z</time>
      </trkpt>
      <trkpt lat="45.16697" lon="5.94073">
        <ele>2053.45170048</ele>
        <time>2020-07-26T07:07:36.009Z</time>
      </trkpt>
      <trkpt lat="45.16697" lon="5.94088">
        <ele>2055.76780032</ele>
        <time>2020-07-26T07:07:45.009Z</time>
      </trkpt>
      <trkpt lat="45.16695" lon="5.94102">
        <ele>2058.53560064</ele>
        <time>2020-07-26T07:07:55.009Z</time>
      </trkpt>
      <trkpt lat="45.16694" lon="5.94115">
        <ele>2061</ele>
        <time>2020-07-26T07:08:04.009Z</time>
      </trkpt>
      <trkpt lat="45.16691" lon="5.94124">
        <ele>2061</ele>
        <time>2020-07-26T07:08:11.009Z</time>
      </trkpt>
      <trkpt lat="45.16688" lon="5.94129">
        <ele>2061</ele>
        <time>2020-07-26T07:08:15.009Z</time>
      </trkpt>
      <trkpt lat="45.16684" lon="5.94133">
        <ele>2061</ele>
        <time>2020-07-26T07:08:34.009Z</time>
      </trkpt>
      <trkpt lat="45.1668" lon="5.9414">
        <ele>2061</ele>
        <time>2020-07-26T07:08:39.009Z</time>
      </trkpt>
      <trkpt lat="45.16675" lon="5.94146">
        <ele>2061.78390016</ele>
        <time>2020-07-26T07:08:49.009Z</time>
      </trkpt>
      <trkpt lat="45.1667" lon="5.94149">
        <ele>2062</ele>
        <time>2020-07-26T07:08:53.009Z</time>
      </trkpt>
      <trkpt lat="45.16666" lon="5.94151">
        <ele>2062</ele>
        <time>2020-07-26T07:08:57.009Z</time>
      </trkpt>
      <trkpt lat="45.1666" lon="5.94157">
        <ele>2062.18390016</ele>
        <time>2020-07-26T07:09:03.009Z</time>
      </trkpt>
      <trkpt lat="45.16654" lon="5.94164">
        <ele>2062.88390016</ele>
        <time>2020-07-26T07:09:10.009Z</time>
      </trkpt>
      <trkpt lat="45.16651" lon="5.9417">
        <ele>2063.38390016</ele>
        <time>2020-07-26T07:09:15.009Z</time>
      </trkpt>
      <trkpt lat="45.16648" lon="5.94177">
        <ele>2063.88390016</ele>
        <time>2020-07-26T07:09:20.009Z</time>
      </trkpt>
      <trkpt lat="45.16642" lon="5.94182">
        <ele>2065.45170048</ele>
        <time>2020-07-26T07:09:26.009Z</time>
      </trkpt>
      <trkpt lat="45.16636" lon="5.9418">
        <ele>2067.25170048</ele>
        <time>2020-07-26T07:09:32.009Z</time>
      </trkpt>
      <trkpt lat="45.16633" lon="5.94174">
        <ele>2068.75170048</ele>
        <time>2020-07-26T07:09:37.009Z</time>
      </trkpt>
      <trkpt lat="45.16628" lon="5.94171">
        <ele>2069.95170048</ele>
        <time>2020-07-26T07:09:41.009Z</time>
      </trkpt>
      <trkpt lat="45.16623" lon="5.94169">
        <ele>2070</ele>
        <time>2020-07-26T07:09:45.009Z</time>
      </trkpt>
      <trkpt lat="45.16618" lon="5.9417">
        <ele>2070</ele>
        <time>2020-07-26T07:09:49.009Z</time>
      </trkpt>
      <trkpt lat="45.16613" lon="5.94166">
        <ele>2070</ele>
        <time>2020-07-26T07:09:54.009Z</time>
      </trkpt>
      <trkpt lat="45.16606" lon="5.94165">
        <ele>2070</ele>
        <time>2020-07-26T07:10:01.009Z</time>
      </trkpt>
      <trkpt lat="45.166" lon="5.94165">
        <ele>2069.51609984</ele>
        <time>2020-07-26T07:10:06.009Z</time>
      </trkpt>
      <trkpt lat="45.16594" lon="5.94163">
        <ele>2069.36780032</ele>
        <time>2020-07-26T07:10:13.009Z</time>
      </trkpt>
      <trkpt lat="45.16588" lon="5.94158">
        <ele>2070.56780032</ele>
        <time>2020-07-26T07:10:19.009Z</time>
      </trkpt>
      <trkpt lat="45.16586" lon="5.94149">
        <ele>2074.98390016</ele>
        <time>2020-07-26T07:10:41.009Z</time>
      </trkpt>
      <trkpt lat="45.16579" lon="5.94151">
        <ele>2073.31609984</ele>
        <time>2020-07-26T07:10:58.009Z</time>
      </trkpt>
      <trkpt lat="45.16572" lon="5.94155">
        <ele>2070.03219968</ele>
        <time>2020-07-26T07:11:21.009Z</time>
      </trkpt>
      <trkpt lat="45.1657" lon="5.94166">
        <ele>2070.58390016</ele>
        <time>2020-07-26T07:11:27.009Z</time>
      </trkpt>
      <trkpt lat="45.16566" lon="5.94171">
        <ele>2070</ele>
        <time>2020-07-26T07:11:42.009Z</time>
      </trkpt>
      <trkpt lat="45.16563" lon="5.94179">
        <ele>2070</ele>
        <time>2020-07-26T07:11:47.009Z</time>
      </trkpt>
      <trkpt lat="45.16561" lon="5.94187">
        <ele>2070</ele>
        <time>2020-07-26T07:11:51.009Z</time>
      </trkpt>
      <trkpt lat="45.16557" lon="5.94198">
        <ele>2070.78390016</ele>
        <time>2020-07-26T07:11:59.009Z</time>
      </trkpt>
      <trkpt lat="45.16552" lon="5.94203">
        <ele>2072.13560064</ele>
        <time>2020-07-26T07:12:04.009Z</time>
      </trkpt>
      <trkpt lat="45.16545" lon="5.94214">
        <ele>2075.16780032</ele>
        <time>2020-07-26T07:12:12.009Z</time>
      </trkpt>
      <trkpt lat="45.16542" lon="5.94219">
        <ele>2075.96780032</ele>
        <time>2020-07-26T07:12:16.009Z</time>
      </trkpt>
      <trkpt lat="45.16538" lon="5.94229">
        <ele>2076.91609984</ele>
        <time>2020-07-26T07:12:22.009Z</time>
      </trkpt>
      <trkpt lat="45.16533" lon="5.94234">
        <ele>2076.51609984</ele>
        <time>2020-07-26T07:12:26.009Z</time>
      </trkpt>
      <trkpt lat="45.16529" lon="5.94238">
        <ele>2076.21609984</ele>
        <time>2020-07-26T07:12:29.009Z</time>
      </trkpt>
      <trkpt lat="45.16522" lon="5.94242">
        <ele>2076.18390016</ele>
        <time>2020-07-26T07:12:33.009Z</time>
      </trkpt>
      <trkpt lat="45.16516" lon="5.94247">
        <ele>2076.68390016</ele>
        <time>2020-07-26T07:12:38.009Z</time>
      </trkpt>
      <trkpt lat="45.16511" lon="5.94246">
        <ele>2077.25170048</ele>
        <time>2020-07-26T07:12:42.009Z</time>
      </trkpt>
      <trkpt lat="45.16506" lon="5.94243">
        <ele>2078.15170048</ele>
        <time>2020-07-26T07:12:45.009Z</time>
      </trkpt>
      <trkpt lat="45.165" lon="5.94239">
        <ele>2079.65170048</ele>
        <time>2020-07-26T07:12:50.009Z</time>
      </trkpt>
      <trkpt lat="45.16494" lon="5.94244">
        <ele>2081.70340096</ele>
        <time>2020-07-26T07:12:54.009Z</time>
      </trkpt>
      <trkpt lat="45.16489" lon="5.9425">
        <ele>2084.10340096</ele>
        <time>2020-07-26T07:12:58.009Z</time>
      </trkpt>
      <trkpt lat="45.16485" lon="5.94255">
        <ele>2086.08390016</ele>
        <time>2020-07-26T07:13:02.009Z</time>
      </trkpt>
      <trkpt lat="45.16481" lon="5.9426">
        <ele>2086.48390016</ele>
        <time>2020-07-26T07:13:06.009Z</time>
      </trkpt>
      <trkpt lat="45.16477" lon="5.94263">
        <ele>2086.78390016</ele>
        <time>2020-07-26T07:13:09.009Z</time>
      </trkpt>
      <trkpt lat="45.16476" lon="5.94266">
        <ele>2086.83219968</ele>
        <time>2020-07-26T07:13:12.009Z</time>
      </trkpt>
      <trkpt lat="45.16475" lon="5.9427">
        <ele>2086.23219968</ele>
        <time>2020-07-26T07:13:15.009Z</time>
      </trkpt>
      <trkpt lat="45.16473" lon="5.94274">
        <ele>2085.43219968</ele>
        <time>2020-07-26T07:13:19.009Z</time>
      </trkpt>
      <trkpt lat="45.1647" lon="5.94277">
        <ele>2085</ele>
        <time>2020-07-26T07:13:23.009Z</time>
      </trkpt>
      <trkpt lat="45.16467" lon="5.94285">
        <ele>2085</ele>
        <time>2020-07-26T07:13:30.009Z</time>
      </trkpt>
      <trkpt lat="45.16463" lon="5.94291">
        <ele>2085.76780032</ele>
        <time>2020-07-26T07:13:35.009Z</time>
      </trkpt>
      <trkpt lat="45.1646" lon="5.94297">
        <ele>2087.18390016</ele>
        <time>2020-07-26T07:13:43.009Z</time>
      </trkpt>
      <trkpt lat="45.16457" lon="5.94304">
        <ele>2087.88390016</ele>
        <time>2020-07-26T07:13:50.009Z</time>
      </trkpt>
      <trkpt lat="45.16456" lon="5.94311">
        <ele>2089.15170048</ele>
        <time>2020-07-26T07:13:55.009Z</time>
      </trkpt>
      <trkpt lat="45.16451" lon="5.9432">
        <ele>2091.48390016</ele>
        <time>2020-07-26T07:14:06.009Z</time>
      </trkpt>
      <trkpt lat="45.16444" lon="5.94322">
        <ele>2092.96780032</ele>
        <time>2020-07-26T07:14:16.009Z</time>
      </trkpt>
      <trkpt lat="45.16441" lon="5.94334">
        <ele>2095</ele>
        <time>2020-07-26T07:14:33.009Z</time>
      </trkpt>
      <trkpt lat="45.16436" lon="5.94335">
        <ele>2095.55170048</ele>
        <time>2020-07-26T07:14:43.009Z</time>
      </trkpt>
      <trkpt lat="45.1643" lon="5.94331">
        <ele>2097.65170048</ele>
        <time>2020-07-26T07:14:50.009Z</time>
      </trkpt>
      <trkpt lat="45.16424" lon="5.94324">
        <ele>2100.73560064</ele>
        <time>2020-07-26T07:14:58.009Z</time>
      </trkpt>
      <trkpt lat="45.16421" lon="5.94316">
        <ele>2102.38390016</ele>
        <time>2020-07-26T07:15:05.009Z</time>
      </trkpt>
      <trkpt lat="45.16419" lon="5.9433">
        <ele>2105.95170048</ele>
        <time>2020-07-26T07:15:21.009Z</time>
      </trkpt>
      <trkpt lat="45.16424" lon="5.94343">
        <ele>2110.56780032</ele>
        <time>2020-07-26T07:15:34.009Z</time>
      </trkpt>
      <trkpt lat="45.16425" lon="5.94354">
        <ele>2112.36780032</ele>
        <time>2020-07-26T07:15:43.009Z</time>
      </trkpt>
      <trkpt lat="45.16418" lon="5.94356">
        <ele>2114.55170048</ele>
        <time>2020-07-26T07:15:53.009Z</time>
      </trkpt>
      <trkpt lat="45.1641" lon="5.94345">
        <ele>2117.85170048</ele>
        <time>2020-07-26T07:16:04.009Z</time>
      </trkpt>
      <trkpt lat="45.16406" lon="5.94338">
        <ele>2120</ele>
        <time>2020-07-26T07:16:17.009Z</time>
      </trkpt>
      <trkpt lat="45.16408" lon="5.9435">
        <ele>2122</ele>
        <time>2020-07-26T07:16:35.009Z</time>
      </trkpt>
      <trkpt lat="45.16409" lon="5.94365">
        <ele>2122.76780032</ele>
        <time>2020-07-26T07:16:45.009Z</time>
      </trkpt>
      <trkpt lat="45.1641" lon="5.94378">
        <ele>2124.28390016</ele>
        <time>2020-07-26T07:16:54.009Z</time>
      </trkpt>
      <trkpt lat="45.16411" lon="5.94386">
        <ele>2124.98390016</ele>
        <time>2020-07-26T07:17:01.009Z</time>
      </trkpt>
      <trkpt lat="45.16406" lon="5.94388">
        <ele>2125.88390016</ele>
        <time>2020-07-26T07:17:10.009Z</time>
      </trkpt>
      <trkpt lat="45.164" lon="5.94385">
        <ele>2126.68390016</ele>
        <time>2020-07-26T07:17:18.009Z</time>
      </trkpt>
      <trkpt lat="45.16401" lon="5.94397">
        <ele>2128.75170048</ele>
        <time>2020-07-26T07:17:27.009Z</time>
      </trkpt>
      <trkpt lat="45.16397" lon="5.94403">
        <ele>2130.76780032</ele>
        <time>2020-07-26T07:17:35.009Z</time>
      </trkpt>
      <trkpt lat="45.16391" lon="5.94405">
        <ele>2133.45170048</ele>
        <time>2020-07-26T07:17:46.009Z</time>
      </trkpt>
      <trkpt lat="45.1639" lon="5.9442">
        <ele>2135.08390016</ele>
        <time>2020-07-26T07:18:02.009Z</time>
      </trkpt>
      <trkpt lat="45.16387" lon="5.9443">
        <ele>2135.78390016</ele>
        <time>2020-07-26T07:18:09.009Z</time>
      </trkpt>
      <trkpt lat="45.16392" lon="5.94443">
        <ele>2138.25170048</ele>
        <time>2020-07-26T07:18:22.009Z</time>
      </trkpt>
      <trkpt lat="45.16392" lon="5.94457">
        <ele>2142.75170048</ele>
        <time>2020-07-26T07:18:37.009Z</time>
      </trkpt>
      <trkpt lat="45.16388" lon="5.94464">
        <ele>2145.45170048</ele>
        <time>2020-07-26T07:18:46.009Z</time>
      </trkpt>
      <trkpt lat="45.16383" lon="5.94461">
        <ele>2146.95170048</ele>
        <time>2020-07-26T07:18:51.009Z</time>
      </trkpt>
      <trkpt lat="45.16379" lon="5.94461">
        <ele>2147.96780032</ele>
        <time>2020-07-26T07:18:56.009Z</time>
      </trkpt>
      <trkpt lat="45.16374" lon="5.9446">
        <ele>2148.76780032</ele>
        <time>2020-07-26T07:19:00.009Z</time>
      </trkpt>
      <trkpt lat="45.1637" lon="5.94457">
        <ele>2149.38390016</ele>
        <time>2020-07-26T07:19:05.009Z</time>
      </trkpt>
      <trkpt lat="45.16365" lon="5.94453">
        <ele>2149.88390016</ele>
        <time>2020-07-26T07:19:10.009Z</time>
      </trkpt>
      <trkpt lat="45.16365" lon="5.94468">
        <ele>2151.96780032</ele>
        <time>2020-07-26T07:19:26.009Z</time>
      </trkpt>
      <trkpt lat="45.16367" lon="5.94481">
        <ele>2154.15170048</ele>
        <time>2020-07-26T07:19:35.009Z</time>
      </trkpt>
      <trkpt lat="45.16373" lon="5.94494">
        <ele>2156.96780032</ele>
        <time>2020-07-26T07:19:46.009Z</time>
      </trkpt>
      <trkpt lat="45.16375" lon="5.94508">
        <ele>2159.75170048</ele>
        <time>2020-07-26T07:19:57.009Z</time>
      </trkpt>
      <trkpt lat="45.16372" lon="5.94518">
        <ele>2165</ele>
        <time>2020-07-26T07:22:47.009Z</time>
      </trkpt>
      <trkpt lat="45.16367" lon="5.94522">
        <ele>2165.48390016</ele>
        <time>2020-07-26T07:22:56.009Z</time>
      </trkpt>
      <trkpt lat="45.16364" lon="5.94529">
        <ele>2166.55170048</ele>
        <time>2020-07-26T07:23:03.009Z</time>
      </trkpt>
      <trkpt lat="45.16358" lon="5.94526">
        <ele>2171</ele>
        <time>2020-07-26T07:24:45.009Z</time>
      </trkpt>
      <trkpt lat="45.1636" lon="5.94531">
        <ele>2172.0434756116</ele>
        <time>2020-07-26T07:25:27.009Z</time>
      </trkpt>
      <trkpt lat="45.16364" lon="5.94531">
        <ele>2173.8554511399</ele>
        <time>2020-07-26T07:27:06.009Z</time>
      </trkpt>
      <trkpt lat="45.16359" lon="5.94544">
        <ele>2173</ele>
        <time>2020-07-26T07:27:16.009Z</time>
      </trkpt>
      <trkpt lat="45.16358" lon="5.94552">
        <ele>2173</ele>
        <time>2020-07-26T07:27:26.009Z</time>
      </trkpt>
      <trkpt lat="45.16363" lon="5.94559">
        <ele>2173</ele>
        <time>2020-07-26T07:27:33.009Z</time>
      </trkpt>
      <trkpt lat="45.16368" lon="5.94569">
        <ele>2174.3256076891</ele>
        <time>2020-07-26T07:27:40.009Z</time>
      </trkpt>
      <trkpt lat="45.16372" lon="5.94578">
        <ele>2175.28390016</ele>
        <time>2020-07-26T07:27:47.009Z</time>
      </trkpt>
      <trkpt lat="45.16377" lon="5.94583">
        <ele>2176.58390016</ele>
        <time>2020-07-26T07:28:00.009Z</time>
      </trkpt>
      <trkpt lat="45.16381" lon="5.94594">
        <ele>2180.16780032</ele>
        <time>2020-07-26T07:28:25.009Z</time>
      </trkpt>
      <trkpt lat="45.16381" lon="5.94602">
        <ele>2181.56780032</ele>
        <time>2020-07-26T07:28:32.009Z</time>
      </trkpt>
      <trkpt lat="45.16386" lon="5.9461">
        <ele>2185.13560064</ele>
        <time>2020-07-26T07:28:42.009Z</time>
      </trkpt>
      <trkpt lat="45.16387" lon="5.94616">
        <ele>2186.56780032</ele>
        <time>2020-07-26T07:28:47.009Z</time>
      </trkpt>
      <trkpt lat="45.16388" lon="5.94623">
        <ele>2188.08390016</ele>
        <time>2020-07-26T07:28:55.009Z</time>
      </trkpt>
      <trkpt lat="45.16391" lon="5.9463">
        <ele>2188.88390016</ele>
        <time>2020-07-26T07:29:03.009Z</time>
      </trkpt>
      <trkpt lat="45.16396" lon="5.94635">
        <ele>2189.48390016</ele>
        <time>2020-07-26T07:29:09.009Z</time>
      </trkpt>
      <trkpt lat="45.164" lon="5.94639">
        <ele>2189.98390016</ele>
        <time>2020-07-26T07:29:14.009Z</time>
      </trkpt>
      <trkpt lat="45.16406" lon="5.94643">
        <ele>2190.58390016</ele>
        <time>2020-07-26T07:29:20.009Z</time>
      </trkpt>
      <trkpt lat="45.16409" lon="5.94649">
        <ele>2191.18390016</ele>
        <time>2020-07-26T07:29:26.009Z</time>
      </trkpt>
      <trkpt lat="45.16413" lon="5.94658">
        <ele>2191.78390016</ele>
        <time>2020-07-26T07:29:32.009Z</time>
      </trkpt>
      <trkpt lat="45.16418" lon="5.94662">
        <ele>2192.38390016</ele>
        <time>2020-07-26T07:29:38.009Z</time>
      </trkpt>
      <trkpt lat="45.16425" lon="5.94667">
        <ele>2193.36780032</ele>
        <time>2020-07-26T07:29:46.009Z</time>
      </trkpt>
      <trkpt lat="45.16432" lon="5.9467">
        <ele>2194.76780032</ele>
        <time>2020-07-26T07:29:53.009Z</time>
      </trkpt>
      <trkpt lat="45.16437" lon="5.94674">
        <ele>2195.38390016</ele>
        <time>2020-07-26T07:29:58.009Z</time>
      </trkpt>
      <trkpt lat="45.1644" lon="5.94677">
        <ele>2195.68390016</ele>
        <time>2020-07-26T07:30:01.009Z</time>
      </trkpt>
      <trkpt lat="45.16447" lon="5.94683">
        <ele>2196.56780032</ele>
        <time>2020-07-26T07:30:07.009Z</time>
      </trkpt>
      <trkpt lat="45.16454" lon="5.94694">
        <ele>2198</ele>
        <time>2020-07-26T07:30:16.009Z</time>
      </trkpt>
      <trkpt lat="45.1646" lon="5.94699">
        <ele>2198</ele>
        <time>2020-07-26T07:30:24.009Z</time>
      </trkpt>
      <trkpt lat="45.16465" lon="5.94702">
        <ele>2198.38390016</ele>
        <time>2020-07-26T07:30:28.009Z</time>
      </trkpt>
      <trkpt lat="45.16469" lon="5.94707">
        <ele>2198.78390016</ele>
        <time>2020-07-26T07:30:32.009Z</time>
      </trkpt>
      <trkpt lat="45.16472" lon="5.94714">
        <ele>2199</ele>
        <time>2020-07-26T07:30:37.009Z</time>
      </trkpt>
      <trkpt lat="45.16472" lon="5.94719">
        <ele>2199</ele>
        <time>2020-07-26T07:30:40.009Z</time>
      </trkpt>
      <trkpt lat="45.16473" lon="5.94724">
        <ele>2199</ele>
        <time>2020-07-26T07:30:43.009Z</time>
      </trkpt>
      <trkpt lat="45.16474" lon="5.94729">
        <ele>2199</ele>
        <time>2020-07-26T07:30:46.009Z</time>
      </trkpt>
      <trkpt lat="45.16475" lon="5.94735">
        <ele>2199</ele>
        <time>2020-07-26T07:30:49.009Z</time>
      </trkpt>
      <trkpt lat="45.16477" lon="5.9474">
        <ele>2199</ele>
        <time>2020-07-26T07:30:52.009Z</time>
      </trkpt>
      <trkpt lat="45.16478" lon="5.94746">
        <ele>2199.16780032</ele>
        <time>2020-07-26T07:30:55.009Z</time>
      </trkpt>
      <trkpt lat="45.16479" lon="5.94751">
        <ele>2199.76780032</ele>
        <time>2020-07-26T07:30:58.009Z</time>
      </trkpt>
      <trkpt lat="45.16482" lon="5.94758">
        <ele>2200.76780032</ele>
        <time>2020-07-26T07:31:03.009Z</time>
      </trkpt>
      <trkpt lat="45.16483" lon="5.94763">
        <ele>2201.55170048</ele>
        <time>2020-07-26T07:31:06.009Z</time>
      </trkpt>
      <trkpt lat="45.16488" lon="5.94769">
        <ele>2203.65170048</ele>
        <time>2020-07-26T07:31:13.009Z</time>
      </trkpt>
      <trkpt lat="45.16492" lon="5.94768">
        <ele>2204.4834168978</ele>
        <time>2020-07-26T07:31:19.009Z</time>
      </trkpt>
      <trkpt lat="45.16494" lon="5.94771">
        <ele>2204.7831172933</ele>
        <time>2020-07-26T07:31:22.009Z</time>
      </trkpt>
      <trkpt lat="45.16497" lon="5.94773">
        <ele>2205.1659668738</ele>
        <time>2020-07-26T07:31:25.009Z</time>
      </trkpt>
      <trkpt lat="45.16501" lon="5.94778">
        <ele>2206.1669675541</ele>
        <time>2020-07-26T07:31:30.009Z</time>
      </trkpt>
      <trkpt lat="45.16508" lon="5.94782">
        <ele>2207.55170048</ele>
        <time>2020-07-26T07:31:36.009Z</time>
      </trkpt>
      <trkpt lat="45.16515" lon="5.94781">
        <ele>2210.25170048</ele>
        <time>2020-07-26T07:31:45.009Z</time>
      </trkpt>
      <trkpt lat="45.16523" lon="5.94778">
        <ele>2212.95170048</ele>
        <time>2020-07-26T07:31:54.009Z</time>
      </trkpt>
      <trkpt lat="45.16531" lon="5.94771">
        <ele>2214.56780032</ele>
        <time>2020-07-26T07:32:02.009Z</time>
      </trkpt>
      <trkpt lat="45.16534" lon="5.9477">
        <ele>2215.08390016</ele>
        <time>2020-07-26T07:32:05.009Z</time>
      </trkpt>
      <trkpt lat="45.16536" lon="5.94768">
        <ele>2215.48390016</ele>
        <time>2020-07-26T07:32:09.009Z</time>
      </trkpt>
      <trkpt lat="45.16539" lon="5.94775">
        <ele>2216.38390016</ele>
        <time>2020-07-26T07:32:18.009Z</time>
      </trkpt>
      <trkpt lat="45.16543" lon="5.94771">
        <ele>2217.48390016</ele>
        <time>2020-07-26T07:32:29.009Z</time>
      </trkpt>
      <trkpt lat="45.16548" lon="5.94769">
        <ele>2218.36780032</ele>
        <time>2020-07-26T07:32:36.009Z</time>
      </trkpt>
      <trkpt lat="45.16551" lon="5.9477">
        <ele>2218.96780032</ele>
        <time>2020-07-26T07:32:39.009Z</time>
      </trkpt>
      <trkpt lat="45.16556" lon="5.94773">
        <ele>2220</ele>
        <time>2020-07-26T07:32:46.009Z</time>
      </trkpt>
      <trkpt lat="45.16554" lon="5.94776">
        <ele>2220</ele>
        <time>2020-07-26T07:32:55.009Z</time>
      </trkpt>
      <trkpt lat="45.1655" lon="5.94782">
        <ele>2220</ele>
        <time>2020-07-26T07:33:11.009Z</time>
      </trkpt>
      <trkpt lat="45.16552" lon="5.94774">
        <ele>2218.51609984</ele>
        <time>2020-07-26T07:33:39.009Z</time>
      </trkpt>
      <trkpt lat="45.16556" lon="5.94776">
        <ele>2218.48390016</ele>
        <time>2020-07-26T07:33:49.009Z</time>
      </trkpt>
      <trkpt lat="45.1656" lon="5.94782">
        <ele>2219.16780032</ele>
        <time>2020-07-26T07:33:55.009Z</time>
      </trkpt>
      <trkpt lat="45.16565" lon="5.94783">
        <ele>2220.36780032</ele>
        <time>2020-07-26T07:34:01.009Z</time>
      </trkpt>
      <trkpt lat="45.1657" lon="5.94785">
        <ele>2221.38390016</ele>
        <time>2020-07-26T07:34:08.009Z</time>
      </trkpt>
      <trkpt lat="45.16573" lon="5.94792">
        <ele>2222.16780032</ele>
        <time>2020-07-26T07:34:15.009Z</time>
      </trkpt>
      <trkpt lat="45.16574" lon="5.94801">
        <ele>2224.68390016</ele>
        <time>2020-07-26T07:34:31.009Z</time>
      </trkpt>
      <trkpt lat="45.1658" lon="5.94801">
        <ele>2227.33560064</ele>
        <time>2020-07-26T07:34:40.009Z</time>
      </trkpt>
      <trkpt lat="45.16587" lon="5.94802">
        <ele>2230.65170048</ele>
        <time>2020-07-26T07:35:13.009Z</time>
      </trkpt>
      <trkpt lat="45.16588" lon="5.9481">
        <ele>2236.90340096</ele>
        <time>2020-07-26T07:35:24.009Z</time>
      </trkpt>
      <trkpt lat="45.1659" lon="5.94815">
        <ele>2240.4195008</ele>
        <time>2020-07-26T07:35:31.009Z</time>
      </trkpt>
      <trkpt lat="45.1659" lon="5.94823">
        <ele>2243.93560064</ele>
        <time>2020-07-26T07:35:39.009Z</time>
      </trkpt>
      <trkpt lat="45.16593" lon="5.94821">
        <ele>2245.23219968</ele>
        <time>2020-07-26T07:35:48.009Z</time>
      </trkpt>
      <trkpt lat="45.16596" lon="5.94829">
        <ele>2245.56780032</ele>
        <time>2020-07-26T07:36:02.009Z</time>
      </trkpt>
      <trkpt lat="45.16606" lon="5.94826">
        <ele>2251</ele>
        <time>2020-07-26T07:36:29.009Z</time>
      </trkpt>
      <trkpt lat="45.16611" lon="5.94836">
        <ele>2252.78390016</ele>
        <time>2020-07-26T07:36:52.009Z</time>
      </trkpt>
      <trkpt lat="45.16611" lon="5.94847">
        <ele>2256.16780032</ele>
        <time>2020-07-26T07:37:15.009Z</time>
      </trkpt>
      <trkpt lat="45.16607" lon="5.94857">
        <ele>2257.31609984</ele>
        <time>2020-07-26T07:37:31.009Z</time>
      </trkpt>
      <trkpt lat="45.16604" lon="5.94867">
        <ele>2257.48390016</ele>
        <time>2020-07-26T07:37:39.009Z</time>
      </trkpt>
      <trkpt lat="45.16598" lon="5.94875">
        <ele>2258.28390016</ele>
        <time>2020-07-26T07:37:47.009Z</time>
      </trkpt>
      <trkpt lat="45.16592" lon="5.94878">
        <ele>2259</ele>
        <time>2020-07-26T07:38:04.009Z</time>
      </trkpt>
      <trkpt lat="45.16592" lon="5.94888">
        <ele>2261.16780032</ele>
        <time>2020-07-26T07:38:20.009Z</time>
      </trkpt>
      <trkpt lat="45.16597" lon="5.94898">
        <ele>2262</ele>
        <time>2020-07-26T07:38:30.009Z</time>
      </trkpt>
      <trkpt lat="45.16594" lon="5.94908">
        <ele>2261.61609984</ele>
        <time>2020-07-26T07:38:38.009Z</time>
      </trkpt>
      <trkpt lat="45.16592" lon="5.94918">
        <ele>2260.81609984</ele>
        <time>2020-07-26T07:38:46.009Z</time>
      </trkpt>
      <trkpt lat="45.16594" lon="5.94928">
        <ele>2260.11609984</ele>
        <time>2020-07-26T07:38:53.009Z</time>
      </trkpt>
      <trkpt lat="45.16595" lon="5.94936">
        <ele>2260</ele>
        <time>2020-07-26T07:39:00.009Z</time>
      </trkpt>
      <trkpt lat="45.16596" lon="5.94943">
        <ele>2260</ele>
        <time>2020-07-26T07:39:07.009Z</time>
      </trkpt>
      <trkpt lat="45.16597" lon="5.94953">
        <ele>2260</ele>
        <time>2020-07-26T07:39:15.009Z</time>
      </trkpt>
      <trkpt lat="45.16599" lon="5.94959">
        <ele>2260</ele>
        <time>2020-07-26T07:39:20.009Z</time>
      </trkpt>
      <trkpt lat="45.16604" lon="5.94972">
        <ele>2260.38390016</ele>
        <time>2020-07-26T07:39:28.009Z</time>
      </trkpt>
      <trkpt lat="45.16604" lon="5.94987">
        <ele>2262.76780032</ele>
        <time>2020-07-26T07:39:43.009Z</time>
      </trkpt>
      <trkpt lat="45.16607" lon="5.94999">
        <ele>2263.48390016</ele>
        <time>2020-07-26T07:39:49.009Z</time>
      </trkpt>
      <trkpt lat="45.16609" lon="5.95012">
        <ele>2263.91609984</ele>
        <time>2020-07-26T07:39:55.009Z</time>
      </trkpt>
      <trkpt lat="45.16607" lon="5.95025">
        <ele>2263.31609984</ele>
        <time>2020-07-26T07:40:01.009Z</time>
      </trkpt>
      <trkpt lat="45.16604" lon="5.95038">
        <ele>2262.81609984</ele>
        <time>2020-07-26T07:40:16.009Z</time>
      </trkpt>
      <trkpt lat="45.1661" lon="5.9505">
        <ele>2261.21609984</ele>
        <time>2020-07-26T07:40:32.009Z</time>
      </trkpt>
      <trkpt lat="45.16613" lon="5.95063">
        <ele>2262.56780032</ele>
        <time>2020-07-26T07:40:42.009Z</time>
      </trkpt>
      <trkpt lat="45.16616" lon="5.95077">
        <ele>2262.41609984</ele>
        <time>2020-07-26T07:40:50.009Z</time>
      </trkpt>
      <trkpt lat="45.16624" lon="5.95087">
        <ele>2262.58390016</ele>
        <time>2020-07-26T07:41:00.009Z</time>
      </trkpt>
      <trkpt lat="45.16621" lon="5.95101">
        <ele>2264.36780032</ele>
        <time>2020-07-26T07:41:26.009Z</time>
      </trkpt>
      <trkpt lat="45.16621" lon="5.95117">
        <ele>2266</ele>
        <time>2020-07-26T07:41:35.009Z</time>
      </trkpt>
      <trkpt lat="45.16624" lon="5.95127">
        <ele>2266</ele>
        <time>2020-07-26T07:41:43.009Z</time>
      </trkpt>
      <trkpt lat="45.1663" lon="5.95137">
        <ele>2267.08390016</ele>
        <time>2020-07-26T07:41:55.009Z</time>
      </trkpt>
      <trkpt lat="45.16633" lon="5.9515">
        <ele>2267.88390016</ele>
        <time>2020-07-26T07:42:03.009Z</time>
      </trkpt>
      <trkpt lat="45.16641" lon="5.95159">
        <ele>2271.93560064</ele>
        <time>2020-07-26T07:42:14.009Z</time>
      </trkpt>
      <trkpt lat="45.16646" lon="5.95167">
        <ele>2271.31609984</ele>
        <time>2020-07-26T07:42:21.009Z</time>
      </trkpt>
      <trkpt lat="45.1665" lon="5.95174">
        <ele>2271</ele>
        <time>2020-07-26T07:42:29.009Z</time>
      </trkpt>
      <trkpt lat="45.16651" lon="5.95178">
        <ele>2271</ele>
        <time>2020-07-26T07:42:32.009Z</time>
      </trkpt>
      <trkpt lat="45.16652" lon="5.95183">
        <ele>2271</ele>
        <time>2020-07-26T07:42:36.009Z</time>
      </trkpt>
      <trkpt lat="45.16651" lon="5.95188">
        <ele>2271</ele>
        <time>2020-07-26T07:42:40.009Z</time>
      </trkpt>
      <trkpt lat="45.16654" lon="5.95194">
        <ele>2271.73560064</ele>
        <time>2020-07-26T07:42:46.009Z</time>
      </trkpt>
      <trkpt lat="45.16656" lon="5.95199">
        <ele>2274.13560064</ele>
        <time>2020-07-26T07:42:52.009Z</time>
      </trkpt>
      <trkpt lat="45.16659" lon="5.95211">
        <ele>2276.76780032</ele>
        <time>2020-07-26T07:43:03.009Z</time>
      </trkpt>
      <trkpt lat="45.1666" lon="5.9522">
        <ele>2278.50340096</ele>
        <time>2020-07-26T07:43:15.009Z</time>
      </trkpt>
      <trkpt lat="45.16659" lon="5.95227">
        <ele>2282.10340096</ele>
        <time>2020-07-26T07:43:21.009Z</time>
      </trkpt>
      <trkpt lat="45.16654" lon="5.95234">
        <ele>2286.05170048</ele>
        <time>2020-07-26T07:43:31.009Z</time>
      </trkpt>
      <trkpt lat="45.16652" lon="5.95243">
        <ele>2287</ele>
        <time>2020-07-26T07:43:42.009Z</time>
      </trkpt>
      <trkpt lat="45.16651" lon="5.95251">
        <ele>2287.98390016</ele>
        <time>2020-07-26T07:43:54.009Z</time>
      </trkpt>
      <trkpt lat="45.16645" lon="5.95256">
        <ele>2293.28390016</ele>
        <time>2020-07-26T07:44:27.009Z</time>
      </trkpt>
      <trkpt lat="45.16649" lon="5.95259">
        <ele>2296</ele>
        <time>2020-07-26T07:44:58.009Z</time>
      </trkpt>
      <trkpt lat="45.16648" lon="5.9527">
        <ele>2298.4195008</ele>
        <time>2020-07-26T07:45:17.009Z</time>
      </trkpt>
      <trkpt lat="45.16654" lon="5.95278">
        <ele>2312.56780032</ele>
        <time>2020-07-26T07:46:02.009Z</time>
      </trkpt>
      <trkpt lat="45.16665" lon="5.95279">
        <ele>2317</ele>
        <time>2020-07-26T07:46:32.009Z</time>
      </trkpt>
      <trkpt lat="45.1667" lon="5.95292">
        <ele>2318.28390016</ele>
        <time>2020-07-26T07:46:57.009Z</time>
      </trkpt>
      <trkpt lat="45.16666" lon="5.95302">
        <ele>2319.96780032</ele>
        <time>2020-07-26T07:47:09.009Z</time>
      </trkpt>
      <trkpt lat="45.1666" lon="5.95313">
        <ele>2321</ele>
        <time>2020-07-26T07:47:22.009Z</time>
      </trkpt>
      <trkpt lat="45.16653" lon="5.95324">
        <ele>2319.36780032</ele>
        <time>2020-07-26T07:47:36.009Z</time>
      </trkpt>
      <trkpt lat="45.16655" lon="5.95331">
        <ele>2324.53560064</ele>
        <time>2020-07-26T07:47:53.009Z</time>
      </trkpt>
      <trkpt lat="45.1666" lon="5.95335">
        <ele>2326.65170048</ele>
        <time>2020-07-26T07:48:13.009Z</time>
      </trkpt>
      <trkpt lat="45.1666" lon="5.95347">
        <ele>2330.96780032</ele>
        <time>2020-07-26T07:48:34.009Z</time>
      </trkpt>
      <trkpt lat="45.16657" lon="5.95353">
        <ele>2335.65170048</ele>
        <time>2020-07-26T07:48:53.009Z</time>
      </trkpt>
      <trkpt lat="45.16653" lon="5.95367">
        <ele>2336.88390016</ele>
        <time>2020-07-26T07:49:13.009Z</time>
      </trkpt>
      <trkpt lat="45.16643" lon="5.95366">
        <ele>2345.53560064</ele>
        <time>2020-07-26T07:49:43.009Z</time>
      </trkpt>
      <trkpt lat="45.16636" lon="5.9537">
        <ele>2347.76780032</ele>
        <time>2020-07-26T07:49:58.009Z</time>
      </trkpt>
      <trkpt lat="45.16628" lon="5.95378">
        <ele>2349.88390016</ele>
        <time>2020-07-26T07:50:13.009Z</time>
      </trkpt>
      <trkpt lat="45.16624" lon="5.95384">
        <ele>2355.383516766</ele>
        <time>2020-07-26T07:51:18.009Z</time>
      </trkpt>
      <trkpt lat="45.16614" lon="5.95381">
        <ele>2360.85170048</ele>
        <time>2020-07-26T07:51:47.009Z</time>
      </trkpt>
      <trkpt lat="45.16605" lon="5.95381">
        <ele>2363.76780032</ele>
        <time>2020-07-26T07:51:58.009Z</time>
      </trkpt>
      <trkpt lat="45.16597" lon="5.95381">
        <ele>2367</ele>
        <time>2020-07-26T07:52:22.009Z</time>
      </trkpt>
      <trkpt lat="45.16588" lon="5.95387">
        <ele>2369.78390016</ele>
        <time>2020-07-26T07:52:52.009Z</time>
      </trkpt>
      <trkpt lat="45.16578" lon="5.95391">
        <ele>2370.38390016</ele>
        <time>2020-07-26T07:53:08.009Z</time>
      </trkpt>
      <trkpt lat="45.1657" lon="5.95383">
        <ele>2371.6338329902</ele>
        <time>2020-07-26T07:53:46.009Z</time>
      </trkpt>
      <trkpt lat="45.16561" lon="5.95381">
        <ele>2370.28390016</ele>
        <time>2020-07-26T07:53:57.009Z</time>
      </trkpt>
      <trkpt lat="45.1655" lon="5.95382">
        <ele>2370.03219968</ele>
        <time>2020-07-26T07:54:09.009Z</time>
      </trkpt>
      <trkpt lat="45.16543" lon="5.95389">
        <ele>2369.38390016</ele>
        <time>2020-07-26T07:54:18.009Z</time>
      </trkpt>
      <trkpt lat="45.16534" lon="5.95392">
        <ele>2370.38390016</ele>
        <time>2020-07-26T07:54:28.009Z</time>
      </trkpt>
      <trkpt lat="45.16529" lon="5.95396">
        <ele>2370.98390016</ele>
        <time>2020-07-26T07:54:34.009Z</time>
      </trkpt>
      <trkpt lat="45.16524" lon="5.95401">
        <ele>2374</ele>
        <time>2020-07-26T07:54:46.009Z</time>
      </trkpt>
      <trkpt lat="45.16518" lon="5.95409">
        <ele>2372.71609984</ele>
        <time>2020-07-26T07:55:17.009Z</time>
      </trkpt>
      <trkpt lat="45.16516" lon="5.95419">
        <ele>2372</ele>
        <time>2020-07-26T07:55:25.009Z</time>
      </trkpt>
      <trkpt lat="45.16509" lon="5.95426">
        <ele>2372.698184581</ele>
        <time>2020-07-26T07:55:32.009Z</time>
      </trkpt>
      <trkpt lat="45.16503" lon="5.9543">
        <ele>2373</ele>
        <time>2020-07-26T07:55:37.009Z</time>
      </trkpt>
      <trkpt lat="45.16497" lon="5.95433">
        <ele>2373</ele>
        <time>2020-07-26T07:55:42.009Z</time>
      </trkpt>
      <trkpt lat="45.16492" lon="5.95437">
        <ele>2372.81609984</ele>
        <time>2020-07-26T07:55:46.009Z</time>
      </trkpt>
      <trkpt lat="45.16487" lon="5.95443">
        <ele>2372.31609984</ele>
        <time>2020-07-26T07:55:51.009Z</time>
      </trkpt>
      <trkpt lat="45.16483" lon="5.9545">
        <ele>2371.81609984</ele>
        <time>2020-07-26T07:55:56.009Z</time>
      </trkpt>
      <trkpt lat="45.16479" lon="5.95458">
        <ele>2371.31609984</ele>
        <time>2020-07-26T07:56:01.009Z</time>
      </trkpt>
      <trkpt lat="45.16476" lon="5.95463">
        <ele>2371.88390016</ele>
        <time>2020-07-26T07:56:23.009Z</time>
      </trkpt>
      <trkpt lat="45.16475" lon="5.95472">
        <ele>2372.01609984</ele>
        <time>2020-07-26T07:58:14.009Z</time>
      </trkpt>
      <trkpt lat="45.16471" lon="5.95481">
        <ele>2371.41609984</ele>
        <time>2020-07-26T07:58:20.009Z</time>
      </trkpt>
      <trkpt lat="45.16468" lon="5.95487">
        <ele>2371.01609984</ele>
        <time>2020-07-26T07:58:24.009Z</time>
      </trkpt>
      <trkpt lat="45.16462" lon="5.95493">
        <ele>2371</ele>
        <time>2020-07-26T07:58:30.009Z</time>
      </trkpt>
      <trkpt lat="45.16459" lon="5.95499">
        <ele>2371.08390016</ele>
        <time>2020-07-26T07:58:35.009Z</time>
      </trkpt>
      <trkpt lat="45.16457" lon="5.95503">
        <ele>2371.38390016</ele>
        <time>2020-07-26T07:58:38.009Z</time>
      </trkpt>
      <trkpt lat="45.16453" lon="5.95515">
        <ele>2372.18390016</ele>
        <time>2020-07-26T07:58:46.009Z</time>
      </trkpt>
      <trkpt lat="45.16451" lon="5.95524">
        <ele>2372.81609984</ele>
        <time>2020-07-26T07:58:56.009Z</time>
      </trkpt>
      <trkpt lat="45.1645" lon="5.95532">
        <ele>2372.11609984</ele>
        <time>2020-07-26T07:59:03.009Z</time>
      </trkpt>
      <trkpt lat="45.16451" lon="5.95539">
        <ele>2372.68390016</ele>
        <time>2020-07-26T07:59:11.009Z</time>
      </trkpt>
      <trkpt lat="45.16453" lon="5.95543">
        <ele>2373.18390016</ele>
        <time>2020-07-26T07:59:16.009Z</time>
      </trkpt>
      <trkpt lat="45.16455" lon="5.95549">
        <ele>2373.78390016</ele>
        <time>2020-07-26T07:59:22.009Z</time>
      </trkpt>
      <trkpt lat="45.16453" lon="5.95559">
        <ele>2374</ele>
        <time>2020-07-26T07:59:30.009Z</time>
      </trkpt>
      <trkpt lat="45.16451" lon="5.95567">
        <ele>2374</ele>
        <time>2020-07-26T07:59:35.009Z</time>
      </trkpt>
      <trkpt lat="45.16451" lon="5.95578">
        <ele>2374</ele>
        <time>2020-07-26T07:59:42.009Z</time>
      </trkpt>
      <trkpt lat="45.1645" lon="5.95589">
        <ele>2373.61609984</ele>
        <time>2020-07-26T07:59:48.009Z</time>
      </trkpt>
      <trkpt lat="45.16449" lon="5.956">
        <ele>2373.01609984</ele>
        <time>2020-07-26T07:59:54.009Z</time>
      </trkpt>
      <trkpt lat="45.16449" lon="5.95611">
        <ele>2373.58390016</ele>
        <time>2020-07-26T08:00:00.009Z</time>
      </trkpt>
      <trkpt lat="45.16449" lon="5.95622">
        <ele>2374</ele>
        <time>2020-07-26T08:00:06.009Z</time>
      </trkpt>
      <trkpt lat="45.16449" lon="5.9563">
        <ele>2374</ele>
        <time>2020-07-26T08:00:11.009Z</time>
      </trkpt>
      <trkpt lat="45.1645" lon="5.95639">
        <ele>2373.81609984</ele>
        <time>2020-07-26T08:00:16.009Z</time>
      </trkpt>
      <trkpt lat="45.16449" lon="5.9565">
        <ele>2373.21609984</ele>
        <time>2020-07-26T08:00:22.009Z</time>
      </trkpt>
      <trkpt lat="45.16451" lon="5.9566">
        <ele>2372.61609984</ele>
        <time>2020-07-26T08:00:28.009Z</time>
      </trkpt>
      <trkpt lat="45.16448" lon="5.95669">
        <ele>2372.01609984</ele>
        <time>2020-07-26T08:00:34.009Z</time>
      </trkpt>
      <trkpt lat="45.16443" lon="5.95681">
        <ele>2372.78390016</ele>
        <time>2020-07-26T08:00:42.009Z</time>
      </trkpt>
      <trkpt lat="45.16437" lon="5.95688">
        <ele>2372.41609984</ele>
        <time>2020-07-26T08:00:50.009Z</time>
      </trkpt>
      <trkpt lat="45.16433" lon="5.95699">
        <ele>2371.81609984</ele>
        <time>2020-07-26T08:00:56.009Z</time>
      </trkpt>
      <trkpt lat="45.16431" lon="5.9571">
        <ele>2371.21609984</ele>
        <time>2020-07-26T08:01:02.009Z</time>
      </trkpt>
      <trkpt lat="45.1643" lon="5.9572">
        <ele>2371</ele>
        <time>2020-07-26T08:01:08.009Z</time>
      </trkpt>
      <trkpt lat="45.16428" lon="5.95728">
        <ele>2371</ele>
        <time>2020-07-26T08:01:13.009Z</time>
      </trkpt>
      <trkpt lat="45.16426" lon="5.95734">
        <ele>2371.56780032</ele>
        <time>2020-07-26T08:01:17.009Z</time>
      </trkpt>
      <trkpt lat="45.16423" lon="5.95741">
        <ele>2372.56780032</ele>
        <time>2020-07-26T08:01:22.009Z</time>
      </trkpt>
      <trkpt lat="45.16419" lon="5.95747">
        <ele>2373.28390016</ele>
        <time>2020-07-26T08:01:27.009Z</time>
      </trkpt>
      <trkpt lat="45.16416" lon="5.95751">
        <ele>2373.68390016</ele>
        <time>2020-07-26T08:01:31.009Z</time>
      </trkpt>
      <trkpt lat="45.16411" lon="5.95756">
        <ele>2374</ele>
        <time>2020-07-26T08:01:35.009Z</time>
      </trkpt>
      <trkpt lat="45.16405" lon="5.95762">
        <ele>2374</ele>
        <time>2020-07-26T08:01:40.009Z</time>
      </trkpt>
      <trkpt lat="45.164" lon="5.95765">
        <ele>2374</ele>
        <time>2020-07-26T08:01:49.009Z</time>
      </trkpt>
      <trkpt lat="45.1639" lon="5.95772">
        <ele>2376</ele>
        <time>2020-07-26T08:02:33.009Z</time>
      </trkpt>
      <trkpt lat="45.16382" lon="5.95779">
        <ele>2377.36780032</ele>
        <time>2020-07-26T08:02:41.009Z</time>
      </trkpt>
      <trkpt lat="45.16374" lon="5.95788">
        <ele>2378.96780032</ele>
        <time>2020-07-26T08:02:49.009Z</time>
      </trkpt>
      <trkpt lat="45.1637" lon="5.95796">
        <ele>2380</ele>
        <time>2020-07-26T08:03:09.009Z</time>
      </trkpt>
      <trkpt lat="45.16361" lon="5.95803">
        <ele>2386.27120128</ele>
        <time>2020-07-26T08:03:22.009Z</time>
      </trkpt>
      <trkpt lat="45.16356" lon="5.95811">
        <ele>2387.61609984</ele>
        <time>2020-07-26T08:03:28.009Z</time>
      </trkpt>
      <trkpt lat="45.1635" lon="5.95823">
        <ele>2387.58390016</ele>
        <time>2020-07-26T08:03:40.009Z</time>
      </trkpt>
      <trkpt lat="45.16344" lon="5.95836">
        <ele>2387.51609984</ele>
        <time>2020-07-26T08:03:49.009Z</time>
      </trkpt>
      <trkpt lat="45.16343" lon="5.9585">
        <ele>2387.61609984</ele>
        <time>2020-07-26T08:04:28.009Z</time>
      </trkpt>
      <trkpt lat="45.16339" lon="5.95863">
        <ele>2387.68390016</ele>
        <time>2020-07-26T08:04:41.009Z</time>
      </trkpt>
      <trkpt lat="45.16339" lon="5.95878">
        <ele>2389</ele>
        <time>2020-07-26T08:04:56.009Z</time>
      </trkpt>
      <trkpt lat="45.16338" lon="5.9589">
        <ele>2389</ele>
        <time>2020-07-26T08:05:03.009Z</time>
      </trkpt>
      <trkpt lat="45.16339" lon="5.95904">
        <ele>2389</ele>
        <time>2020-07-26T08:05:11.009Z</time>
      </trkpt>
      <trkpt lat="45.16342" lon="5.95919">
        <ele>2391.0496514844</ele>
        <time>2020-07-26T08:05:21.009Z</time>
      </trkpt>
      <trkpt lat="45.16345" lon="5.95933">
        <ele>2392.5834837771</ele>
        <time>2020-07-26T08:05:30.009Z</time>
      </trkpt>
      <trkpt lat="45.16348" lon="5.95945">
        <ele>2393.28390016</ele>
        <time>2020-07-26T08:05:37.009Z</time>
      </trkpt>
      <trkpt lat="45.1635" lon="5.95959">
        <ele>2394.36780032</ele>
        <time>2020-07-26T08:05:46.009Z</time>
      </trkpt>
      <trkpt lat="45.16352" lon="5.95973">
        <ele>2395.96780032</ele>
        <time>2020-07-26T08:05:54.009Z</time>
      </trkpt>
      <trkpt lat="45.16355" lon="5.95986">
        <ele>2396</ele>
        <time>2020-07-26T08:06:02.009Z</time>
      </trkpt>
      <trkpt lat="45.16355" lon="5.95999">
        <ele>2396</ele>
        <time>2020-07-26T08:06:09.009Z</time>
      </trkpt>
      <trkpt lat="45.16358" lon="5.96011">
        <ele>2397</ele>
        <time>2020-07-26T08:06:28.009Z</time>
      </trkpt>
      <trkpt lat="45.16364" lon="5.96021">
        <ele>2396.61609984</ele>
        <time>2020-07-26T08:07:08.009Z</time>
      </trkpt>
      <trkpt lat="45.16368" lon="5.96035">
        <ele>2395.71609984</ele>
        <time>2020-07-26T08:07:17.009Z</time>
      </trkpt>
      <trkpt lat="45.16371" lon="5.96047">
        <ele>2395.01609984</ele>
        <time>2020-07-26T08:07:24.009Z</time>
      </trkpt>
      <trkpt lat="45.16374" lon="5.96059">
        <ele>2395.68390016</ele>
        <time>2020-07-26T08:07:31.009Z</time>
      </trkpt>
      <trkpt lat="45.16379" lon="5.96069">
        <ele>2396.76780032</ele>
        <time>2020-07-26T08:07:38.009Z</time>
      </trkpt>
      <trkpt lat="45.16384" lon="5.96082">
        <ele>2398.36780032</ele>
        <time>2020-07-26T08:07:46.009Z</time>
      </trkpt>
      <trkpt lat="45.1639" lon="5.96093">
        <ele>2399.76780032</ele>
        <time>2020-07-26T08:07:53.009Z</time>
      </trkpt>
      <trkpt lat="45.16395" lon="5.96106">
        <ele>2400</ele>
        <time>2020-07-26T08:08:01.009Z</time>
      </trkpt>
      <trkpt lat="45.164" lon="5.96115">
        <ele>2400</ele>
        <time>2020-07-26T08:08:11.009Z</time>
      </trkpt>
      <trkpt lat="45.16404" lon="5.96125">
        <ele>2400</ele>
        <time>2020-07-26T08:08:18.009Z</time>
      </trkpt>
      <trkpt lat="45.16407" lon="5.96135">
        <ele>2400.2489503106</ele>
        <time>2020-07-26T08:08:25.009Z</time>
      </trkpt>
      <trkpt lat="45.16413" lon="5.96148">
        <ele>2403.18390016</ele>
        <time>2020-07-26T08:08:36.009Z</time>
      </trkpt>
      <trkpt lat="45.16417" lon="5.96159">
        <ele>2404.16780032</ele>
        <time>2020-07-26T08:08:45.009Z</time>
      </trkpt>
      <trkpt lat="45.16424" lon="5.96171">
        <ele>2405.96780032</ele>
        <time>2020-07-26T08:08:54.009Z</time>
      </trkpt>
      <trkpt lat="45.16428" lon="5.96185">
        <ele>2406</ele>
        <time>2020-07-26T08:09:01.009Z</time>
      </trkpt>
      <trkpt lat="45.16431" lon="5.96199">
        <ele>2406.48390016</ele>
        <time>2020-07-26T08:09:09.009Z</time>
      </trkpt>
      <trkpt lat="45.16435" lon="5.96213">
        <ele>2407.38390016</ele>
        <time>2020-07-26T08:09:18.009Z</time>
      </trkpt>
      <trkpt lat="45.1644" lon="5.96226">
        <ele>2407</ele>
        <time>2020-07-26T08:09:48.009Z</time>
      </trkpt>
      <trkpt lat="45.16446" lon="5.96234">
        <ele>2406.91609984</ele>
        <time>2020-07-26T08:09:55.009Z</time>
      </trkpt>
      <trkpt lat="45.16451" lon="5.9624">
        <ele>2406.01609984</ele>
        <time>2020-07-26T08:10:04.009Z</time>
      </trkpt>
      <trkpt lat="45.16454" lon="5.9625">
        <ele>2406.48390016</ele>
        <time>2020-07-26T08:10:09.009Z</time>
      </trkpt>
      <trkpt lat="45.16458" lon="5.96262">
        <ele>2407.28390016</ele>
        <time>2020-07-26T08:10:17.009Z</time>
      </trkpt>
      <trkpt lat="45.16464" lon="5.96274">
        <ele>2407.43219968</ele>
        <time>2020-07-26T08:10:27.009Z</time>
      </trkpt>
      <trkpt lat="45.1647" lon="5.96286">
        <ele>2406</ele>
        <time>2020-07-26T08:10:35.009Z</time>
      </trkpt>
      <trkpt lat="45.16479" lon="5.96294">
        <ele>2406</ele>
        <time>2020-07-26T08:10:44.009Z</time>
      </trkpt>
      <trkpt lat="45.16486" lon="5.96303">
        <ele>2406.68390016</ele>
        <time>2020-07-26T08:10:51.009Z</time>
      </trkpt>
      <trkpt lat="45.16487" lon="5.96313">
        <ele>2408.15170048</ele>
        <time>2020-07-26T08:10:58.009Z</time>
      </trkpt>
      <trkpt lat="45.1648" lon="5.96321">
        <ele>2410</ele>
        <time>2020-07-26T08:11:07.009Z</time>
      </trkpt>
      <trkpt lat="45.16473" lon="5.96322">
        <ele>2410</ele>
        <time>2020-07-26T08:11:19.009Z</time>
      </trkpt>
      <trkpt lat="45.16484" lon="5.96322">
        <ele>2413.74829952</ele>
        <time>2020-07-26T08:12:15.009Z</time>
      </trkpt>
      <trkpt lat="45.16493" lon="5.96328">
        <ele>2410.81609984</ele>
        <time>2020-07-26T08:12:26.009Z</time>
      </trkpt>
      <trkpt lat="45.16498" lon="5.96342">
        <ele>2409.63219968</ele>
        <time>2020-07-26T08:12:36.009Z</time>
      </trkpt>
      <trkpt lat="45.165" lon="5.96358">
        <ele>2407.83219968</ele>
        <time>2020-07-26T08:12:45.009Z</time>
      </trkpt>
      <trkpt lat="45.16507" lon="5.96368">
        <ele>2405.81609984</ele>
        <time>2020-07-26T08:12:56.009Z</time>
      </trkpt>
      <trkpt lat="45.16513" lon="5.96373">
        <ele>2405.21609984</ele>
        <time>2020-07-26T08:13:02.009Z</time>
      </trkpt>
      <trkpt lat="45.16518" lon="5.96386">
        <ele>2403.83219968</ele>
        <time>2020-07-26T08:13:10.009Z</time>
      </trkpt>
      <trkpt lat="45.16528" lon="5.96392">
        <ele>2402.61609984</ele>
        <time>2020-07-26T08:13:18.009Z</time>
      </trkpt>
      <trkpt lat="45.16536" lon="5.964">
        <ele>2402</ele>
        <time>2020-07-26T08:13:26.009Z</time>
      </trkpt>
      <trkpt lat="45.16537" lon="5.96411">
        <ele>2402</ele>
        <time>2020-07-26T08:13:34.009Z</time>
      </trkpt>
      <trkpt lat="45.16532" lon="5.96422">
        <ele>2402</ele>
        <time>2020-07-26T08:13:42.009Z</time>
      </trkpt>
      <trkpt lat="45.16525" lon="5.96434">
        <ele>2403.16780032</ele>
        <time>2020-07-26T08:13:50.009Z</time>
      </trkpt>
      <trkpt lat="45.16519" lon="5.96444">
        <ele>2404.36780032</ele>
        <time>2020-07-26T08:13:56.009Z</time>
      </trkpt>
      <trkpt lat="45.16519" lon="5.96458">
        <ele>2406</ele>
        <time>2020-07-26T08:14:05.009Z</time>
      </trkpt>
      <trkpt lat="45.16521" lon="5.96473">
        <ele>2406</ele>
        <time>2020-07-26T08:14:14.009Z</time>
      </trkpt>
      <trkpt lat="45.1652" lon="5.96488">
        <ele>2406</ele>
        <time>2020-07-26T08:14:22.009Z</time>
      </trkpt>
      <trkpt lat="45.16518" lon="5.96503">
        <ele>2407.16780032</ele>
        <time>2020-07-26T08:14:30.009Z</time>
      </trkpt>
      <trkpt lat="45.16522" lon="5.96515">
        <ele>2407.88390016</ele>
        <time>2020-07-26T08:15:03.009Z</time>
      </trkpt>
      <trkpt lat="45.16522" lon="5.96529">
        <ele>2408.78390016</ele>
        <time>2020-07-26T08:15:12.009Z</time>
      </trkpt>
      <trkpt lat="45.16526" lon="5.96544">
        <ele>2409.78390016</ele>
        <time>2020-07-26T08:15:22.009Z</time>
      </trkpt>
      <trkpt lat="45.16531" lon="5.96553">
        <ele>2410.78390016</ele>
        <time>2020-07-26T08:15:32.009Z</time>
      </trkpt>
      <trkpt lat="45.16537" lon="5.96565">
        <ele>2411</ele>
        <time>2020-07-26T08:15:42.009Z</time>
      </trkpt>
      <trkpt lat="45.16543" lon="5.96575">
        <ele>2411.58390016</ele>
        <time>2020-07-26T08:15:50.009Z</time>
      </trkpt>
      <trkpt lat="45.16549" lon="5.96586">
        <ele>2412.48390016</ele>
        <time>2020-07-26T08:15:59.009Z</time>
      </trkpt>
      <trkpt lat="45.16552" lon="5.96594">
        <ele>2413.25170048</ele>
        <time>2020-07-26T08:16:05.009Z</time>
      </trkpt>
      <trkpt lat="45.16559" lon="5.96607">
        <ele>2416.18390016</ele>
        <time>2020-07-26T08:16:16.009Z</time>
      </trkpt>
      <trkpt lat="45.16566" lon="5.96614">
        <ele>2416.98390016</ele>
        <time>2020-07-26T08:16:24.009Z</time>
      </trkpt>
      <trkpt lat="45.16573" lon="5.96622">
        <ele>2418.76780032</ele>
        <time>2020-07-26T08:16:33.009Z</time>
      </trkpt>
      <trkpt lat="45.16579" lon="5.96634">
        <ele>2419.68390016</ele>
        <time>2020-07-26T08:16:41.009Z</time>
      </trkpt>
      <trkpt lat="45.16582" lon="5.96648">
        <ele>2420.58390016</ele>
        <time>2020-07-26T08:16:50.009Z</time>
      </trkpt>
      <trkpt lat="45.16583" lon="5.96658">
        <ele>2421.36780032</ele>
        <time>2020-07-26T08:16:56.009Z</time>
      </trkpt>
      <trkpt lat="45.16586" lon="5.96671">
        <ele>2423.08390016</ele>
        <time>2020-07-26T08:17:05.009Z</time>
      </trkpt>
      <trkpt lat="45.16591" lon="5.96681">
        <ele>2423.98390016</ele>
        <time>2020-07-26T08:17:14.009Z</time>
      </trkpt>
      <trkpt lat="45.16598" lon="5.96691">
        <ele>2427</ele>
        <time>2020-07-26T08:17:27.009Z</time>
      </trkpt>
      <trkpt lat="45.16603" lon="5.96704">
        <ele>2427.56780032</ele>
        <time>2020-07-26T08:17:37.009Z</time>
      </trkpt>
      <trkpt lat="45.16609" lon="5.96714">
        <ele>2429.36780032</ele>
        <time>2020-07-26T08:17:46.009Z</time>
      </trkpt>
      <trkpt lat="45.16613" lon="5.96727">
        <ele>2431.36780032</ele>
        <time>2020-07-26T08:17:56.009Z</time>
      </trkpt>
      <trkpt lat="45.16617" lon="5.96737">
        <ele>2432.96780032</ele>
        <time>2020-07-26T08:18:04.009Z</time>
      </trkpt>
      <trkpt lat="45.16621" lon="5.96747">
        <ele>2433.68390016</ele>
        <time>2020-07-26T08:18:11.009Z</time>
      </trkpt>
      <trkpt lat="45.16627" lon="5.96757">
        <ele>2435.16780032</ele>
        <time>2020-07-26T08:18:20.009Z</time>
      </trkpt>
      <trkpt lat="45.16629" lon="5.96768">
        <ele>2436</ele>
        <time>2020-07-26T08:18:27.009Z</time>
      </trkpt>
      <trkpt lat="45.16634" lon="5.96771">
        <ele>2436</ele>
        <time>2020-07-26T08:18:50.009Z</time>
      </trkpt>
      <trkpt lat="45.16631" lon="5.96786">
        <ele>2435.68390016</ele>
        <time>2020-07-26T08:21:01.009Z</time>
      </trkpt>
      <trkpt lat="45.16638" lon="5.96797">
        <ele>2437.36780032</ele>
        <time>2020-07-26T08:21:11.009Z</time>
      </trkpt>
      <trkpt lat="45.16644" lon="5.96808">
        <ele>2438.58390016</ele>
        <time>2020-07-26T08:21:20.009Z</time>
      </trkpt>
      <trkpt lat="45.16644" lon="5.96823">
        <ele>2438.51609984</ele>
        <time>2020-07-26T08:21:29.009Z</time>
      </trkpt>
      <trkpt lat="45.1664" lon="5.96831">
        <ele>2438.0838163705</ele>
        <time>2020-07-26T08:21:35.009Z</time>
      </trkpt>
      <trkpt lat="45.16634" lon="5.96843">
        <ele>2439.76780032</ele>
        <time>2020-07-26T08:22:28.009Z</time>
      </trkpt>
      <trkpt lat="45.16634" lon="5.96858">
        <ele>2443.35170048</ele>
        <time>2020-07-26T08:22:42.009Z</time>
      </trkpt>
      <trkpt lat="45.16631" lon="5.96872">
        <ele>2444.88390016</ele>
        <time>2020-07-26T08:22:53.009Z</time>
      </trkpt>
      <trkpt lat="45.16627" lon="5.96886">
        <ele>2445.88390016</ele>
        <time>2020-07-26T08:23:03.009Z</time>
      </trkpt>
      <trkpt lat="45.16621" lon="5.96898">
        <ele>2448.65170048</ele>
        <time>2020-07-26T08:23:13.009Z</time>
      </trkpt>
      <trkpt lat="45.16619" lon="5.9691">
        <ele>2452.95170048</ele>
        <time>2020-07-26T08:23:34.009Z</time>
      </trkpt>
      <trkpt lat="45.16618" lon="5.96922">
        <ele>2453.88390016</ele>
        <time>2020-07-26T08:23:43.009Z</time>
      </trkpt>
      <trkpt lat="45.16621" lon="5.96935">
        <ele>2454</ele>
        <time>2020-07-26T08:23:54.009Z</time>
      </trkpt>
      <trkpt lat="45.16625" lon="5.96944">
        <ele>2454.98390016</ele>
        <time>2020-07-26T08:24:04.009Z</time>
      </trkpt>
      <trkpt lat="45.16631" lon="5.9695">
        <ele>2458</ele>
        <time>2020-07-26T08:24:17.009Z</time>
      </trkpt>
      <trkpt lat="45.16629" lon="5.96964">
        <ele>2458.76780032</ele>
        <time>2020-07-26T08:24:28.009Z</time>
      </trkpt>
      <trkpt lat="45.16626" lon="5.96976">
        <ele>2460.28390016</ele>
        <time>2020-07-26T08:24:37.009Z</time>
      </trkpt>
      <trkpt lat="45.16626" lon="5.9699">
        <ele>2462.56780032</ele>
        <time>2020-07-26T08:24:52.009Z</time>
      </trkpt>
      <trkpt lat="45.16629" lon="5.97">
        <ele>2464.75170048</ele>
        <time>2020-07-26T08:25:00.009Z</time>
      </trkpt>
      <trkpt lat="45.16632" lon="5.97012">
        <ele>2466.6832171615</ele>
        <time>2020-07-26T08:25:11.009Z</time>
      </trkpt>
      <trkpt lat="45.16626" lon="5.97023">
        <ele>2468.7675679623</ele>
        <time>2020-07-26T08:25:23.009Z</time>
      </trkpt>
      <trkpt lat="45.16629" lon="5.97036">
        <ele>2471.55170048</ele>
        <time>2020-07-26T08:25:36.009Z</time>
      </trkpt>
      <trkpt lat="45.16632" lon="5.97049">
        <ele>2474.76780032</ele>
        <time>2020-07-26T08:25:48.009Z</time>
      </trkpt>
      <trkpt lat="45.16633" lon="5.97057">
        <ele>2476</ele>
        <time>2020-07-26T08:26:02.009Z</time>
      </trkpt>
      <trkpt lat="45.16628" lon="5.9706">
        <ele>2476</ele>
        <time>2020-07-26T08:27:48.009Z</time>
      </trkpt>
      <trkpt lat="45.16634" lon="5.97062">
        <ele>2473</ele>
        <time>2020-07-26T08:28:54.009Z</time>
      </trkpt>
      <trkpt lat="45.16641" lon="5.97058">
        <ele>2474.76780032</ele>
        <time>2020-07-26T08:29:03.009Z</time>
      </trkpt>
      <trkpt lat="45.16641" lon="5.97047">
        <ele>2475</ele>
        <time>2020-07-26T08:29:14.009Z</time>
      </trkpt>
      <trkpt lat="45.1664" lon="5.97043">
        <ele>2478</ele>
        <time>2020-07-26T08:31:21.009Z</time>
      </trkpt>
      <trkpt lat="45.16637" lon="5.97045">
        <ele>2480.9770974268</ele>
        <time>2020-07-26T08:33:23.009Z</time>
      </trkpt>
      <trkpt lat="45.16645" lon="5.97056">
        <ele>2478.7834795858</ele>
        <time>2020-07-26T08:36:40.009Z</time>
      </trkpt>
      <trkpt lat="45.16643" lon="5.97068">
        <ele>2477.31609984</ele>
        <time>2020-07-26T08:36:54.009Z</time>
      </trkpt>
      <trkpt lat="45.16635" lon="5.97075">
        <ele>2475.83219968</ele>
        <time>2020-07-26T08:37:03.009Z</time>
      </trkpt>
      <trkpt lat="45.16629" lon="5.97087">
        <ele>2473.63219968</ele>
        <time>2020-07-26T08:37:14.009Z</time>
      </trkpt>
      <trkpt lat="45.16622" lon="5.97094">
        <ele>2473</ele>
        <time>2020-07-26T08:37:22.009Z</time>
      </trkpt>
      <trkpt lat="45.16615" lon="5.97102">
        <ele>2473.98390016</ele>
        <time>2020-07-26T08:37:37.009Z</time>
      </trkpt>
      <trkpt lat="45.16618" lon="5.97117">
        <ele>2474.25170048</ele>
        <time>2020-07-26T08:37:48.009Z</time>
      </trkpt>
      <trkpt lat="45.16619" lon="5.97127">
        <ele>2476.95170048</ele>
        <time>2020-07-26T08:37:57.009Z</time>
      </trkpt>
      <trkpt lat="45.16622" lon="5.97141">
        <ele>2480.76780032</ele>
        <time>2020-07-26T08:38:11.009Z</time>
      </trkpt>
      <trkpt lat="45.16622" lon="5.97147">
        <ele>2481.96780032</ele>
        <time>2020-07-26T08:38:17.009Z</time>
      </trkpt>
      <trkpt lat="45.16624" lon="5.97153">
        <ele>2482</ele>
        <time>2020-07-26T08:38:21.009Z</time>
      </trkpt>
      <trkpt lat="45.16626" lon="5.97161">
        <ele>2482</ele>
        <time>2020-07-26T08:38:26.009Z</time>
      </trkpt>
      <trkpt lat="45.16627" lon="5.97171">
        <ele>2483.56780032</ele>
        <time>2020-07-26T08:38:35.009Z</time>
      </trkpt>
      <trkpt lat="45.16629" lon="5.97185">
        <ele>2485.88390016</ele>
        <time>2020-07-26T08:38:56.009Z</time>
      </trkpt>
      <trkpt lat="45.16629" lon="5.97193">
        <ele>2487.16780032</ele>
        <time>2020-07-26T08:39:03.009Z</time>
      </trkpt>
      <trkpt lat="45.16628" lon="5.972">
        <ele>2489.13560064</ele>
        <time>2020-07-26T08:39:10.009Z</time>
      </trkpt>
      <trkpt lat="45.16627" lon="5.97204">
        <ele>2490.73560064</ele>
        <time>2020-07-26T08:39:14.009Z</time>
      </trkpt>
      <trkpt lat="45.16625" lon="5.97209">
        <ele>2492.76780032</ele>
        <time>2020-07-26T08:39:21.009Z</time>
      </trkpt>
      <trkpt lat="45.16624" lon="5.97214">
        <ele>2493.96780032</ele>
        <time>2020-07-26T08:39:27.009Z</time>
      </trkpt>
      <trkpt lat="45.16623" lon="5.97219">
        <ele>2494.58390016</ele>
        <time>2020-07-26T08:39:33.009Z</time>
      </trkpt>
      <trkpt lat="45.16621" lon="5.97225">
        <ele>2495.18390016</ele>
        <time>2020-07-26T08:39:39.009Z</time>
      </trkpt>
      <trkpt lat="45.1662" lon="5.97231">
        <ele>2495.78390016</ele>
        <time>2020-07-26T08:39:45.009Z</time>
      </trkpt>
      <trkpt lat="45.1662" lon="5.97236">
        <ele>2495</ele>
        <time>2020-07-26T08:39:59.009Z</time>
      </trkpt>
      <trkpt lat="45.16621" lon="5.97251">
        <ele>2493.23219968</ele>
        <time>2020-07-26T08:40:16.009Z</time>
      </trkpt>
      <trkpt lat="45.16619" lon="5.97266">
        <ele>2492</ele>
        <time>2020-07-26T08:40:30.009Z</time>
      </trkpt>
      <trkpt lat="45.16619" lon="5.97271">
        <ele>2492</ele>
        <time>2020-07-26T08:40:35.009Z</time>
      </trkpt>
      <trkpt lat="45.16615" lon="5.97283">
        <ele>2496.65170048</ele>
        <time>2020-07-26T08:40:56.009Z</time>
      </trkpt>
      <trkpt lat="45.1661" lon="5.97288">
        <ele>2501.33560064</ele>
        <time>2020-07-26T08:41:13.009Z</time>
      </trkpt>
      <trkpt lat="45.16604" lon="5.97299">
        <ele>2509.65170048</ele>
        <time>2020-07-26T08:41:46.009Z</time>
      </trkpt>
      <trkpt lat="45.16602" lon="5.97303">
        <ele>2512.05170048</ele>
        <time>2020-07-26T08:41:54.009Z</time>
      </trkpt>
      <trkpt lat="45.16598" lon="5.97306">
        <ele>2512.98390016</ele>
        <time>2020-07-26T08:42:47.009Z</time>
      </trkpt>
      <trkpt lat="45.16591" lon="5.97312">
        <ele>2521.2168837081</ele>
        <time>2020-07-26T08:44:05.009Z</time>
      </trkpt>
      <trkpt lat="45.16583" lon="5.97319">
        <ele>2526.55170048</ele>
        <time>2020-07-26T08:45:19.009Z</time>
      </trkpt>
      <trkpt lat="45.16577" lon="5.97318">
        <ele>2529</ele>
        <time>2020-07-26T08:45:35.009Z</time>
      </trkpt>
      <trkpt lat="45.16571" lon="5.97318">
        <ele>2529</ele>
        <time>2020-07-26T08:45:53.009Z</time>
      </trkpt>
      <trkpt lat="45.16563" lon="5.9731">
        <ele>2534.23219968</ele>
        <time>2020-07-26T08:47:36.009Z</time>
      </trkpt>
      <trkpt lat="45.16553" lon="5.97306">
        <ele>2535.08390016</ele>
        <time>2020-07-26T08:47:48.009Z</time>
      </trkpt>
      <trkpt lat="45.16543" lon="5.97311">
        <ele>2536.76780032</ele>
        <time>2020-07-26T08:48:01.009Z</time>
      </trkpt>
      <trkpt lat="45.16533" lon="5.97313">
        <ele>2540.95170048</ele>
        <time>2020-07-26T08:48:17.009Z</time>
      </trkpt>
      <trkpt lat="45.16523" lon="5.97311">
        <ele>2542.36780032</ele>
        <time>2020-07-26T08:48:44.009Z</time>
      </trkpt>
      <trkpt lat="45.16513" lon="5.97307">
        <ele>2544.38390016</ele>
        <time>2020-07-26T08:49:01.009Z</time>
      </trkpt>
      <trkpt lat="45.16504" lon="5.97301">
        <ele>2546</ele>
        <time>2020-07-26T08:49:30.009Z</time>
      </trkpt>
      <trkpt lat="45.16501" lon="5.97287">
        <ele>2549.9195008</ele>
        <time>2020-07-26T08:50:05.009Z</time>
      </trkpt>
      <trkpt lat="45.16502" lon="5.97273">
        <ele>2556.16780032</ele>
        <time>2020-07-26T08:50:18.009Z</time>
      </trkpt>
      <trkpt lat="45.16496" lon="5.97261">
        <ele>2560.56780032</ele>
        <time>2020-07-26T08:50:45.009Z</time>
      </trkpt>
      <trkpt lat="45.16491" lon="5.97251">
        <ele>2564.58390016</ele>
        <time>2020-07-26T08:51:03.009Z</time>
      </trkpt>
      <trkpt lat="45.16481" lon="5.97255">
        <ele>2572.33560064</ele>
        <time>2020-07-26T08:52:28.009Z</time>
      </trkpt>
      <trkpt lat="45.16476" lon="5.97267">
        <ele>2578.95170048</ele>
        <time>2020-07-26T08:52:47.009Z</time>
      </trkpt>
      <trkpt lat="45.16471" lon="5.97277">
        <ele>2581.16780032</ele>
        <time>2020-07-26T08:53:13.009Z</time>
      </trkpt>
      <trkpt lat="45.16463" lon="5.97286">
        <ele>2583.766032592</ele>
        <time>2020-07-26T08:53:26.009Z</time>
      </trkpt>
      <trkpt lat="45.16463" lon="5.97298">
        <ele>2585.5673672719</ele>
        <time>2020-07-26T08:53:35.009Z</time>
      </trkpt>
      <trkpt lat="45.16464" lon="5.97308">
        <ele>2586.96780032</ele>
        <time>2020-07-26T08:53:42.009Z</time>
      </trkpt>
      <trkpt lat="45.16467" lon="5.97316">
        <ele>2587.81609984</ele>
        <time>2020-07-26T08:53:49.009Z</time>
      </trkpt>
      <trkpt lat="45.16464" lon="5.97329">
        <ele>2588</ele>
        <time>2020-07-26T08:54:10.009Z</time>
      </trkpt>
      <trkpt lat="45.16463" lon="5.9734">
        <ele>2588.96780032</ele>
        <time>2020-07-26T08:54:22.009Z</time>
      </trkpt>
      <trkpt lat="45.16469" lon="5.97351">
        <ele>2590.96780032</ele>
        <time>2020-07-26T08:54:52.009Z</time>
      </trkpt>
      <trkpt lat="45.16478" lon="5.97359">
        <ele>2594.08390016</ele>
        <time>2020-07-26T08:55:08.009Z</time>
      </trkpt>
      <trkpt lat="45.16479" lon="5.97369">
        <ele>2594.88390016</ele>
        <time>2020-07-26T08:55:16.009Z</time>
      </trkpt>
      <trkpt lat="45.16478" lon="5.97383">
        <ele>2596.56780032</ele>
        <time>2020-07-26T08:55:30.009Z</time>
      </trkpt>
      <trkpt lat="45.16477" lon="5.97397">
        <ele>2604.15170048</ele>
        <time>2020-07-26T08:56:01.009Z</time>
      </trkpt>
      <trkpt lat="45.16485" lon="5.97407">
        <ele>2606.48390016</ele>
        <time>2020-07-26T08:56:12.009Z</time>
      </trkpt>
      <trkpt lat="45.16493" lon="5.97416">
        <ele>2608.76780032</ele>
        <time>2020-07-26T08:56:26.009Z</time>
      </trkpt>
      <trkpt lat="45.16497" lon="5.97422">
        <ele>2610.45170048</ele>
        <time>2020-07-26T08:56:32.009Z</time>
      </trkpt>
      <trkpt lat="45.16491" lon="5.97422">
        <ele>2612</ele>
        <time>2020-07-26T08:56:40.009Z</time>
      </trkpt>
      <trkpt lat="45.16488" lon="5.97436">
        <ele>2613.96780032</ele>
        <time>2020-07-26T08:57:07.009Z</time>
      </trkpt>
      <trkpt lat="45.16487" lon="5.9745">
        <ele>2617.75170048</ele>
        <time>2020-07-26T08:57:23.009Z</time>
      </trkpt>
      <trkpt lat="45.1649" lon="5.97464">
        <ele>2620.75170048</ele>
        <time>2020-07-26T08:57:33.009Z</time>
      </trkpt>
      <trkpt lat="45.16487" lon="5.97472">
        <ele>2622.96780032</ele>
        <time>2020-07-26T08:57:42.009Z</time>
      </trkpt>
      <trkpt lat="45.1649" lon="5.97482">
        <ele>2624.58390016</ele>
        <time>2020-07-26T08:57:53.009Z</time>
      </trkpt>
      <trkpt lat="45.16489" lon="5.9749">
        <ele>2624.21609984</ele>
        <time>2020-07-26T08:58:05.009Z</time>
      </trkpt>
      <trkpt lat="45.16495" lon="5.97503">
        <ele>2626.28390016</ele>
        <time>2020-07-26T08:58:40.009Z</time>
      </trkpt>
      <trkpt lat="45.165" lon="5.97515">
        <ele>2628.36780032</ele>
        <time>2020-07-26T08:58:54.009Z</time>
      </trkpt>
      <trkpt lat="45.16507" lon="5.97522">
        <ele>2630.56780032</ele>
        <time>2020-07-26T08:59:05.009Z</time>
      </trkpt>
      <trkpt lat="45.16517" lon="5.97521">
        <ele>2637.73560064</ele>
        <time>2020-07-26T08:59:24.009Z</time>
      </trkpt>
      <trkpt lat="45.16522" lon="5.97528">
        <ele>2640.76780032</ele>
        <time>2020-07-26T08:59:36.009Z</time>
      </trkpt>
      <trkpt lat="45.16526" lon="5.97534">
        <ele>2642.56780032</ele>
        <time>2020-07-26T08:59:45.009Z</time>
      </trkpt>
      <trkpt lat="45.16529" lon="5.97539">
        <ele>2645.05170048</ele>
        <time>2020-07-26T08:59:54.009Z</time>
      </trkpt>
      <trkpt lat="45.16534" lon="5.97534">
        <ele>2646.98390016</ele>
        <time>2020-07-26T09:00:07.009Z</time>
      </trkpt>
      <trkpt lat="45.16542" lon="5.97523">
        <ele>2647.03219968</ele>
        <time>2020-07-26T09:00:47.009Z</time>
      </trkpt>
      <trkpt lat="45.16533" lon="5.9753">
        <ele>2646.68390016</ele>
        <time>2020-07-26T09:02:44.009Z</time>
      </trkpt>
      <trkpt lat="45.16533" lon="5.97544">
        <ele>2646.41609984</ele>
        <time>2020-07-26T09:03:03.009Z</time>
      </trkpt>
      <trkpt lat="45.16535" lon="5.97555">
        <ele>2647.16780032</ele>
        <time>2020-07-26T09:03:13.009Z</time>
      </trkpt>
      <trkpt lat="45.1654" lon="5.97565">
        <ele>2648.88390016</ele>
        <time>2020-07-26T09:03:26.009Z</time>
      </trkpt>
      <trkpt lat="45.16543" lon="5.97574">
        <ele>2650.56780032</ele>
        <time>2020-07-26T09:03:35.009Z</time>
      </trkpt>
      <trkpt lat="45.16547" lon="5.97587">
        <ele>2653.56780032</ele>
        <time>2020-07-26T09:03:50.009Z</time>
      </trkpt>
      <trkpt lat="45.16548" lon="5.976">
        <ele>2657.95170048</ele>
        <time>2020-07-26T09:04:07.009Z</time>
      </trkpt>
      <trkpt lat="45.16548" lon="5.97609">
        <ele>2658.98390016</ele>
        <time>2020-07-26T09:04:17.009Z</time>
      </trkpt>
      <trkpt lat="45.16549" lon="5.97616">
        <ele>2662</ele>
        <time>2020-07-26T09:04:33.009Z</time>
      </trkpt>
      <trkpt lat="45.16548" lon="5.97622">
        <ele>2664.05170048</ele>
        <time>2020-07-26T09:04:44.009Z</time>
      </trkpt>
      <trkpt lat="45.16548" lon="5.97626">
        <ele>2665.16780032</ele>
        <time>2020-07-26T09:04:48.009Z</time>
      </trkpt>
      <trkpt lat="45.16548" lon="5.9763">
        <ele>2665.76780032</ele>
        <time>2020-07-26T09:04:51.009Z</time>
      </trkpt>
      <trkpt lat="45.16547" lon="5.97633">
        <ele>2666.36780032</ele>
        <time>2020-07-26T09:04:54.009Z</time>
      </trkpt>
      <trkpt lat="45.1654" lon="5.97641">
        <ele>2668</ele>
        <time>2020-07-26T09:05:08.009Z</time>
      </trkpt>
      <trkpt lat="45.16538" lon="5.97651">
        <ele>2672.5351353291</ele>
        <time>2020-07-26T09:05:36.009Z</time>
      </trkpt>
      <trkpt lat="45.16542" lon="5.97665">
        <ele>2679.36780032</ele>
        <time>2020-07-26T09:05:54.009Z</time>
      </trkpt>
      <trkpt lat="45.16544" lon="5.97673">
        <ele>2681.16780032</ele>
        <time>2020-07-26T09:06:03.009Z</time>
      </trkpt>
      <trkpt lat="45.16546" lon="5.97679">
        <ele>2682.38390016</ele>
        <time>2020-07-26T09:06:11.009Z</time>
      </trkpt>
      <trkpt lat="45.16547" lon="5.97683">
        <ele>2682.88390016</ele>
        <time>2020-07-26T09:06:16.009Z</time>
      </trkpt>
      <trkpt lat="45.16549" lon="5.97686">
        <ele>2683.96780032</ele>
        <time>2020-07-26T09:06:22.009Z</time>
      </trkpt>
      <trkpt lat="45.16549" lon="5.97691">
        <ele>2685.85170048</ele>
        <time>2020-07-26T09:06:30.009Z</time>
      </trkpt>
      <trkpt lat="45.1655" lon="5.97695">
        <ele>2687.35170048</ele>
        <time>2020-07-26T09:06:35.009Z</time>
      </trkpt>
      <trkpt lat="45.16551" lon="5.97699">
        <ele>2689.93560064</ele>
        <time>2020-07-26T09:06:42.009Z</time>
      </trkpt>
      <trkpt lat="45.1655" lon="5.97703">
        <ele>2692.08390016</ele>
        <time>2020-07-26T09:06:48.009Z</time>
      </trkpt>
      <trkpt lat="45.16549" lon="5.97706">
        <ele>2692.58390016</ele>
        <time>2020-07-26T09:06:53.009Z</time>
      </trkpt>
      <trkpt lat="45.16547" lon="5.97706">
        <ele>2693</ele>
        <time>2020-07-26T09:07:12.009Z</time>
      </trkpt>
      <trkpt lat="45.16549" lon="5.97714">
        <ele>2693</ele>
        <time>2020-07-26T09:09:27.009Z</time>
      </trkpt>
      <trkpt lat="45.16551" lon="5.97722">
        <ele>2694.36780032</ele>
        <time>2020-07-26T09:09:34.009Z</time>
      </trkpt>
      <trkpt lat="45.16552" lon="5.97727">
        <ele>2694.96780032</ele>
        <time>2020-07-26T09:09:37.009Z</time>
      </trkpt>
      <trkpt lat="45.16552" lon="5.97732">
        <ele>2695.76780032</ele>
        <time>2020-07-26T09:09:41.009Z</time>
      </trkpt>
      <trkpt lat="45.16552" lon="5.97736">
        <ele>2696.76780032</ele>
        <time>2020-07-26T09:09:46.009Z</time>
      </trkpt>
      <trkpt lat="45.16552" lon="5.97741">
        <ele>2697.76780032</ele>
        <time>2020-07-26T09:09:51.009Z</time>
      </trkpt>
      <trkpt lat="45.16554" lon="5.97745">
        <ele>2698.56780032</ele>
        <time>2020-07-26T09:09:55.009Z</time>
      </trkpt>
      <trkpt lat="45.16556" lon="5.97752">
        <ele>2699.96780032</ele>
        <time>2020-07-26T09:10:02.009Z</time>
      </trkpt>
      <trkpt lat="45.16555" lon="5.97761">
        <ele>2701.55170048</ele>
        <time>2020-07-26T09:10:09.009Z</time>
      </trkpt>
      <trkpt lat="45.16555" lon="5.97767">
        <ele>2703.35170048</ele>
        <time>2020-07-26T09:10:15.009Z</time>
      </trkpt>
      <trkpt lat="45.16556" lon="5.97774">
        <ele>2705.15170048</ele>
        <time>2020-07-26T09:10:21.009Z</time>
      </trkpt>
      <trkpt lat="45.16556" lon="5.9778">
        <ele>2706.95170048</ele>
        <time>2020-07-26T09:10:27.009Z</time>
      </trkpt>
      <trkpt lat="45.16556" lon="5.97786">
        <ele>2708.75170048</ele>
        <time>2020-07-26T09:10:33.009Z</time>
      </trkpt>
      <trkpt lat="45.16556" lon="5.97793">
        <ele>2710.55170048</ele>
        <time>2020-07-26T09:10:39.009Z</time>
      </trkpt>
      <trkpt lat="45.16557" lon="5.978">
        <ele>2713.08390016</ele>
        <time>2020-07-26T09:10:48.009Z</time>
      </trkpt>
      <trkpt lat="45.16557" lon="5.97804">
        <ele>2713.58390016</ele>
        <time>2020-07-26T09:10:53.009Z</time>
      </trkpt>
      <trkpt lat="45.16556" lon="5.97809">
        <ele>2714.16780032</ele>
        <time>2020-07-26T09:10:58.009Z</time>
      </trkpt>
      <trkpt lat="45.16556" lon="5.97814">
        <ele>2715.16780032</ele>
        <time>2020-07-26T09:11:03.009Z</time>
      </trkpt>
      <trkpt lat="45.16556" lon="5.97821">
        <ele>2716.36780032</ele>
        <time>2020-07-26T09:11:09.009Z</time>
      </trkpt>
      <trkpt lat="45.16555" lon="5.97827">
        <ele>2717.76780032</ele>
        <time>2020-07-26T09:11:16.009Z</time>
      </trkpt>
      <trkpt lat="45.16555" lon="5.97834">
        <ele>2718.48390016</ele>
        <time>2020-07-26T09:11:22.009Z</time>
      </trkpt>
      <trkpt lat="45.16555" lon="5.97841">
        <ele>2719.08390016</ele>
        <time>2020-07-26T09:11:28.009Z</time>
      </trkpt>
      <trkpt lat="45.16555" lon="5.97846">
        <ele>2719.58390016</ele>
        <time>2020-07-26T09:11:33.009Z</time>
      </trkpt>
      <trkpt lat="45.16554" lon="5.97855">
        <ele>2721.16780032</ele>
        <time>2020-07-26T09:11:58.009Z</time>
      </trkpt>
      <trkpt lat="45.16553" lon="5.97864">
        <ele>2722.36780032</ele>
        <time>2020-07-26T09:12:04.009Z</time>
      </trkpt>
      <trkpt lat="45.16553" lon="5.97873">
        <ele>2723</ele>
        <time>2020-07-26T09:12:10.009Z</time>
      </trkpt>
      <trkpt lat="45.16554" lon="5.97883">
        <ele>2723</ele>
        <time>2020-07-26T09:12:16.009Z</time>
      </trkpt>
      <trkpt lat="45.16553" lon="5.97893">
        <ele>2724.16780032</ele>
        <time>2020-07-26T09:12:23.009Z</time>
      </trkpt>
      <trkpt lat="45.16551" lon="5.97901">
        <ele>2725.18390016</ele>
        <time>2020-07-26T09:12:29.009Z</time>
      </trkpt>
      <trkpt lat="45.1655" lon="5.97911">
        <ele>2725.78390016</ele>
        <time>2020-07-26T09:12:35.009Z</time>
      </trkpt>
      <trkpt lat="45.1655" lon="5.9792">
        <ele>2726.48390016</ele>
        <time>2020-07-26T09:12:42.009Z</time>
      </trkpt>
      <trkpt lat="45.16549" lon="5.97928">
        <ele>2726.98390016</ele>
        <time>2020-07-26T09:12:47.009Z</time>
      </trkpt>
      <trkpt lat="45.16548" lon="5.97937">
        <ele>2729.33560064</ele>
        <time>2020-07-26T09:12:53.009Z</time>
      </trkpt>
      <trkpt lat="45.16546" lon="5.97944">
        <ele>2731</ele>
        <time>2020-07-26T09:12:59.009Z</time>
      </trkpt>
      <trkpt lat="45.16546" lon="5.9795">
        <ele>2731</ele>
        <time>2020-07-26T09:13:05.009Z</time>
      </trkpt>
      <trkpt lat="45.16545" lon="5.97957">
        <ele>2730.71609984</ele>
        <time>2020-07-26T09:13:10.009Z</time>
      </trkpt>
      <trkpt lat="45.16544" lon="5.97966">
        <ele>2730.11609984</ele>
        <time>2020-07-26T09:13:16.009Z</time>
      </trkpt>
      <trkpt lat="45.16543" lon="5.97974">
        <ele>2729.51609984</ele>
        <time>2020-07-26T09:13:22.009Z</time>
      </trkpt>
      <trkpt lat="45.16542" lon="5.97983">
        <ele>2729.01609984</ele>
        <time>2020-07-26T09:13:27.009Z</time>
      </trkpt>
      <trkpt lat="45.16541" lon="5.9799">
        <ele>2728.51609984</ele>
        <time>2020-07-26T09:13:32.009Z</time>
      </trkpt>
      <trkpt lat="45.16539" lon="5.98">
        <ele>2728.08390016</ele>
        <time>2020-07-26T09:13:38.009Z</time>
      </trkpt>
      <trkpt lat="45.16539" lon="5.98008">
        <ele>2728.68390016</ele>
        <time>2020-07-26T09:13:44.009Z</time>
      </trkpt>
      <trkpt lat="45.16538" lon="5.98014">
        <ele>2729.08390016</ele>
        <time>2020-07-26T09:13:48.009Z</time>
      </trkpt>
      <trkpt lat="45.16537" lon="5.9802">
        <ele>2729.58390016</ele>
        <time>2020-07-26T09:13:53.009Z</time>
      </trkpt>
      <trkpt lat="45.16537" lon="5.98031">
        <ele>2730.48390016</ele>
        <time>2020-07-26T09:14:02.009Z</time>
      </trkpt>
      <trkpt lat="45.16536" lon="5.9804">
        <ele>2731.55170048</ele>
        <time>2020-07-26T09:14:09.009Z</time>
      </trkpt>
      <trkpt lat="45.16535" lon="5.98044">
        <ele>2732.75170048</ele>
        <time>2020-07-26T09:14:13.009Z</time>
      </trkpt>
      <trkpt lat="45.16533" lon="5.98049">
        <ele>2734.18390016</ele>
        <time>2020-07-26T09:14:19.009Z</time>
      </trkpt>
      <trkpt lat="45.16533" lon="5.98052">
        <ele>2734.48390016</ele>
        <time>2020-07-26T09:14:22.009Z</time>
      </trkpt>
      <trkpt lat="45.16532" lon="5.98056">
        <ele>2734.88390016</ele>
        <time>2020-07-26T09:14:26.009Z</time>
      </trkpt>
      <trkpt lat="45.16532" lon="5.98062">
        <ele>2736.45170048</ele>
        <time>2020-07-26T09:14:32.009Z</time>
      </trkpt>
      <trkpt lat="45.16531" lon="5.98065">
        <ele>2737.65170048</ele>
        <time>2020-07-26T09:14:36.009Z</time>
      </trkpt>
      <trkpt lat="45.16531" lon="5.98073">
        <ele>2739.76780032</ele>
        <time>2020-07-26T09:14:46.009Z</time>
      </trkpt>
      <trkpt lat="45.16531" lon="5.98077">
        <ele>2740.28390016</ele>
        <time>2020-07-26T09:14:50.009Z</time>
      </trkpt>
      <trkpt lat="45.1653" lon="5.98081">
        <ele>2740.78390016</ele>
        <time>2020-07-26T09:14:55.009Z</time>
      </trkpt>
      <trkpt lat="45.1653" lon="5.98085">
        <ele>2741.28390016</ele>
        <time>2020-07-26T09:15:00.009Z</time>
      </trkpt>
      <trkpt lat="45.16529" lon="5.98088">
        <ele>2741.68390016</ele>
        <time>2020-07-26T09:15:04.009Z</time>
      </trkpt>
      <trkpt lat="45.16528" lon="5.98091">
        <ele>2742</ele>
        <time>2020-07-26T09:15:08.009Z</time>
      </trkpt>
      <trkpt lat="45.16528" lon="5.98094">
        <ele>2742</ele>
        <time>2020-07-26T09:15:12.009Z</time>
      </trkpt>
      <trkpt lat="45.16527" lon="5.98097">
        <ele>2742</ele>
        <time>2020-07-26T09:15:16.009Z</time>
      </trkpt>
      <trkpt lat="45.16526" lon="5.981">
        <ele>2742.96780032</ele>
        <time>2020-07-26T09:15:22.009Z</time>
      </trkpt>
      <trkpt lat="45.16525" lon="5.98105">
        <ele>2745.15170048</ele>
        <time>2020-07-26T09:15:31.009Z</time>
      </trkpt>
      <trkpt lat="45.16524" lon="5.98109">
        <ele>2747.16780032</ele>
        <time>2020-07-26T09:15:38.009Z</time>
      </trkpt>
      <trkpt lat="45.16524" lon="5.98113">
        <ele>2748.36780032</ele>
        <time>2020-07-26T09:15:44.009Z</time>
      </trkpt>
      <trkpt lat="45.16522" lon="5.98117">
        <ele>2749.48390016</ele>
        <time>2020-07-26T09:15:52.009Z</time>
      </trkpt>
      <trkpt lat="45.16521" lon="5.9812">
        <ele>2750</ele>
        <time>2020-07-26T09:15:58.009Z</time>
      </trkpt>
      <trkpt lat="45.16522" lon="5.98124">
        <ele>2750.85170048</ele>
        <time>2020-07-26T09:16:10.009Z</time>
      </trkpt>
      <trkpt lat="45.16522" lon="5.98128">
        <ele>2752.35170048</ele>
        <time>2020-07-26T09:16:15.009Z</time>
      </trkpt>
      <trkpt lat="45.16522" lon="5.9813">
        <ele>2753.18390016</ele>
        <time>2020-07-26T09:16:19.009Z</time>
      </trkpt>
      <trkpt lat="45.16523" lon="5.98138">
        <ele>2754.38390016</ele>
        <time>2020-07-26T09:16:31.009Z</time>
      </trkpt>
      <trkpt lat="45.16524" lon="5.98142">
        <ele>2754.98390016</ele>
        <time>2020-07-26T09:16:37.009Z</time>
      </trkpt>
      <trkpt lat="45.1653" lon="5.98154">
        <ele>2757.56780032</ele>
        <time>2020-07-26T09:16:55.009Z</time>
      </trkpt>
      <trkpt lat="45.16532" lon="5.98159">
        <ele>2758.58390016</ele>
        <time>2020-07-26T09:17:03.009Z</time>
      </trkpt>
      <trkpt lat="45.16538" lon="5.98171">
        <ele>2762.88390016</ele>
        <time>2020-07-26T09:17:56.009Z</time>
      </trkpt>
      <trkpt lat="45.16542" lon="5.98177">
        <ele>2763.48390016</ele>
        <time>2020-07-26T09:18:02.009Z</time>
      </trkpt>
      <trkpt lat="45.16544" lon="5.98184">
        <ele>2763.98390016</ele>
        <time>2020-07-26T09:18:07.009Z</time>
      </trkpt>
      <trkpt lat="45.16545" lon="5.98192">
        <ele>2763.41609984</ele>
        <time>2020-07-26T09:18:23.009Z</time>
      </trkpt>
      <trkpt lat="45.16549" lon="5.98197">
        <ele>2763.08390016</ele>
        <time>2020-07-26T09:18:28.009Z</time>
      </trkpt>
      <trkpt lat="45.16552" lon="5.98203">
        <ele>2763.48390016</ele>
        <time>2020-07-26T09:18:32.009Z</time>
      </trkpt>
      <trkpt lat="45.16554" lon="5.98212">
        <ele>2763.98390016</ele>
        <time>2020-07-26T09:18:37.009Z</time>
      </trkpt>
      <trkpt lat="45.16556" lon="5.98219">
        <ele>2764.58390016</ele>
        <time>2020-07-26T09:18:43.009Z</time>
      </trkpt>
      <trkpt lat="45.16558" lon="5.98226">
        <ele>2765.36780032</ele>
        <time>2020-07-26T09:18:49.009Z</time>
      </trkpt>
      <trkpt lat="45.16562" lon="5.98232">
        <ele>2766.56780032</ele>
        <time>2020-07-26T09:18:55.009Z</time>
      </trkpt>
      <trkpt lat="45.16564" lon="5.98238">
        <ele>2767.85170048</ele>
        <time>2020-07-26T09:19:00.009Z</time>
      </trkpt>
      <trkpt lat="45.16566" lon="5.98242">
        <ele>2769.35170048</ele>
        <time>2020-07-26T09:19:05.009Z</time>
      </trkpt>
      <trkpt lat="45.16569" lon="5.98249">
        <ele>2770.68390016</ele>
        <time>2020-07-26T09:19:14.009Z</time>
      </trkpt>
      <trkpt lat="45.16573" lon="5.98253">
        <ele>2772.15170048</ele>
        <time>2020-07-26T09:19:21.009Z</time>
      </trkpt>
      <trkpt lat="45.16577" lon="5.98258">
        <ele>2774.55170048</ele>
        <time>2020-07-26T09:19:29.009Z</time>
      </trkpt>
      <trkpt lat="45.16582" lon="5.9826">
        <ele>2777.56780032</ele>
        <time>2020-07-26T09:19:40.009Z</time>
      </trkpt>
      <trkpt lat="45.16585" lon="5.98266">
        <ele>2778.76780032</ele>
        <time>2020-07-26T09:19:46.009Z</time>
      </trkpt>
      <trkpt lat="45.16585" lon="5.98274">
        <ele>2779</ele>
        <time>2020-07-26T09:19:52.009Z</time>
      </trkpt>
      <trkpt lat="45.16586" lon="5.98281">
        <ele>2779</ele>
        <time>2020-07-26T09:19:58.009Z</time>
      </trkpt>
      <trkpt lat="45.16589" lon="5.98288">
        <ele>2779</ele>
        <time>2020-07-26T09:20:05.009Z</time>
      </trkpt>
      <trkpt lat="45.16592" lon="5.98293">
        <ele>2779</ele>
        <time>2020-07-26T09:20:10.009Z</time>
      </trkpt>
      <trkpt lat="45.16595" lon="5.983">
        <ele>2779</ele>
        <time>2020-07-26T09:20:15.009Z</time>
      </trkpt>
      <trkpt lat="45.16597" lon="5.98307">
        <ele>2779.28390016</ele>
        <time>2020-07-26T09:20:20.009Z</time>
      </trkpt>
      <trkpt lat="45.16598" lon="5.98313">
        <ele>2779.78390016</ele>
        <time>2020-07-26T09:20:25.009Z</time>
      </trkpt>
      <trkpt lat="45.16601" lon="5.98322">
        <ele>2780</ele>
        <time>2020-07-26T09:20:32.009Z</time>
      </trkpt>
      <trkpt lat="45.16605" lon="5.98333">
        <ele>2780.58390016</ele>
        <time>2020-07-26T09:20:43.009Z</time>
      </trkpt>
      <trkpt lat="45.16607" lon="5.98338">
        <ele>2781.08390016</ele>
        <time>2020-07-26T09:20:48.009Z</time>
      </trkpt>
      <trkpt lat="45.16609" lon="5.98343">
        <ele>2781.58390016</ele>
        <time>2020-07-26T09:20:53.009Z</time>
      </trkpt>
      <trkpt lat="45.16609" lon="5.9835">
        <ele>2782.08390016</ele>
        <time>2020-07-26T09:20:58.009Z</time>
      </trkpt>
      <trkpt lat="45.16608" lon="5.98356">
        <ele>2782.58390016</ele>
        <time>2020-07-26T09:21:03.009Z</time>
      </trkpt>
      <trkpt lat="45.16607" lon="5.98361">
        <ele>2783.16780032</ele>
        <time>2020-07-26T09:21:08.009Z</time>
      </trkpt>
      <trkpt lat="45.16606" lon="5.98368">
        <ele>2784.56780032</ele>
        <time>2020-07-26T09:21:15.009Z</time>
      </trkpt>
      <trkpt lat="45.16606" lon="5.98375">
        <ele>2785</ele>
        <time>2020-07-26T09:21:22.009Z</time>
      </trkpt>
      <trkpt lat="45.16606" lon="5.98385">
        <ele>2785.38390016</ele>
        <time>2020-07-26T09:21:41.009Z</time>
      </trkpt>
      <trkpt lat="45.16605" lon="5.98395">
        <ele>2786.08390016</ele>
        <time>2020-07-26T09:21:48.009Z</time>
      </trkpt>
      <trkpt lat="45.16604" lon="5.98401">
        <ele>2786.48390016</ele>
        <time>2020-07-26T09:21:52.009Z</time>
      </trkpt>
      <trkpt lat="45.16603" lon="5.98409">
        <ele>2786.98390016</ele>
        <time>2020-07-26T09:21:57.009Z</time>
      </trkpt>
      <trkpt lat="45.16605" lon="5.98416">
        <ele>2787.68390016</ele>
        <time>2020-07-26T09:22:04.009Z</time>
      </trkpt>
      <trkpt lat="45.16606" lon="5.98422">
        <ele>2787.81609984</ele>
        <time>2020-07-26T09:22:09.009Z</time>
      </trkpt>
      <trkpt lat="45.16608" lon="5.98429">
        <ele>2787.21609984</ele>
        <time>2020-07-26T09:22:15.009Z</time>
      </trkpt>
      <trkpt lat="45.16609" lon="5.98435">
        <ele>2787.28390016</ele>
        <time>2020-07-26T09:22:20.009Z</time>
      </trkpt>
      <trkpt lat="45.16609" lon="5.98441">
        <ele>2787.78390016</ele>
        <time>2020-07-26T09:22:25.009Z</time>
      </trkpt>
      <trkpt lat="45.16609" lon="5.98447">
        <ele>2788.28390016</ele>
        <time>2020-07-26T09:22:30.009Z</time>
      </trkpt>
      <trkpt lat="45.16609" lon="5.98452">
        <ele>2788.78390016</ele>
        <time>2020-07-26T09:22:35.009Z</time>
      </trkpt>
      <trkpt lat="45.16611" lon="5.98458">
        <ele>2790.75170048</ele>
        <time>2020-07-26T09:22:43.009Z</time>
      </trkpt>
      <trkpt lat="45.16612" lon="5.98464">
        <ele>2792.73560064</ele>
        <time>2020-07-26T09:22:49.009Z</time>
      </trkpt>
      <trkpt lat="45.16612" lon="5.9847">
        <ele>2795.13560064</ele>
        <time>2020-07-26T09:22:55.009Z</time>
      </trkpt>
      <trkpt lat="45.16614" lon="5.98475">
        <ele>2796.96780032</ele>
        <time>2020-07-26T09:23:02.009Z</time>
      </trkpt>
      <trkpt lat="45.16617" lon="5.98479">
        <ele>2798.08390016</ele>
        <time>2020-07-26T09:23:08.009Z</time>
      </trkpt>
      <trkpt lat="45.16617" lon="5.98485">
        <ele>2798.58390016</ele>
        <time>2020-07-26T09:23:13.009Z</time>
      </trkpt>
      <trkpt lat="45.16617" lon="5.9849">
        <ele>2799.08390016</ele>
        <time>2020-07-26T09:23:18.009Z</time>
      </trkpt>
      <trkpt lat="45.1662" lon="5.98494">
        <ele>2799.78390016</ele>
        <time>2020-07-26T09:23:25.009Z</time>
      </trkpt>
      <trkpt lat="45.16621" lon="5.98501">
        <ele>2800.58390016</ele>
        <time>2020-07-26T09:23:33.009Z</time>
      </trkpt>
      <trkpt lat="45.16622" lon="5.98507">
        <ele>2801.96780032</ele>
        <time>2020-07-26T09:23:42.009Z</time>
      </trkpt>
      <trkpt lat="45.16625" lon="5.9851">
        <ele>2803.85170048</ele>
        <time>2020-07-26T09:23:50.009Z</time>
      </trkpt>
      <trkpt lat="45.16627" lon="5.98515">
        <ele>2806.16780032</ele>
        <time>2020-07-26T09:23:58.009Z</time>
      </trkpt>
      <trkpt lat="45.16627" lon="5.98522">
        <ele>2807.76780032</ele>
        <time>2020-07-26T09:24:06.009Z</time>
      </trkpt>
      <trkpt lat="45.16627" lon="5.98525">
        <ele>2808.76780032</ele>
        <time>2020-07-26T09:24:11.009Z</time>
      </trkpt>
      <trkpt lat="45.16627" lon="5.9853">
        <ele>2809.56780032</ele>
        <time>2020-07-26T09:24:15.009Z</time>
      </trkpt>
      <trkpt lat="45.16627" lon="5.98536">
        <ele>2810.38390016</ele>
        <time>2020-07-26T09:24:21.009Z</time>
      </trkpt>
      <trkpt lat="45.1663" lon="5.98539">
        <ele>2811</ele>
        <time>2020-07-26T09:24:35.009Z</time>
      </trkpt>
      <trkpt lat="45.16632" lon="5.98542">
        <ele>2811.85170048</ele>
        <time>2020-07-26T09:24:40.009Z</time>
      </trkpt>
      <trkpt lat="45.16635" lon="5.98545">
        <ele>2813.65170048</ele>
        <time>2020-07-26T09:24:46.009Z</time>
      </trkpt>
      <trkpt lat="45.16638" lon="5.9855">
        <ele>2815.1666325675</ele>
        <time>2020-07-26T09:24:53.009Z</time>
      </trkpt>
      <trkpt lat="45.16637" lon="5.98554">
        <ele>2815.9658326002</ele>
        <time>2020-07-26T09:24:57.009Z</time>
      </trkpt>
      <trkpt lat="45.16636" lon="5.98561">
        <ele>2816.783683636</ele>
        <time>2020-07-26T09:25:05.009Z</time>
      </trkpt>
      <trkpt lat="45.16635" lon="5.98573">
        <ele>2819.45170048</ele>
        <time>2020-07-26T09:25:22.009Z</time>
      </trkpt>
      <trkpt lat="45.16636" lon="5.9858">
        <ele>2821.28390016</ele>
        <time>2020-07-26T09:25:30.009Z</time>
      </trkpt>
      <trkpt lat="45.16637" lon="5.98585">
        <ele>2821.78390016</ele>
        <time>2020-07-26T09:25:35.009Z</time>
      </trkpt>
      <trkpt lat="45.16639" lon="5.98591">
        <ele>2823.76780032</ele>
        <time>2020-07-26T09:25:46.009Z</time>
      </trkpt>
      <trkpt lat="45.16639" lon="5.98594">
        <ele>2824.76780032</ele>
        <time>2020-07-26T09:25:51.009Z</time>
      </trkpt>
      <trkpt lat="45.16639" lon="5.986">
        <ele>2826.61609984</ele>
        <time>2020-07-26T09:26:11.009Z</time>
      </trkpt>
      <trkpt lat="45.16638" lon="5.98608">
        <ele>2826</ele>
        <time>2020-07-26T09:26:35.009Z</time>
      </trkpt>
      <trkpt lat="45.16642" lon="5.98617">
        <ele>2830.15170048</ele>
        <time>2020-07-26T09:26:51.009Z</time>
      </trkpt>
      <trkpt lat="45.16643" lon="5.98628">
        <ele>2833.36780032</ele>
        <time>2020-07-26T09:27:04.009Z</time>
      </trkpt>
      <trkpt lat="45.1665" lon="5.98632">
        <ele>2836</ele>
        <time>2020-07-26T09:27:19.009Z</time>
      </trkpt>
      <trkpt lat="45.16652" lon="5.98641">
        <ele>2837.56780032</ele>
        <time>2020-07-26T09:27:35.009Z</time>
      </trkpt>
      <trkpt lat="45.16652" lon="5.98647">
        <ele>2838.68390016</ele>
        <time>2020-07-26T09:27:44.009Z</time>
      </trkpt>
      <trkpt lat="45.16651" lon="5.98653">
        <ele>2840.36780032</ele>
        <time>2020-07-26T09:27:54.009Z</time>
      </trkpt>
      <trkpt lat="45.16654" lon="5.9866">
        <ele>2844</ele>
        <time>2020-07-26T09:28:08.009Z</time>
      </trkpt>
      <trkpt lat="45.16654" lon="5.98669">
        <ele>2844.85170048</ele>
        <time>2020-07-26T09:28:20.009Z</time>
      </trkpt>
      <trkpt lat="45.1666" lon="5.98672">
        <ele>2847.28390016</ele>
        <time>2020-07-26T09:28:30.009Z</time>
      </trkpt>
      <trkpt lat="45.16663" lon="5.98681">
        <ele>2850.05170048</ele>
        <time>2020-07-26T09:28:44.009Z</time>
      </trkpt>
      <trkpt lat="45.16666" lon="5.98685">
        <ele>2851.85170048</ele>
        <time>2020-07-26T09:28:50.009Z</time>
      </trkpt>
      <trkpt lat="45.16671" lon="5.98688">
        <ele>2853.95170048</ele>
        <time>2020-07-26T09:28:57.009Z</time>
      </trkpt>
      <trkpt lat="45.16673" lon="5.98696">
        <ele>2854.98390016</ele>
        <time>2020-07-26T09:29:07.009Z</time>
      </trkpt>
      <trkpt lat="45.16677" lon="5.98705">
        <ele>2856.76780032</ele>
        <time>2020-07-26T09:29:16.009Z</time>
      </trkpt>
      <trkpt lat="45.16681" lon="5.98714">
        <ele>2858.78390016</ele>
        <time>2020-07-26T09:29:35.009Z</time>
      </trkpt>
      <trkpt lat="45.16681" lon="5.98721">
        <ele>2859.58390016</ele>
        <time>2020-07-26T09:29:43.009Z</time>
      </trkpt>
      <trkpt lat="45.16683" lon="5.98728">
        <ele>2860.48390016</ele>
        <time>2020-07-26T09:29:52.009Z</time>
      </trkpt>
      <trkpt lat="45.16687" lon="5.98732">
        <ele>2861.3674325347</ele>
        <time>2020-07-26T09:29:59.009Z</time>
      </trkpt>
      <trkpt lat="45.1669" lon="5.98738">
        <ele>2863.2489467858</ele>
        <time>2020-07-26T09:30:08.009Z</time>
      </trkpt>
      <trkpt lat="45.16691" lon="5.98745">
        <ele>2866.16780032</ele>
        <time>2020-07-26T09:30:18.009Z</time>
      </trkpt>
      <trkpt lat="45.16694" lon="5.98751">
        <ele>2867.76780032</ele>
        <time>2020-07-26T09:30:26.009Z</time>
      </trkpt>
      <trkpt lat="45.16698" lon="5.98752">
        <ele>2869.16780032</ele>
        <time>2020-07-26T09:30:33.009Z</time>
      </trkpt>
      <trkpt lat="45.16699" lon="5.98758">
        <ele>2870</ele>
        <time>2020-07-26T09:30:39.009Z</time>
      </trkpt>
      <trkpt lat="45.16701" lon="5.98763">
        <ele>2870.85170048</ele>
        <time>2020-07-26T09:30:50.009Z</time>
      </trkpt>
      <trkpt lat="45.16702" lon="5.98769">
        <ele>2873.28390016</ele>
        <time>2020-07-26T09:31:00.009Z</time>
      </trkpt>
      <trkpt lat="45.16706" lon="5.9877">
        <ele>2873.98390016</ele>
        <time>2020-07-26T09:31:07.009Z</time>
      </trkpt>
      <trkpt lat="45.1671" lon="5.98774">
        <ele>2874.88390016</ele>
        <time>2020-07-26T09:31:16.009Z</time>
      </trkpt>
      <trkpt lat="45.16719" lon="5.98774">
        <ele>2877.75170048</ele>
        <time>2020-07-26T09:31:33.009Z</time>
      </trkpt>
      <trkpt lat="45.16727" lon="5.98781">
        <ele>2881.56780032</ele>
        <time>2020-07-26T09:32:00.009Z</time>
      </trkpt>
      <trkpt lat="45.16735" lon="5.98786">
        <ele>2884.36780032</ele>
        <time>2020-07-26T09:32:19.009Z</time>
      </trkpt>
      <trkpt lat="45.16744" lon="5.9879">
        <ele>2886.78390016</ele>
        <time>2020-07-26T09:32:35.009Z</time>
      </trkpt>
      <trkpt lat="45.16753" lon="5.98795">
        <ele>2891.08390016</ele>
        <time>2020-07-26T09:33:18.009Z</time>
      </trkpt>
      <trkpt lat="45.16758" lon="5.98799">
        <ele>2891.88390016</ele>
        <time>2020-07-26T09:33:26.009Z</time>
      </trkpt>
      <trkpt lat="45.16758" lon="5.98804">
        <ele>2894.35170048</ele>
        <time>2020-07-26T09:33:35.009Z</time>
      </trkpt>
      <trkpt lat="45.16755" lon="5.9881">
        <ele>2896.11609984</ele>
        <time>2020-07-26T09:34:06.009Z</time>
      </trkpt>
      <trkpt lat="45.16762" lon="5.98808">
        <ele>2896</ele>
        <time>2020-07-26T09:34:15.009Z</time>
      </trkpt>
      <trkpt lat="45.16768" lon="5.98806">
        <ele>2897.76780032</ele>
        <time>2020-07-26T09:34:26.009Z</time>
      </trkpt>
      <trkpt lat="45.16775" lon="5.98804">
        <ele>2899.96780032</ele>
        <time>2020-07-26T09:34:37.009Z</time>
      </trkpt>
      <trkpt lat="45.1678" lon="5.98805">
        <ele>2902.18390016</ele>
        <time>2020-07-26T09:34:49.009Z</time>
      </trkpt>
      <trkpt lat="45.16786" lon="5.98803">
        <ele>2903.36780032</ele>
        <time>2020-07-26T09:34:59.009Z</time>
      </trkpt>
      <trkpt lat="45.16795" lon="5.98797">
        <ele>2905.58390016</ele>
        <time>2020-07-26T09:35:33.009Z</time>
      </trkpt>
      <trkpt lat="45.16805" lon="5.988">
        <ele>2908.08390016</ele>
        <time>2020-07-26T09:35:48.009Z</time>
      </trkpt>
      <trkpt lat="45.16814" lon="5.98803">
        <ele>2909.7831162919</ele>
        <time>2020-07-26T09:36:15.009Z</time>
      </trkpt>
      <trkpt lat="45.16825" lon="5.98802">
        <ele>2911.73560064</ele>
        <time>2020-07-26T09:36:29.009Z</time>
      </trkpt>
      <trkpt lat="45.16828" lon="5.98806">
        <ele>2914.13560064</ele>
        <time>2020-07-26T09:36:35.009Z</time>
      </trkpt>
      <trkpt lat="45.16837" lon="5.98812">
        <ele>2918.58390016</ele>
        <time>2020-07-26T09:36:53.009Z</time>
      </trkpt>
      <trkpt lat="45.16847" lon="5.98811">
        <ele>2921.36780032</ele>
        <time>2020-07-26T09:37:34.009Z</time>
      </trkpt>
      <trkpt lat="45.16857" lon="5.98809">
        <ele>2925.9677680571</ele>
        <time>2020-07-26T09:37:57.009Z</time>
      </trkpt>
      <trkpt lat="45.16861" lon="5.98811">
        <ele>2926.8999023438</ele>
        <time>2020-07-26T09:38:28.009Z</time>
      </trkpt>
    </trkseg>
  </trk>
</gpx>